Provisional Data: East Fork First Fork Sinnemahoning Creek near Logue, PA


Please select a monitoring station.
Please select start date.
Please select start date.

Toggle Unit: C/F Toggle Unit: C/F
Sample Time Temperature (C) Temperature (F) Specific Conductivity (mS/cm) pH   Turbidity (NTU+) DO (mg/L)
10/22/2021 12:00:00 AM 12.15 53.87 0.052 6.68 6.85 9.93
10/22/2021 12:15:00 AM 12.11 53.798 0.052 6.66 6.8 9.94
10/22/2021 12:30:00 AM 12.07 53.726 0.052 6.68 7.11 9.96
10/22/2021 12:45:00 AM 12.03 53.654 0.052 6.68 7.68 9.98
10/22/2021 1:00:00 AM 12 53.6 0.051 6.66 7.49 9.99
10/22/2021 1:15:00 AM 11.97 53.546 0.051 6.68 7.86 10
10/22/2021 1:30:00 AM 11.95 53.51 0.051 6.69 8.28 10.01
10/22/2021 1:45:00 AM 11.92 53.456 0.052 6.67 9.31 10.03
10/22/2021 2:00:00 AM 11.9 53.42 0.052 6.69 10.71 10.05
10/22/2021 2:15:00 AM 11.88 53.384 0.052 6.69 11.2 10.06
10/22/2021 2:30:00 AM 11.86 53.348 0.052 6.69 9.54 10.06
10/22/2021 2:45:00 AM 11.84 53.312 0.052 6.7 10.73 10.07
10/22/2021 3:00:00 AM 11.82 53.276 0.052 6.7 8.91 10.08
10/22/2021 3:15:00 AM 11.8 53.24 0.052 6.69 7.5 10.08
10/22/2021 3:30:00 AM 11.78 53.204 0.052 6.68 8.92 10.1
10/22/2021 3:45:00 AM 11.75 53.15 0.052 6.69 7.87 10.1
10/22/2021 4:00:00 AM 11.73 53.114 0.052 6.69 7.07 10.1
10/22/2021 4:15:00 AM 11.71 53.078 0.051 6.69 6.39 10.11
10/22/2021 4:30:00 AM 11.68 53.024 0.051 6.69 6.07 10.13
10/22/2021 4:45:00 AM 11.65 52.97 0.051 6.7 5.58 10.13
10/22/2021 5:00:00 AM 11.63 52.934 0.051 6.69 5.05 10.14
10/22/2021 5:15:00 AM 11.6 52.88 0.051 6.7 4.55 10.15
10/22/2021 5:30:00 AM 11.57 52.826 0.051 6.7 5.32 10.16
10/22/2021 5:45:00 AM 11.54 52.772 0.051 6.69 5.48 10.16
10/22/2021 6:00:00 AM 11.52 52.736 0.051 6.71 5.04 10.17
10/22/2021 6:15:00 AM 11.49 52.682 0.051 6.7 4.72 10.18
10/22/2021 6:30:00 AM 11.46 52.628 0.051 6.69 4.83 10.19
10/22/2021 6:45:00 AM 11.44 52.592 0.051 6.7 4.82 10.19
10/22/2021 7:00:00 AM 11.41 52.538 0.051 6.7 4.58 10.2
10/22/2021 7:15:00 AM 11.39 52.502 0.051 6.7 4.38 10.21
10/22/2021 7:30:00 AM 11.37 52.466 0.051 6.69 4.31 10.22
10/22/2021 7:45:00 AM 11.35 52.43 0.051 6.68 4.37 10.23
10/22/2021 8:00:00 AM 11.33 52.394 0.051 6.7 4.86 10.26
10/22/2021 8:15:00 AM 11.32 52.376 0.051 6.69 3.87 10.28
10/22/2021 8:30:00 AM 11.31 52.358 0.051 6.69 3.68 10.31
10/22/2021 8:45:00 AM 11.31 52.358 0.051 6.71 3.9 10.36
10/22/2021 9:00:00 AM 11.31 52.358 0.051 6.72 4.05 10.38
10/22/2021 9:15:00 AM 11.32 52.376 0.051 6.72 3.43 10.41
10/22/2021 9:30:00 AM 11.35 52.43 0.051 6.74 3.34 10.47
10/22/2021 9:45:00 AM 11.38 52.484 0.05 6.75 3.43 10.53
10/22/2021 10:00:00 AM 11.39 52.502 0.05 6.76 3.13 10.54
10/22/2021 10:15:00 AM 11.43 52.574 0.05 6.79 3.05 10.58
10/22/2021 10:30:00 AM 11.48 52.664 0.05 6.81 2.99 10.6
10/22/2021 10:45:00 AM 11.51 52.718 0.05 6.82 2.79 10.62
10/22/2021 11:00:00 AM 11.52 52.736 0.05 6.82 3.08 10.61
10/22/2021 11:15:00 AM 11.56 52.808 0.05 6.83 2.9 10.63
10/22/2021 11:30:00 AM 11.61 52.898 0.05 6.84 2.87 10.64
10/22/2021 11:45:00 AM 11.61 52.898 0.05 6.84 2.83 10.63
10/22/2021 12:00:00 PM 11.66 52.988 0.05 6.84 2.69 10.63
10/22/2021 12:15:00 PM 11.71 53.078 0.05 6.84 3 10.6
10/22/2021 12:30:00 PM 11.71 53.078 0.05 6.85 3.12 10.6
10/22/2021 12:45:00 PM 11.7 53.06 0.05 6.85 2.91 10.6
10/22/2021 1:00:00 PM 11.69 53.042 0.05 6.85 2.81 10.62
10/22/2021 1:15:00 PM 11.71 53.078 0.05 6.86 2.82 10.64
10/22/2021 1:30:00 PM 11.72 53.096 0.05 6.86 2.72 10.64
10/22/2021 1:45:00 PM 11.75 53.15 0.05 6.86 2.86 10.63
10/22/2021 2:00:00 PM 11.81 53.258 0.05 6.87 2.82 10.6
10/22/2021 2:15:00 PM 11.89 53.402 0.05 6.89 2.86 10.6
10/22/2021 2:30:00 PM 11.9 53.42 0.05 6.89 2.75 10.61
10/22/2021 2:45:00 PM 11.88 53.384 0.05 6.89 2.94 10.62
10/22/2021 3:00:00 PM 11.86 53.348 0.05 6.88 4.31 10.61
10/22/2021 3:15:00 PM 11.86 53.348 0.05 6.83 3.96 10.59
10/22/2021 3:30:00 PM 11.88 53.384 0.05 6.87 3.65 10.57
10/22/2021 3:45:00 PM 11.89 53.402 0.05 6.87 3.2 10.55
10/22/2021 4:00:00 PM 11.87 53.366 0.05 6.83 3.73 10.53
10/22/2021 4:15:00 PM 11.83 53.294 0.05 6.8 3.04 10.52
10/22/2021 4:30:00 PM 11.79 53.222 0.05 6.83 3.14 10.52
10/22/2021 4:45:00 PM 11.74 53.132 0.05 6.81 3.01 10.51
10/22/2021 5:00:00 PM 11.69 53.042 0.05 6.71 2.83 10.49
10/22/2021 5:15:00 PM 11.64 52.952 0.05 6.79 3.01 10.47
10/22/2021 5:30:00 PM 11.59 52.862 0.05 6.77 2.66 10.46
10/22/2021 5:45:00 PM 11.53 52.754 0.05 6.76 2.6 10.44
10/22/2021 6:00:00 PM 11.46 52.628 0.05 6.75 2.73 10.4
10/22/2021 6:15:00 PM 11.4 52.52 0.05 6.74 2.6 10.39
10/22/2021 6:30:00 PM 11.34 52.412 0.051 6.72 2.6 10.37
10/22/2021 6:45:00 PM 11.27 52.286 0.051 6.71 2.83 10.36
10/22/2021 7:00:00 PM 11.21 52.178 0.051 6.7 2.81 10.34
10/22/2021 7:15:00 PM 11.14 52.052 0.051 6.69 3.1 10.35
10/22/2021 7:30:00 PM 11.07 51.926 0.051 6.68 2.87 10.37
10/22/2021 7:45:00 PM 10.99 51.782 0.051 6.67 2.84 10.38
10/22/2021 8:00:00 PM 10.94 51.692 0.051 6.68 2.87 10.39
10/22/2021 8:15:00 PM 10.89 51.602 0.051 6.67 2.67 10.4
10/22/2021 8:30:00 PM 10.84 51.512 0.051 6.67 2.84 10.42
10/22/2021 8:45:00 PM 10.78 51.404 0.051 6.68 2.74 10.43
10/22/2021 9:00:00 PM 10.72 51.296 0.051 6.69 2.77 10.44
10/22/2021 9:15:00 PM 10.66 51.188 0.051 6.69 2.92 10.45
10/22/2021 9:30:00 PM 10.58 51.044 0.051 6.68 2.98 10.48
10/22/2021 9:45:00 PM 10.52 50.936 0.051 6.65 2.98 10.49
10/22/2021 10:00:00 PM 10.46 50.828 0.051 6.69 2.86 10.51
10/22/2021 10:15:00 PM 10.41 50.738 0.051 6.69 2.9 10.53
10/22/2021 10:30:00 PM 10.37 50.666 0.051 6.65 2.8 10.54
10/22/2021 10:45:00 PM 10.33 50.594 0.051 6.63 2.93 10.55
10/22/2021 11:00:00 PM 10.3 50.54 0.051 6.7 2.68 10.57
10/22/2021 11:15:00 PM 10.27 50.486 0.051 6.7 2.93 10.58
10/22/2021 11:30:00 PM 10.23 50.414 0.051 6.7 3.21 10.59
10/22/2021 11:45:00 PM 10.2 50.36 0.051 6.69 3.16 10.59
10/23/2021 12:00:00 AM 10.16 50.288 0.051 6.6 2.78 10.61
10/23/2021 12:15:00 AM 10.12 50.216 0.051 6.71 3.09 10.62
10/23/2021 12:30:00 AM 10.09 50.162 0.051 6.68 3.24 10.63
10/23/2021 12:45:00 AM 10.05 50.09 0.051 6.7 3.17 10.64
10/23/2021 1:00:00 AM 10.02 50.036 0.051 6.69 2.83 10.66
10/23/2021 1:15:00 AM 9.99 49.982 0.051 6.59 2.93 10.66
10/23/2021 1:30:00 AM 9.95 49.91 0.051 6.7 2.97 10.66
10/23/2021 1:45:00 AM 9.92 49.856 0.05 6.63 3.45 10.67
10/23/2021 2:00:00 AM 9.89 49.802 0.05 6.7 2.69 10.68
10/23/2021 2:15:00 AM 9.86 49.748 0.05 6.7 2.73 10.69
10/23/2021 2:30:00 AM 9.84 49.712 0.05 6.69 3.16 10.7
10/23/2021 2:45:00 AM 9.81 49.658 0.05 6.7 3.07 10.71
10/23/2021 3:00:00 AM 9.78 49.604 0.05 6.7 2.78 10.71
10/23/2021 3:15:00 AM 9.76 49.568 0.05 6.7 2.76 10.73
10/23/2021 3:30:00 AM 9.73 49.514 0.05 6.61 2.58 10.73
10/23/2021 3:45:00 AM 9.71 49.478 0.05 6.7 3.57 10.74
10/23/2021 4:00:00 AM 9.69 49.442 0.05 6.69 2.78 10.74
10/23/2021 4:15:00 AM 9.67 49.406 0.05 6.7 3 10.75
10/23/2021 4:30:00 AM 9.65 49.37 0.05 6.66 2.7 10.76
10/23/2021 4:45:00 AM 9.63 49.334 0.05 6.7 2.61 10.76
10/23/2021 5:00:00 AM 9.61 49.298 0.05 6.7 2.79 10.77
10/23/2021 5:15:00 AM 9.59 49.262 0.05 6.61 2.78 10.77
10/23/2021 5:30:00 AM 9.57 49.226 0.05 6.7 3.06 10.78
10/23/2021 5:45:00 AM 9.55 49.19 0.05 6.63 2.87 10.79
10/23/2021 6:00:00 AM 9.53 49.154 0.05 6.66 2.56 10.79
10/23/2021 6:15:00 AM 9.51 49.118 0.05 6.7 2.88 10.8
10/23/2021 6:30:00 AM 9.49 49.082 0.05 6.69 3.03 10.81
10/23/2021 6:45:00 AM 9.48 49.064 0.05 6.69 2.71 10.81
10/23/2021 7:00:00 AM 9.46 49.028 0.05 6.69 2.89 10.81
10/23/2021 7:15:00 AM 9.45 49.01 0.05 6.62 2.97 10.82
10/23/2021 7:30:00 AM 9.43 48.974 0.05 6.7 2.95 10.83
10/23/2021 7:45:00 AM 9.41 48.938 0.05 6.7 2.85 10.84
10/23/2021 8:00:00 AM 9.4 48.92 0.05 6.66 2.66 10.85
10/23/2021 8:15:00 AM 9.39 48.902 0.049 6.7 3.08 10.87
10/23/2021 8:30:00 AM 9.38 48.884 0.049 6.7 2.69 10.89
10/23/2021 8:45:00 AM 9.37 48.866 0.049 6.6 2.73 10.93
10/23/2021 9:00:00 AM 9.36 48.848 0.049 6.72 2.83 10.95
10/23/2021 9:15:00 AM 9.36 48.848 0.049 6.72 2.75 10.97
10/23/2021 9:30:00 AM 9.35 48.83 0.049 6.73 3.34 10.98
10/23/2021 9:45:00 AM 9.36 48.848 0.049 6.68 2.63 11.02
10/23/2021 10:00:00 AM 9.37 48.866 0.049 6.73 3.21 11.06
10/23/2021 10:15:00 AM 9.39 48.902 0.049 6.75 2.49 11.09
10/23/2021 10:30:00 AM 9.41 48.938 0.049 6.78 2.64 11.11
10/23/2021 10:45:00 AM 9.42 48.956 0.049 6.78 2.64 11.12
10/23/2021 11:00:00 AM 9.46 49.028 0.048 6.8 3.05 11.14
10/23/2021 11:15:00 AM 9.47 49.046 0.048 6.8 2.43 11.14
10/23/2021 11:30:00 AM 9.49 49.082 0.048 6.8 2.31 11.14
10/23/2021 11:45:00 AM 9.53 49.154 0.048 6.81 2.62 11.15
10/23/2021 12:00:00 PM 9.58 49.244 0.048 6.77 2.55 11.18
10/23/2021 12:15:00 PM 9.64 49.352 0.048 6.84 2.5 11.18
10/23/2021 12:30:00 PM 9.68 49.424 0.048 6.83 2.35 11.17
10/23/2021 12:45:00 PM 9.72 49.496 0.048 6.84 2.43 11.15
10/23/2021 1:00:00 PM 9.78 49.604 0.048 6.82 2.74 11.16
10/23/2021 1:15:00 PM 9.81 49.658 0.048 6.84 2.6 11.15
10/23/2021 1:30:00 PM 9.83 49.694 0.048 6.79 2.52 11.14
10/23/2021 1:45:00 PM 9.86 49.748 0.048 6.83 2.53 11.12
10/23/2021 2:00:00 PM 9.91 49.838 0.048 6.83 2.47 11.12
10/23/2021 2:15:00 PM 9.95 49.91 0.048 6.84 2.5 11.11
10/23/2021 2:30:00 PM 9.97 49.946 0.048 6.84 2.62 11.1
10/23/2021 2:45:00 PM 9.99 49.982 0.047 6.83 2.52 11.07
10/23/2021 3:00:00 PM 10.01 50.018 0.047 6.83 2.51 11.06
10/23/2021 3:15:00 PM 10.03 50.054 0.047 6.83 2.57 11.07
10/23/2021 3:30:00 PM 10.05 50.09 0.047 6.83 3.21 11.06
10/23/2021 3:45:00 PM 10.06 50.108 0.047 6.82 2.57 11.06
10/23/2021 4:00:00 PM 10.08 50.144 0.047 6.82 2.77 11.05
10/23/2021 4:15:00 PM 10.1 50.18 0.047 6.82 2.72 11.03
10/23/2021 4:30:00 PM 10.12 50.216 0.047 6.81 2.63 11.02
10/23/2021 4:45:00 PM 10.12 50.216 0.047 6.81 2.69 11
10/23/2021 5:00:00 PM 10.1 50.18 0.047 6.8 2.81 10.97
10/23/2021 5:15:00 PM 10.09 50.162 0.047 6.78 2.75 10.94
10/23/2021 5:30:00 PM 10.08 50.144 0.047 6.77 2.69 10.9
10/23/2021 5:45:00 PM 10.06 50.108 0.048 6.75 2.85 10.85
10/23/2021 6:00:00 PM 10.04 50.072 0.048 6.73 2.91 10.83
10/23/2021 6:15:00 PM 10.01 50.018 0.048 6.72 2.74 10.79
10/23/2021 6:30:00 PM 9.99 49.982 0.048 6.71 2.79 10.77
10/23/2021 6:45:00 PM 9.96 49.928 0.048 6.7 2.89 10.76
10/23/2021 7:00:00 PM 9.94 49.892 0.048 6.69 2.82 10.74
10/23/2021 7:15:00 PM 9.91 49.838 0.048 6.68 3.91 10.74
10/23/2021 7:30:00 PM 9.89 49.802 0.048 6.67 2.87 10.73
10/23/2021 7:45:00 PM 9.87 49.766 0.048 6.64 2.92 10.74
10/23/2021 8:00:00 PM 9.85 49.73 0.048 6.68 3.07 10.74
10/23/2021 8:15:00 PM 9.83 49.694 0.048 6.67 2.8 10.74
10/23/2021 8:30:00 PM 9.81 49.658 0.048 6.67 2.99 10.75
10/23/2021 8:45:00 PM 9.79 49.622 0.048 6.66 3.02 10.76
10/23/2021 9:00:00 PM 9.77 49.586 0.048 6.67 2.95 10.77
10/23/2021 9:15:00 PM 9.75 49.55 0.048 6.67 2.88 10.77
10/23/2021 9:30:00 PM 9.73 49.514 0.048 6.67 2.92 10.77
10/23/2021 9:45:00 PM 9.71 49.478 0.048 6.67 2.83 10.77
10/23/2021 10:00:00 PM 9.69 49.442 0.048 6.67 2.97 10.78
10/23/2021 10:15:00 PM 9.67 49.406 0.048 6.67 2.87 10.79
10/23/2021 10:30:00 PM 9.65 49.37 0.048 6.67 2.9 10.8
10/23/2021 10:45:00 PM 9.63 49.334 0.048 6.67 2.98 10.8
10/23/2021 11:00:00 PM 9.61 49.298 0.048 6.66 2.99 10.81
10/23/2021 11:15:00 PM 9.59 49.262 0.048 6.66 2.86 10.81
10/23/2021 11:30:00 PM 9.58 49.244 0.048 6.66 3.04 10.82
10/23/2021 11:45:00 PM 9.56 49.208 0.048 6.66 2.86 10.82
10/24/2021 12:00:00 AM 9.55 49.19 0.048 6.66 2.86 10.83
10/24/2021 12:15:00 AM 9.53 49.154 0.048 6.65 2.88 10.83
10/24/2021 12:30:00 AM 9.52 49.136 0.048 6.66 2.85 10.83
10/24/2021 12:45:00 AM 9.51 49.118 0.048 6.65 2.81 10.85
10/24/2021 1:00:00 AM 9.49 49.082 0.048 6.65 2.96 10.85
10/24/2021 1:15:00 AM 9.47 49.046 0.048 6.63 3 10.85
10/24/2021 1:30:00 AM 9.46 49.028 0.048 6.64 2.81 10.85
10/24/2021 1:45:00 AM 9.44 48.992 0.048 6.64 2.83 10.87
10/24/2021 2:00:00 AM 9.42 48.956 0.048 6.64 2.89 10.87
10/24/2021 2:15:00 AM 9.41 48.938 0.048 6.65 3.08 10.87
10/24/2021 2:30:00 AM 9.4 48.92 0.048 6.65 3.36 10.88
10/24/2021 2:45:00 AM 9.39 48.902 0.048 6.65 3.47 10.88
10/24/2021 3:00:00 AM 9.37 48.866 0.048 6.64 3.43 10.89
10/24/2021 3:15:00 AM 9.36 48.848 0.048 6.65 2.96 10.88
10/24/2021 3:30:00 AM 9.32 48.776 0.048 6.64 2.95 10.9
10/24/2021 3:45:00 AM 9.31 48.758 0.048 6.64 3.07 10.91
10/24/2021 4:00:00 AM 9.29 48.722 0.048 6.65 3.02 10.91
10/24/2021 4:15:00 AM 9.27 48.686 0.048 6.63 3.05 10.91
10/24/2021 4:30:00 AM 9.26 48.668 0.048 6.63 3.01 10.92
10/24/2021 4:45:00 AM 9.25 48.65 0.048 6.64 3.07 10.93
10/24/2021 5:00:00 AM 9.24 48.632 0.048 6.64 3.11 10.93
10/24/2021 5:15:00 AM 9.24 48.632 0.048 6.65 2.86 10.94
10/24/2021 5:30:00 AM 9.22 48.596 0.047 6.64 3.24 10.94
10/24/2021 5:45:00 AM 9.2 48.56 0.047 6.63 3.06 10.94
10/24/2021 6:00:00 AM 9.19 48.542 0.047 6.64 3.06 10.95
10/24/2021 6:15:00 AM 9.17 48.506 0.047 6.64 3.14 10.95
10/24/2021 6:30:00 AM 9.16 48.488 0.047 6.65 3.12 10.96
10/24/2021 6:45:00 AM 9.15 48.47 0.047 6.65 3.05 10.96
10/24/2021 7:00:00 AM 9.14 48.452 0.047 6.65 3.19 10.97
10/24/2021 7:15:00 AM 9.14 48.452 0.047 6.64 2.91 10.97
10/24/2021 7:30:00 AM 9.13 48.434 0.047 6.65 3.14 10.98
10/24/2021 7:45:00 AM 9.13 48.434 0.047 6.65 3.12 10.98
10/24/2021 8:00:00 AM 9.12 48.416 0.047 6.65 3.23 11
10/24/2021 8:15:00 AM 9.12 48.416 0.047 6.66 2.94 11.01
10/24/2021 8:30:00 AM 9.13 48.434 0.047 6.66 2.99 11.04
10/24/2021 8:45:00 AM 9.13 48.434 0.047 6.68 2.93 11.05
10/24/2021 9:00:00 AM 9.13 48.434 0.047 6.68 2.95 11.08
10/24/2021 9:15:00 AM 9.14 48.452 0.047 6.69 2.78 11.1
10/24/2021 9:30:00 AM 9.15 48.47 0.047 6.7 2.81 11.13
10/24/2021 9:45:00 AM 9.16 48.488 0.047 6.71 2.73 11.16
10/24/2021 10:00:00 AM 9.17 48.506 0.047 6.72 2.91 11.18
10/24/2021 10:15:00 AM 9.2 48.56 0.047 6.73 2.75 11.19
10/24/2021 10:30:00 AM 9.25 48.65 0.047 6.73 2.69 11.24
10/24/2021 10:45:00 AM 9.27 48.686 0.047 6.76 2.92 11.25
10/24/2021 11:00:00 AM 9.29 48.722 0.047 6.75 2.66 11.23
10/24/2021 11:15:00 AM 9.33 48.794 0.047 6.76 2.71 11.22
10/24/2021 11:30:00 AM 9.35 48.83 0.047 6.76 2.78 11.2
10/24/2021 11:45:00 AM 9.36 48.848 0.047 6.75 2.66 11.18
10/24/2021 12:00:00 PM 9.37 48.866 0.046 6.75 2.68 11.17
10/24/2021 12:15:00 PM 9.37 48.866 0.046 6.74 2.7 11.16
10/24/2021 12:30:00 PM 9.4 48.92 0.046 6.75 2.83 11.19
10/24/2021 12:45:00 PM 9.44 48.992 0.046 6.77 3.71 11.22
10/24/2021 1:00:00 PM 9.48 49.064 0.046 6.77 3.46 11.24
10/24/2021 1:15:00 PM 9.55 49.19 0.046 6.79 2.99 11.24
10/24/2021 1:30:00 PM 9.59 49.262 0.046 6.79 2.67 11.24
10/24/2021 1:45:00 PM 9.63 49.334 0.046 6.79 2.51 11.21
10/24/2021 2:00:00 PM 9.67 49.406 0.046 6.79 2.54 11.19
10/24/2021 2:15:00 PM 9.7 49.46 0.046 6.78 2.75 11.19
10/24/2021 2:30:00 PM 9.72 49.496 0.046 6.78 2.65 11.17
10/24/2021 2:45:00 PM 9.73 49.514 0.046 6.78 2.75 11.16
10/24/2021 3:00:00 PM 9.75 49.55 0.046 6.77 2.72 11.12
10/24/2021 3:15:00 PM 9.75 49.55 0.046 6.75 2.63 11.07
10/24/2021 3:30:00 PM 9.77 49.586 0.046 6.74 2.69 11.04
10/24/2021 3:45:00 PM 9.78 49.604 0.046 6.69 2.66 11.01
10/24/2021 4:00:00 PM 9.78 49.604 0.046 6.73 2.64 10.99
10/24/2021 4:15:00 PM 9.79 49.622 0.046 6.71 2.73 10.96
10/24/2021 4:30:00 PM 9.79 49.622 0.046 6.71 2.74 10.95
10/24/2021 4:45:00 PM 9.8 49.64 0.046 6.71 2.42 10.93
10/24/2021 5:00:00 PM 9.81 49.658 0.046 6.71 2.24 10.92
10/24/2021 5:15:00 PM 9.81 49.658 0.046 6.7 2.3 10.9
10/24/2021 5:30:00 PM 9.82 49.676 0.046 6.7 2.56 10.88
10/24/2021 5:45:00 PM 9.82 49.676 0.046 6.69 2.44 10.86
10/24/2021 6:00:00 PM 9.82 49.676 0.046 6.68 2.35 10.84
10/24/2021 6:15:00 PM 9.82 49.676 0.046 6.67 2.4 10.83
10/24/2021 6:30:00 PM 9.82 49.676 0.046 6.66 2.37 10.81
10/24/2021 6:45:00 PM 9.82 49.676 0.046 6.64 2.45 10.79
10/24/2021 7:00:00 PM 9.82 49.676 0.046 6.64 2.56 10.79
10/24/2021 7:15:00 PM 9.82 49.676 0.046 6.6 2.63 10.78
10/24/2021 7:30:00 PM 9.82 49.676 0.046 6.65 2.59 10.77
10/24/2021 7:45:00 PM 9.82 49.676 0.046 6.64 2.71 10.77
10/24/2021 8:00:00 PM 9.82 49.676 0.046 6.64 2.71 10.77
10/24/2021 8:15:00 PM 9.82 49.676 0.046 6.63 2.67 10.76
10/24/2021 8:30:00 PM 9.82 49.676 0.046 6.63 2.74 10.76
10/24/2021 8:45:00 PM 9.82 49.676 0.046 6.57 2.73 10.75
10/24/2021 9:00:00 PM 9.82 49.676 0.046 6.63 2.78 10.75
10/24/2021 9:15:00 PM 9.83 49.694 0.046 6.55 2.78 10.75
10/24/2021 9:30:00 PM 9.83 49.694 0.046 6.55 2.88 10.75
10/24/2021 9:45:00 PM 9.83 49.694 0.046 6.62 2.7 10.74
10/24/2021 10:00:00 PM 9.83 49.694 0.046 6.62 2.87 10.75
10/24/2021 10:15:00 PM 9.83 49.694 0.046 6.62 2.82 10.75
10/24/2021 10:30:00 PM 9.83 49.694 0.046 6.62 2.96 10.74
10/24/2021 10:45:00 PM 9.84 49.712 0.046 6.62 3.24 10.73
10/24/2021 11:00:00 PM 9.84 49.712 0.046 6.61 3.06 10.74
10/24/2021 11:15:00 PM 9.84 49.712 0.046 6.61 3.08 10.73
10/24/2021 11:30:00 PM 9.85 49.73 0.046 6.61 3.32 10.74
10/24/2021 11:45:00 PM 9.85 49.73 0.046 6.61 3.26 10.73
10/25/2021 12:00:00 AM 9.86 49.748 0.046 6.61 3.52 10.72
10/25/2021 12:15:00 AM 9.86 49.748 0.046 6.61 3.9 10.73
10/25/2021 12:30:00 AM 9.87 49.766 0.046 6.62 3.58 10.73
10/25/2021 12:45:00 AM 9.87 49.766 0.046 6.62 4.18 10.72
10/25/2021 1:00:00 AM 9.87 49.766 0.046 6.6 24.43 10.72
10/25/2021 1:15:00 AM 9.88 49.784 0.046 6.61 4.32 10.72
10/25/2021 1:30:00 AM 9.88 49.784 0.046 6.59 4.69 10.72
10/25/2021 1:45:00 AM 9.89 49.802 0.046 6.6 4.18 10.71
10/25/2021 2:00:00 AM 9.9 49.82 0.046 6.6 4.95 10.72
10/25/2021 2:15:00 AM 9.9 49.82 0.046 6.6 4.51 10.71
10/25/2021 2:30:00 AM 9.91 49.838 0.046 6.6 4.5 10.7
10/25/2021 2:45:00 AM 9.91 49.838 0.046 6.58 4.79 10.71
10/25/2021 3:00:00 AM 9.91 49.838 0.046 6.59 5.13 10.69
10/25/2021 3:15:00 AM 9.91 49.838 0.046 6.59 5.14 10.7
10/25/2021 3:30:00 AM 9.91 49.838 0.046 6.59 4.65 10.69
10/25/2021 3:45:00 AM 9.91 49.838 0.046 6.59 4.71 10.69
10/25/2021 4:00:00 AM 9.91 49.838 0.046 6.55 5.45 10.69
10/25/2021 4:15:00 AM 9.9 49.82 0.047 6.59 5.71 10.69
10/25/2021 4:30:00 AM 9.9 49.82 0.047 6.57 5.12 10.7
10/25/2021 4:45:00 AM 9.89 49.802 0.047 6.57 5.57 10.7
10/25/2021 5:00:00 AM 9.89 49.802 0.047 6.48 6.59 10.7
10/25/2021 5:15:00 AM 9.89 49.802 0.047 6.58 5.9 10.71
10/25/2021 5:30:00 AM 9.88 49.784 0.047 6.58 5.46 10.7
10/25/2021 5:45:00 AM 9.87 49.766 0.047 6.59 5.56 10.7
10/25/2021 6:00:00 AM 9.86 49.748 0.047 6.58 5.54 10.71
10/25/2021 6:15:00 AM 9.85 49.73 0.047 6.56 5.6 10.71
10/25/2021 6:30:00 AM 9.83 49.694 0.047 6.57 13.28 10.71
10/25/2021 6:45:00 AM 9.81 49.658 0.047 6.57 4.96 10.72
10/25/2021 7:00:00 AM 9.8 49.64 0.047 6.57 4.97 10.72
10/25/2021 7:15:00 AM 9.78 49.604 0.047 6.57 4.49 10.72
10/25/2021 7:30:00 AM 9.76 49.568 0.047 6.57 6.07 10.73
10/25/2021 7:45:00 AM 9.75 49.55 0.047 6.57 4.49 10.74
10/25/2021 8:00:00 AM 9.74 49.532 0.047 6.58 5.69 10.75
10/25/2021 8:15:00 AM 9.73 49.514 0.047 6.58 3.93 10.77
10/25/2021 8:30:00 AM 9.73 49.514 0.047 6.58 3.84 10.78
10/25/2021 8:45:00 AM 9.73 49.514 0.047 6.59 3.88 10.8
10/25/2021 9:00:00 AM 9.73 49.514 0.047 6.6 3.9 10.82
10/25/2021 9:15:00 AM 9.74 49.532 0.047 6.61 3.44 10.83
10/25/2021 9:30:00 AM 9.74 49.532 0.047 6.61 3.32 10.85
10/25/2021 9:45:00 AM 9.76 49.568 0.047 6.62 3.15 10.86
10/25/2021 10:00:00 AM 9.8 49.64 0.047 6.63 3.12 10.86
10/25/2021 10:15:00 AM 9.85 49.73 0.046 6.65 3.05 10.88
10/25/2021 10:30:00 AM 9.91 49.838 0.046 6.65 2.89 10.87
10/25/2021 10:45:00 AM 9.98 49.964 0.046 6.67 2.87 10.88
10/25/2021 11:00:00 AM 10.06 50.108 0.046 6.69 3.23 10.87
10/25/2021 11:15:00 AM 10.14 50.252 0.046 6.69 3.01 10.86
10/25/2021 11:30:00 AM 10.23 50.414 0.046 6.7 2.85 10.85
10/25/2021 11:45:00 AM 10.34 50.612 0.046 6.7 3.01 10.84
10/25/2021 12:00:00 PM 10.47 50.846 0.046 6.72 2.9 10.82
10/25/2021 12:15:00 PM 10.61 51.098 0.046 6.62 4.92 10.8
10/25/2021 12:30:00 PM 10.74 51.332 0.046 6.66 3.56 10.78
10/25/2021 12:45:00 PM 10.89 51.602 0.046 6.74 3.54 10.76
10/25/2021 1:00:00 PM 11.04 51.872 0.046 6.66 3.21 10.74
10/25/2021 1:15:00 PM 11.19 52.142 0.046 6.75 3.42 10.72
10/25/2021 1:30:00 PM 11.3 52.34 0.046 6.75 4.29 10.71
10/25/2021 1:45:00 PM 11.38 52.484 0.046 6.74 4.03 10.68
10/25/2021 2:00:00 PM 11.45 52.61 0.046 6.74 3.54 10.66
10/25/2021 2:15:00 PM 11.49 52.682 0.046 6.73 3.26 10.64
10/25/2021 2:30:00 PM 11.56 52.808 0.046 6.7 2.95 10.64
10/25/2021 2:45:00 PM 11.62 52.916 0.046 6.72 3.1 10.62
10/25/2021 3:00:00 PM 11.68 53.024 0.046 6.73 3.22 10.59
10/25/2021 3:15:00 PM 11.76 53.168 0.046 6.73 3.07 10.57
10/25/2021 3:30:00 PM 11.79 53.222 0.046 6.73 2.89 10.52
10/25/2021 3:45:00 PM 11.79 53.222 0.046 6.71 3.09 10.5
10/25/2021 4:00:00 PM 11.78 53.204 0.046 6.69 3.3 10.48
10/25/2021 4:15:00 PM 11.77 53.186 0.046 6.68 3.43 10.45
10/25/2021 4:30:00 PM 11.77 53.186 0.046 6.66 2.9 10.42
10/25/2021 4:45:00 PM 11.77 53.186 0.046 6.65 4.79 10.4
10/25/2021 5:00:00 PM 11.76 53.168 0.046 6.64 3.01 10.38
10/25/2021 5:15:00 PM 11.77 53.186 0.046 6.64 2.74 10.37
10/25/2021 5:30:00 PM 11.76 53.168 0.046 6.62 2.91 10.33
10/25/2021 5:45:00 PM 11.76 53.168 0.046 6.61 2.77 10.29
10/25/2021 6:00:00 PM 11.76 53.168 0.046 6.59 3.43 10.27
10/25/2021 6:15:00 PM 11.75 53.15 0.046 6.59 3.06 10.24
10/25/2021 6:30:00 PM 11.73 53.114 0.046 6.56 3.16 10.22
10/25/2021 6:45:00 PM 11.72 53.096 0.046 6.56 7.12 10.21
10/25/2021 7:00:00 PM 11.71 53.078 0.046 6.54 3.96 10.21
10/25/2021 7:15:00 PM 11.69 53.042 0.046 6.54 3.53 10.21
10/25/2021 7:30:00 PM 11.67 53.006 0.046 6.55 3.07 10.2
10/25/2021 7:45:00 PM 11.65 52.97 0.046 6.55 3 10.2
10/25/2021 8:00:00 PM 11.64 52.952 0.046 6.55 3.28 10.2
10/25/2021 8:15:00 PM 11.62 52.916 0.046 6.54 3.08 10.21
10/25/2021 8:30:00 PM 11.61 52.898 0.046 6.53 3.26 10.21
10/25/2021 8:45:00 PM 11.59 52.862 0.046 6.54 3.27 10.21
10/25/2021 9:00:00 PM 11.57 52.826 0.046 6.54 3.15 10.21
10/25/2021 9:15:00 PM 11.56 52.808 0.046 6.53 3.24 10.22
10/25/2021 9:30:00 PM 11.54 52.772 0.046 6.53 3.11 10.22
10/25/2021 9:45:00 PM 11.52 52.736 0.046 6.52 3.31 10.22
10/25/2021 10:00:00 PM 11.5 52.7 0.046 6.39 3.39 10.23
10/25/2021 10:15:00 PM 11.48 52.664 0.046 6.53 3.46 10.24
10/25/2021 10:30:00 PM 11.46 52.628 0.046 6.52 3.07 10.23
10/25/2021 10:45:00 PM 11.44 52.592 0.046 6.53 3.29 10.25
10/25/2021 11:00:00 PM 11.42 52.556 0.046 6.51 3.4 10.25
10/25/2021 11:15:00 PM 11.4 52.52 0.046 6.51 3.59 10.26
10/25/2021 11:30:00 PM 11.39 52.502 0.046 6.52 3.28 10.26
10/25/2021 11:45:00 PM 11.37 52.466 0.046 6.52 3.37 10.26
10/26/2021 12:00:00 AM 11.36 52.448 0.046 6.52 3.32 10.26
10/26/2021 12:15:00 AM 11.34 52.412 0.046 6.53 3.92 10.27
10/26/2021 12:30:00 AM 11.32 52.376 0.046 6.39 3.59 10.27
10/26/2021 12:45:00 AM 11.3 52.34 0.046 6.52 4.13 10.27
10/26/2021 1:00:00 AM 11.27 52.286 0.046 6.51 3.53 10.26
10/26/2021 1:15:00 AM 11.25 52.25 0.046 6.51 3.76 10.27
10/26/2021 1:30:00 AM 11.23 52.214 0.046 6.5 4.28 10.28
10/26/2021 1:45:00 AM 11.21 52.178 0.046 6.44 3.83 10.3
10/26/2021 2:00:00 AM 11.19 52.142 0.046 6.51 3.66 10.3
10/26/2021 2:15:00 AM 11.17 52.106 0.046 6.51 3.75 10.29
10/26/2021 2:30:00 AM 11.15 52.07 0.046 6.5 4.24 10.29
10/26/2021 2:45:00 AM 11.13 52.034 0.046 6.51 4.02 10.31
10/26/2021 3:00:00 AM 11.11 51.998 0.046 6.51 4.13 10.32
10/26/2021 3:15:00 AM 11.09 51.962 0.046 6.51 3.91 10.31
10/26/2021 3:30:00 AM 11.06 51.908 0.046 6.51 4.17 10.32
10/26/2021 3:45:00 AM 11.04 51.872 0.046 6.51 4.08 10.33
10/26/2021 4:00:00 AM 11.01 51.818 0.046 6.51 4.12 10.34
10/26/2021 4:15:00 AM 10.99 51.782 0.046 6.5 4.55 10.34
10/26/2021 4:30:00 AM 10.97 51.746 0.046 6.5 4.26 10.36
10/26/2021 4:45:00 AM 10.95 51.71 0.046 6.5 4.23 10.35
10/26/2021 5:00:00 AM 10.93 51.674 0.046 6.52 4.21 10.36
10/26/2021 5:15:00 AM 10.92 51.656 0.046 6.52 4.07 10.36
10/26/2021 5:30:00 AM 10.91 51.638 0.045 6.52 4.63 10.36
10/26/2021 5:45:00 AM 10.89 51.602 0.045 6.52 4.2 10.36
10/26/2021 6:00:00 AM 10.88 51.584 0.045 6.52 3.94 10.36
10/26/2021 6:15:00 AM 10.87 51.566 0.045 6.51 3.96 10.37
10/26/2021 6:30:00 AM 10.86 51.548 0.045 6.49 4.68 10.37
10/26/2021 6:45:00 AM 10.85 51.53 0.045 6.52 3.95 10.38
10/26/2021 7:00:00 AM 10.85 51.53 0.045 6.52 3.67 10.38
10/26/2021 7:15:00 AM 10.84 51.512 0.045 6.52 4.37 10.38
10/26/2021 7:30:00 AM 10.83 51.494 0.045 6.52 3.93 10.39
10/26/2021 7:45:00 AM 10.83 51.494 0.045 6.51 3.94 10.38
10/26/2021 8:00:00 AM 10.82 51.476 0.045 6.52 3.87 10.39
10/26/2021 8:15:00 AM 10.82 51.476 0.045 6.52 3.87 10.4
10/26/2021 8:30:00 AM 10.81 51.458 0.045 6.52 4.01 10.41
10/26/2021 8:45:00 AM 10.81 51.458 0.045 6.52 4.07 10.42
10/26/2021 9:00:00 AM 10.81 51.458 0.045 6.53 4.14 10.42
10/26/2021 9:15:00 AM 10.8 51.44 0.045 6.54 4.04 10.43
10/26/2021 9:30:00 AM 10.79 51.422 0.045 6.55 4.72 10.44
10/26/2021 9:45:00 AM 10.78 51.404 0.045 6.54 4.65 10.46
10/26/2021 10:00:00 AM 10.76 51.368 0.045 6.56 5.63 10.48
10/26/2021 10:15:00 AM 10.73 51.314 0.045 6.56 5.85 10.49
10/26/2021 10:30:00 AM 10.71 51.278 0.045 6.57 6 10.51
10/26/2021 10:45:00 AM 10.69 51.242 0.045 6.58 6.71 10.52
10/26/2021 11:00:00 AM 10.66 51.188 0.045 6.58 7.1 10.55
10/26/2021 11:15:00 AM 10.63 51.134 0.045 6.59 6.65 10.57
10/26/2021 11:30:00 AM 10.61 51.098 0.045 6.58 6.34 10.58
10/26/2021 11:45:00 AM 10.59 51.062 0.045 6.6 6.43 10.59
10/26/2021 12:00:00 PM 10.56 51.008 0.044 6.6 6.54 10.6
10/26/2021 12:15:00 PM 10.53 50.954 0.044 6.6 7.33 10.61
10/26/2021 12:30:00 PM 10.5 50.9 0.044 6.6 6.62 10.63
10/26/2021 12:45:00 PM 10.47 50.846 0.044 6.59 5.93 10.63
10/26/2021 1:00:00 PM 10.45 50.81 0.044 6.6 6.17 10.65
10/26/2021 1:15:00 PM 10.42 50.756 0.044 6.6 5.41 10.67
10/26/2021 1:30:00 PM 10.39 50.702 0.044 6.62 5.37 10.69
10/26/2021 1:45:00 PM 10.36 50.648 0.044 6.61 6.42 10.7
10/26/2021 2:00:00 PM 10.33 50.594 0.044 6.62 5.24 10.71
10/26/2021 2:15:00 PM 10.29 50.522 0.044 6.62 5.04 10.72
10/26/2021 2:30:00 PM 10.26 50.468 0.044 6.63 5.11 10.72
10/26/2021 2:45:00 PM 10.23 50.414 0.044 6.62 5 10.72
10/26/2021 3:00:00 PM 10.2 50.36 0.044 6.62 5.06 10.72
10/26/2021 3:15:00 PM 10.17 50.306 0.044 6.63 4.92 10.73
10/26/2021 3:30:00 PM 10.13 50.234 0.044 6.63 5.06 10.72
10/26/2021 3:45:00 PM 10.1 50.18 0.044 6.61 4.76 10.72
10/26/2021 4:00:00 PM 10.06 50.108 0.044 6.62 5.06 10.73
10/26/2021 4:15:00 PM 10.01 50.018 0.044 6.61 10.56 10.73
10/26/2021 4:30:00 PM 9.97 49.946 0.044 6.6 6.1 10.73
10/26/2021 4:45:00 PM 9.93 49.874 0.044 6.61 5.18 10.73
10/26/2021 5:00:00 PM 9.88 49.784 0.044 6.6 5.46 10.74
10/26/2021 5:15:00 PM 9.83 49.694 0.044 6.59 5.25 10.74
10/26/2021 5:30:00 PM 9.79 49.622 0.044 6.59 5.4 10.75
10/26/2021 5:45:00 PM 9.76 49.568 0.044 6.58 5.49 10.74
10/26/2021 6:00:00 PM 9.71 49.478 0.044 6.57 5.67 10.75
10/26/2021 6:15:00 PM 9.68 49.424 0.044 6.57 6.55 10.75
10/26/2021 6:30:00 PM 9.64 49.352 0.044 6.57 9.91 10.74
10/26/2021 6:45:00 PM 9.6 49.28 0.044 6.56 6.5 10.75
10/26/2021 7:00:00 PM 9.57 49.226 0.044 6.56 7.04 10.76
10/26/2021 7:15:00 PM 9.54 49.172 0.044 6.56 7.22 10.77
10/26/2021 7:30:00 PM 9.51 49.118 0.044 6.56 6.77 10.77
10/26/2021 7:45:00 PM 9.49 49.082 0.044 6.56 7.03 10.78
10/26/2021 8:00:00 PM 9.46 49.028 0.044 6.56 7.55 10.79
10/26/2021 8:15:00 PM 9.44 48.992 0.044 6.55 7.59 10.8
10/26/2021 8:30:00 PM 9.42 48.956 0.044 6.56 7.99 10.81
10/26/2021 8:45:00 PM 9.41 48.938 0.044 6.57 7.66 10.81
10/26/2021 9:00:00 PM 9.4 48.92 0.044 6.57 7.95 10.82
10/26/2021 9:15:00 PM 9.39 48.902 0.044 6.57 7.62 10.82
10/26/2021 9:30:00 PM 9.38 48.884 0.044 6.58 8.33 10.83
10/26/2021 9:45:00 PM 9.37 48.866 0.044 6.58 8.12 10.84
10/26/2021 10:00:00 PM 9.36 48.848 0.044 6.58 7.27 10.84
10/26/2021 10:15:00 PM 9.36 48.848 0.044 6.58 7.23 10.85
10/26/2021 10:30:00 PM 9.37 48.866 0.044 6.57 7.46 10.85
10/26/2021 10:45:00 PM 9.37 48.866 0.044 6.57 7.26 10.85
10/26/2021 11:00:00 PM 9.37 48.866 0.044 6.57 6.72 10.84
10/26/2021 11:15:00 PM 9.38 48.884 0.044 6.58 6.88 10.84
10/26/2021 11:30:00 PM 9.38 48.884 0.044 6.57 7.08 10.85
10/26/2021 11:45:00 PM 9.39 48.902 0.044 6.57 6.61 10.85
10/27/2021 12:00:00 AM 9.4 48.92 0.044 6.58 6.5 10.85
10/27/2021 12:15:00 AM 9.41 48.938 0.044 6.57 6.95 10.85
10/27/2021 12:30:00 AM 9.42 48.956 0.044 6.58 6.09 10.85
10/27/2021 12:45:00 AM 9.43 48.974 0.044 6.57 8.11 10.86
10/27/2021 1:00:00 AM 9.44 48.992 0.044 6.57 5.95 10.85
10/27/2021 1:15:00 AM 9.45 49.01 0.044 6.57 6.39 10.84
10/27/2021 1:30:00 AM 9.46 49.028 0.044 6.56 6.12 10.84
10/27/2021 1:45:00 AM 9.47 49.046 0.044 6.56 6.7 10.84
10/27/2021 2:00:00 AM 9.49 49.082 0.043 6.56 6.28 10.84
10/27/2021 2:15:00 AM 9.5 49.1 0.043 6.56 6.81 10.84
10/27/2021 2:30:00 AM 9.51 49.118 0.043 6.55 5.87 10.84
10/27/2021 2:45:00 AM 9.53 49.154 0.043 6.56 7.49 10.84
10/27/2021 3:00:00 AM 9.54 49.172 0.043 6.55 7.11 10.83
10/27/2021 3:15:00 AM 9.56 49.208 0.043 6.55 8.18 10.83
10/27/2021 3:30:00 AM 9.57 49.226 0.043 6.54 6.16 10.83
10/27/2021 3:45:00 AM 9.59 49.262 0.043 6.54 7.38 10.83
10/27/2021 4:00:00 AM 9.6 49.28 0.043 6.54 6.75 10.82
10/27/2021 4:15:00 AM 9.61 49.298 0.043 6.54 6.1 10.82
10/27/2021 4:30:00 AM 9.63 49.334 0.043 6.5 6.01 10.82
10/27/2021 4:45:00 AM 9.64 49.352 0.043 6.55 6.52 10.82
10/27/2021 5:00:00 AM 9.65 49.37 0.043 6.54 6.38 10.82
10/27/2021 5:15:00 AM 9.66 49.388 0.043 6.53 6.3 10.82
10/27/2021 5:30:00 AM 9.67 49.406 0.043 6.54 6.7 10.82
10/27/2021 5:45:00 AM 9.68 49.424 0.043 6.53 5.89 10.82
10/27/2021 6:00:00 AM 9.69 49.442 0.043 6.54 6.63 10.82
10/27/2021 6:15:00 AM 9.7 49.46 0.043 6.54 6 10.82
10/27/2021 6:30:00 AM 9.71 49.478 0.043 6.48 6.44 10.81
10/27/2021 6:45:00 AM 9.72 49.496 0.043 6.53 6.3 10.81
10/27/2021 7:00:00 AM 9.73 49.514 0.043 6.52 6.46 10.81
10/27/2021 7:15:00 AM 9.74 49.532 0.043 6.52 6.09 10.82
10/27/2021 7:30:00 AM 9.75 49.55 0.043 6.5 6.29 10.81
10/27/2021 7:45:00 AM 9.76 49.568 0.043 6.52 6.56 10.8
10/27/2021 8:00:00 AM 9.78 49.604 0.042 6.44 6.21 10.82
10/27/2021 8:15:00 AM 9.79 49.622 0.042 6.53 6.23 10.82
10/27/2021 8:30:00 AM 9.81 49.658 0.042 6.53 5.52 10.84
10/27/2021 8:45:00 AM 9.82 49.676 0.042 6.5 5.71 10.84
10/27/2021 9:00:00 AM 9.85 49.73 0.042 6.53 5.68 10.85
10/27/2021 9:15:00 AM 9.87 49.766 0.042 6.53 5.85 10.87
10/27/2021 9:30:00 AM 9.9 49.82 0.042 6.55 5.76 10.88
10/27/2021 9:45:00 AM 9.93 49.874 0.042 6.56 5.39 10.89
10/27/2021 10:00:00 AM 9.96 49.928 0.042 6.54 5.84 10.9
10/27/2021 10:15:00 AM 9.99 49.982 0.042 6.56 5.77 10.9
10/27/2021 10:30:00 AM 10.02 50.036 0.042 6.55 5.78 10.9
10/27/2021 10:45:00 AM 10.06 50.108 0.042 6.57 5.42 10.91
10/27/2021 11:00:00 AM 10.09 50.162 0.042 6.57 5.88 10.9
10/27/2021 11:15:00 AM 10.11 50.198 0.042 6.57 8.6 10.9
10/27/2021 11:30:00 AM 10.14 50.252 0.042 6.57 5.62 10.9
10/27/2021 11:45:00 AM 10.2 50.36 0.042 6.57 5.46 10.9
10/27/2021 12:00:00 PM 10.27 50.486 0.042 6.57 6.11 10.88
10/27/2021 12:15:00 PM 10.35 50.63 0.042 6.58 7.43 10.85
10/27/2021 12:30:00 PM 10.46 50.828 0.041 6.59 5.61 10.84
10/27/2021 12:45:00 PM 10.55 50.99 0.041 6.6 5.22 10.82
10/27/2021 1:00:00 PM 10.63 51.134 0.041 6.57 7.73 10.8
10/27/2021 1:15:00 PM 10.71 51.278 0.041 6.61 6.64 10.79
10/27/2021 1:30:00 PM 10.79 51.422 0.041 6.6 6.06 10.77
10/27/2021 1:45:00 PM 10.86 51.548 0.041 6.59 6.19 10.75
10/27/2021 2:00:00 PM 10.92 51.656 0.041 6.6 6.38 10.74
10/27/2021 2:15:00 PM 10.98 51.764 0.041 6.59 5.44 10.72
10/27/2021 2:30:00 PM 11.02 51.836 0.041 6.59 7.68 10.7
10/27/2021 2:45:00 PM 11.06 51.908 0.041 6.58 5 10.69
10/27/2021 3:00:00 PM 11.09 51.962 0.041 6.59 5.94 10.68
10/27/2021 3:15:00 PM 11.11 51.998 0.041 6.58 6.74 10.67
10/27/2021 3:30:00 PM 11.13 52.034 0.041 6.58 5.58 10.66
10/27/2021 3:45:00 PM 11.13 52.034 0.041 6.58 5.17 10.65
10/27/2021 4:00:00 PM 11.12 52.016 0.041 6.57 6.05 10.64
10/27/2021 4:15:00 PM 11.09 51.962 0.041 6.57 5.97 10.63
10/27/2021 4:30:00 PM 11.06 51.908 0.041 6.56 5.75 10.63
10/27/2021 4:45:00 PM 11.01 51.818 0.041 6.56 6.88 10.63
10/27/2021 5:00:00 PM 10.96 51.728 0.041 6.53 6.44 10.61
10/27/2021 5:15:00 PM 10.91 51.638 0.041 6.54 7.19 10.6
10/27/2021 5:30:00 PM 10.86 51.548 0.041 6.52 6.26 10.61
10/27/2021 5:45:00 PM 10.8 51.44 0.041 6.44 6.92 10.61
10/27/2021 6:00:00 PM 10.73 51.314 0.041 6.49 6.5 10.61
10/27/2021 6:15:00 PM 10.67 51.206 0.041 6.49 7.13 10.61
10/27/2021 6:30:00 PM 10.62 51.116 0.041 6.49 5.53 10.61
10/27/2021 6:45:00 PM 10.56 51.008 0.041 6.49 5.21 10.62
10/27/2021 7:00:00 PM 10.5 50.9 0.041 6.48 5.46 10.63
10/27/2021 7:15:00 PM 10.44 50.792 0.041 6.48 5.6 10.64
10/27/2021 7:30:00 PM 10.38 50.684 0.041 6.48 6.47 10.66
10/27/2021 7:45:00 PM 10.32 50.576 0.041 6.47 8.85 10.67
10/27/2021 8:00:00 PM 10.26 50.468 0.041 6.44 5.86 10.69
10/27/2021 8:15:00 PM 10.2 50.36 0.041 6.47 5.77 10.71
10/27/2021 8:30:00 PM 10.14 50.252 0.041 6.47 7.27 10.72
10/27/2021 8:45:00 PM 10.08 50.144 0.041 6.49 5.81 10.74
10/27/2021 9:00:00 PM 10.02 50.036 0.041 6.48 6.66 10.76
10/27/2021 9:15:00 PM 9.96 49.928 0.041 6.48 10.73 10.77
10/27/2021 9:30:00 PM 9.9 49.82 0.041 6.48 6.58 10.79
10/27/2021 9:45:00 PM 9.84 49.712 0.041 6.48 5.91 10.81
10/27/2021 10:00:00 PM 9.79 49.622 0.041 6.48 6.49 10.82
10/27/2021 10:15:00 PM 9.73 49.514 0.041 6.47 5.41 10.84
10/27/2021 10:30:00 PM 9.67 49.406 0.041 6.47 5.56 10.85
10/27/2021 10:45:00 PM 9.62 49.316 0.041 6.47 5.53 10.87
10/27/2021 11:00:00 PM 9.56 49.208 0.041 6.46 5.19 10.88
10/27/2021 11:15:00 PM 9.51 49.118 0.041 6.47 5.33 10.9
10/27/2021 11:30:00 PM 9.45 49.01 0.041 6.47 5.28 10.91
10/27/2021 11:45:00 PM 9.4 48.92 0.041 6.46 5.27 10.93
10/28/2021 12:00:00 AM 9.36 48.848 0.041 6.45 4.76 10.94
10/28/2021 12:15:00 AM 9.3 48.74 0.041 6.46 7.71 10.95
10/28/2021 12:30:00 AM 9.25 48.65 0.041 6.47 5.34 10.97
10/28/2021 12:45:00 AM 9.21 48.578 0.041 6.43 5.35 10.98
10/28/2021 1:00:00 AM 9.16 48.488 0.041 6.49 5.05 11
10/28/2021 1:15:00 AM 9.12 48.416 0.041 6.49 4.86 11.01
10/28/2021 1:30:00 AM 9.07 48.326 0.041 6.48 4.65 11.03
10/28/2021 1:45:00 AM 9.03 48.254 0.041 6.49 5.84 11.04
10/28/2021 2:00:00 AM 8.99 48.182 0.041 6.48 4.57 11.05
10/28/2021 2:15:00 AM 8.94 48.092 0.041 6.48 5.4 11.06
10/28/2021 2:30:00 AM 8.9 48.02 0.041 6.46 4.79 11.08
10/28/2021 2:45:00 AM 8.86 47.948 0.041 6.48 5.03 11.07
10/28/2021 3:00:00 AM 8.82 47.876 0.041 6.49 4.67 11.09
10/28/2021 3:15:00 AM 8.78 47.804 0.041 6.49 5.33 11.1
10/28/2021 3:30:00 AM 8.74 47.732 0.041 6.49 5.05 11.11
10/28/2021 3:45:00 AM 8.71 47.678 0.041 6.5 4.97 11.13
10/28/2021 4:00:00 AM 8.67 47.606 0.041 6.5 4.68 11.12
10/28/2021 4:15:00 AM 8.63 47.534 0.041 6.47 4.62 11.15
10/28/2021 4:30:00 AM 8.6 47.48 0.041 6.5 4.67 11.16
10/28/2021 4:45:00 AM 8.56 47.408 0.041 6.5 4.4 11.15
10/28/2021 5:00:00 AM 8.53 47.354 0.041 6.5 4.46 11.16
10/28/2021 5:15:00 AM 8.49 47.282 0.041 6.49 4.69 11.17
10/28/2021 5:30:00 AM 8.46 47.228 0.041 6.51 4.67 11.2
10/28/2021 5:45:00 AM 8.43 47.174 0.041 6.5 4.77 11.21
10/28/2021 6:00:00 AM 8.4 47.12 0.041 6.44 4.83 11.21
10/28/2021 6:15:00 AM 8.36 47.048 0.041 6.5 4.38 11.23
10/28/2021 6:30:00 AM 8.34 47.012 0.041 6.5 4.96 11.23
10/28/2021 6:45:00 AM 8.3 46.94 0.041 6.51 4.07 11.24
10/28/2021 7:00:00 AM 8.28 46.904 0.041 6.49 4.05 11.25
10/28/2021 7:15:00 AM 8.25 46.85 0.041 6.52 4.37 11.25
10/28/2021 7:30:00 AM 8.22 46.796 0.041 6.44 4.3 11.27
10/28/2021 7:45:00 AM 8.19 46.742 0.041 6.51 4.28 11.27
10/28/2021 8:00:00 AM 8.16 46.688 0.041 6.51 4.28 11.3
10/28/2021 8:15:00 AM 8.14 46.652 0.041 6.48 3.94 11.3
10/28/2021 8:30:00 AM 8.11 46.598 0.041 6.53 4.38 11.32
10/28/2021 8:45:00 AM 8.1 46.58 0.041 6.51 4.45 11.34
10/28/2021 9:00:00 AM 8.08 46.544 0.04 6.52 4.04 11.36
10/28/2021 9:15:00 AM 8.07 46.526 0.04 6.53 3.89 11.38
10/28/2021 9:30:00 AM 8.07 46.526 0.04 6.55 3.99 11.39
10/28/2021 9:45:00 AM 8.08 46.544 0.04 6.53 4.28 11.4
10/28/2021 10:00:00 AM 8.11 46.598 0.04 6.55 3.54 11.4
10/28/2021 10:15:00 AM 8.16 46.688 0.04 6.56 3.61 11.42
10/28/2021 10:30:00 AM 8.24 46.832 0.04 6.57 3.71 11.41
10/28/2021 10:45:00 AM 8.31 46.958 0.04 6.57 4.07 11.4
10/28/2021 11:00:00 AM 8.39 47.102 0.04 6.5 4.36 11.39
10/28/2021 11:15:00 AM 8.48 47.264 0.04 6.58 3.79 11.37
10/28/2021 11:30:00 AM 8.59 47.462 0.04 6.59 3.5 11.36
10/28/2021 11:45:00 AM 8.67 47.606 0.04 6.58 3.64 11.33
10/28/2021 12:00:00 PM 8.77 47.786 0.04 6.61 3.37 11.32
10/28/2021 12:15:00 PM 8.89 48.002 0.04 6.61 3.43 11.28
10/28/2021 12:30:00 PM 9.02 48.236 0.04 6.62 3.4 11.27
10/28/2021 12:45:00 PM 9.14 48.452 0.04 6.62 3.77 11.23
10/28/2021 1:00:00 PM 9.27 48.686 0.04 6.62 3.27 11.21
10/28/2021 1:15:00 PM 9.41 48.938 0.04 6.62 3.81 11.16
10/28/2021 1:30:00 PM 9.55 49.19 0.04 6.63 4.03 11.13
10/28/2021 1:45:00 PM 9.66 49.388 0.04 6.57 3.4 11.1
10/28/2021 2:00:00 PM 9.76 49.568 0.04 6.62 3.21 11.06
10/28/2021 2:15:00 PM 9.87 49.766 0.04 6.59 3.57 11.04
10/28/2021 2:30:00 PM 9.96 49.928 0.04 6.57 3.41 11.01
10/28/2021 2:45:00 PM 10.03 50.054 0.04 6.61 3.48 10.98
10/28/2021 3:00:00 PM 10.1 50.18 0.04 6.6 3.6 10.95
10/28/2021 3:15:00 PM 10.17 50.306 0.04 6.56 3.53 10.93
10/28/2021 3:30:00 PM 10.22 50.396 0.04 6.56 3.52 10.91
10/28/2021 3:45:00 PM 10.29 50.522 0.04 6.6 5.72 10.89
10/28/2021 4:00:00 PM 10.35 50.63 0.04 6.61 3.37 10.87
10/28/2021 4:15:00 PM 10.4 50.72 0.04 6.6 3.46 10.85
10/28/2021 4:30:00 PM 10.45 50.81 0.04 6.59 3.36 10.83
10/28/2021 4:45:00 PM 10.47 50.846 0.04 6.52 3.79 10.79
10/28/2021 5:00:00 PM 10.48 50.864 0.04 6.59 3.78 10.77
10/28/2021 5:15:00 PM 10.48 50.864 0.04 6.56 3.53 10.75
10/28/2021 5:30:00 PM 10.48 50.864 0.04 6.55 3.61 10.73
10/28/2021 5:45:00 PM 10.48 50.864 0.04 6.55 3.45 10.71
10/28/2021 6:00:00 PM 10.47 50.846 0.04 6.54 3.27 10.69
10/28/2021 6:15:00 PM 10.45 50.81 0.04 6.53 3.96 10.67
10/28/2021 6:30:00 PM 10.43 50.774 0.04 6.52 3.64 10.66
10/28/2021 6:45:00 PM 10.41 50.738 0.04 6.51 4.02 10.66
10/28/2021 7:00:00 PM 10.39 50.702 0.04 6.51 3.72 10.65
10/28/2021 7:15:00 PM 10.37 50.666 0.04 6.5 3.51 10.65
10/28/2021 7:30:00 PM 10.34 50.612 0.04 6.45 3.86 10.66
10/28/2021 7:45:00 PM 10.32 50.576 0.04 6.5 4.04 10.66
10/28/2021 8:00:00 PM 10.31 50.558 0.04 6.5 3.91 10.66
10/28/2021 8:15:00 PM 10.3 50.54 0.04 6.51 4.16 10.66
10/28/2021 8:30:00 PM 10.28 50.504 0.04 6.44 4.17 10.67
10/28/2021 8:45:00 PM 10.27 50.486 0.04 6.51 4 10.68
10/28/2021 9:00:00 PM 10.26 50.468 0.04 6.5 3.93 10.68
10/28/2021 9:15:00 PM 10.25 50.45 0.04 6.48 3.38 10.68
10/28/2021 9:30:00 PM 10.23 50.414 0.04 6.51 3.67 10.69
10/28/2021 9:45:00 PM 10.22 50.396 0.04 6.51 3.6 10.69
10/28/2021 10:00:00 PM 10.21 50.378 0.04 6.5 3.44 10.7
10/28/2021 10:15:00 PM 10.2 50.36 0.04 6.49 3.78 10.7
10/28/2021 10:30:00 PM 10.19 50.342 0.04 6.49 3.5 10.69
10/28/2021 10:45:00 PM 10.18 50.324 0.04 6.48 3.25 10.7
10/28/2021 11:00:00 PM 10.17 50.306 0.04 6.5 3.53 10.71
10/28/2021 11:15:00 PM 10.16 50.288 0.04 6.48 3.44 10.7
10/28/2021 11:30:00 PM 10.15 50.27 0.04 6.5 3.63 10.71
10/28/2021 11:45:00 PM 10.15 50.27 0.04 6.5 3.6 10.71
10/29/2021 12:00:00 AM 10.14 50.252 0.04 6.46 3.33 10.71
10/29/2021 12:15:00 AM 10.14 50.252 0.04 6.51 3.44 10.71
10/29/2021 12:30:00 AM 10.13 50.234 0.04 6.5 3.52 10.71
10/29/2021 12:45:00 AM 10.13 50.234 0.04 6.52 3.55 10.71
10/29/2021 1:00:00 AM 10.12 50.216 0.04 6.5 3.39 10.7
10/29/2021 1:15:00 AM 10.12 50.216 0.04 6.51 3.52 10.72
10/29/2021 1:30:00 AM 10.12 50.216 0.04 6.49 3.28 10.7
10/29/2021 1:45:00 AM 10.11 50.198 0.04 6.51 3.37 10.7
10/29/2021 2:00:00 AM 10.11 50.198 0.04 6.51 3.56 10.71
10/29/2021 2:15:00 AM 10.11 50.198 0.04 6.5 3.41 10.7
10/29/2021 2:30:00 AM 10.1 50.18 0.04 6.51 3.4 10.71
10/29/2021 2:45:00 AM 10.1 50.18 0.04 6.51 3.59 10.71
10/29/2021 3:00:00 AM 10.1 50.18 0.04 6.5 3.8 10.7
10/29/2021 3:15:00 AM 10.09 50.162 0.04 6.52 3.26 10.71
10/29/2021 3:30:00 AM 10.08 50.144 0.04 6.51 3.47 10.71
10/29/2021 3:45:00 AM 10.08 50.144 0.04 6.49 3.36 10.71
10/29/2021 4:00:00 AM 10.07 50.126 0.04 6.52 3.23 10.71
10/29/2021 4:15:00 AM 10.07 50.126 0.04 6.52 3.43 10.71
10/29/2021 4:30:00 AM 10.06 50.108 0.04 6.5 3.94 10.72
10/29/2021 4:45:00 AM 10.06 50.108 0.04 6.51 3.33 10.72
10/29/2021 5:00:00 AM 10.05 50.09 0.04 6.52 3.53 10.72
10/29/2021 5:15:00 AM 10.05 50.09 0.04 6.52 3.14 10.72
10/29/2021 5:30:00 AM 10.04 50.072 0.04 6.52 4.17 10.72
10/29/2021 5:45:00 AM 10.03 50.054 0.04 6.51 3.36 10.72
10/29/2021 6:00:00 AM 10.02 50.036 0.04 6.53 3.39 10.71
10/29/2021 6:15:00 AM 10.02 50.036 0.04 6.51 3.2 10.72
10/29/2021 6:30:00 AM 10.01 50.018 0.04 6.52 3.43 10.72
10/29/2021 6:45:00 AM 10 50 0.04 6.51 3.45 10.72
10/29/2021 7:00:00 AM 9.99 49.982 0.04 6.5 3.39 10.72
10/29/2021 7:15:00 AM 9.97 49.946 0.04 6.51 3.41 10.72
10/29/2021 7:30:00 AM 9.96 49.928 0.04 6.52 3.47 10.73
10/29/2021 7:45:00 AM 9.94 49.892 0.04 6.43 3.25 10.73
10/29/2021 8:00:00 AM 9.92 49.856 0.04 6.53 3.27 10.73
10/29/2021 8:15:00 AM 9.91 49.838 0.04 6.52 3.51 10.75
10/29/2021 8:30:00 AM 9.89 49.802 0.04 6.52 3.31 10.76
10/29/2021 8:45:00 AM 9.88 49.784 0.04 6.53 3.42 10.77
10/29/2021 9:00:00 AM 9.87 49.766 0.04 6.53 3.41 10.78
10/29/2021 9:15:00 AM 9.88 49.784 0.04 6.47 3.07 10.82
10/29/2021 9:30:00 AM 9.88 49.784 0.04 6.53 3.1 10.84
10/29/2021 9:45:00 AM 9.88 49.784 0.04 6.53 2.92 10.84
10/29/2021 10:00:00 AM 9.88 49.784 0.04 6.56 3.06 10.85
10/29/2021 10:15:00 AM 9.88 49.784 0.04 6.49 5.02 10.86
10/29/2021 10:30:00 AM 9.87 49.766 0.04 6.57 2.97 10.85
10/29/2021 10:45:00 AM 9.87 49.766 0.04 6.55 2.98 10.86
10/29/2021 11:00:00 AM 9.86 49.748 0.04 6.55 3.93 10.86
10/29/2021 11:15:00 AM 9.85 49.73 0.04 6.54 3.63 10.84
10/29/2021 11:30:00 AM 9.86 49.748 0.04 6.51 3.55 10.86
10/29/2021 11:45:00 AM 9.86 49.748 0.04 6.57 3.8 10.88
10/29/2021 12:00:00 PM 9.86 49.748 0.04 6.52 3.87 10.87
10/29/2021 12:15:00 PM 9.86 49.748 0.04 6.58 3.52 10.88
10/29/2021 12:30:00 PM 9.86 49.748 0.04 6.58 3.96 10.86
10/29/2021 12:45:00 PM 9.85 49.73 0.04 6.57 5.57 10.85
10/29/2021 1:00:00 PM 9.85 49.73 0.04 6.58 3.56 10.84
10/29/2021 1:15:00 PM 9.85 49.73 0.04 6.51 3.42 10.85
10/29/2021 1:30:00 PM 9.86 49.748 0.04 6.54 3.09 10.86
10/29/2021 1:45:00 PM 9.87 49.766 0.04 6.59 2.84 10.86
10/29/2021 2:00:00 PM 9.86 49.748 0.04 6.52 5.61 10.85
10/29/2021 2:15:00 PM 9.85 49.73 0.04 6.58 3.06 10.83
10/29/2021 2:30:00 PM 9.86 49.748 0.04 6.59 2.93 10.84
10/29/2021 2:45:00 PM 9.86 49.748 0.04 6.58 2.69 10.84
10/29/2021 3:00:00 PM 9.86 49.748 0.04 6.59 4.53 10.84
10/29/2021 3:15:00 PM 9.85 49.73 0.04 6.58 4.41 10.83
10/29/2021 3:30:00 PM 9.85 49.73 0.04 6.57 4.45 10.83
10/29/2021 3:45:00 PM 9.83 49.694 0.04 6.56 4.01 10.81
10/29/2021 4:00:00 PM 9.81 49.658 0.039 6.56 3.79 10.8
10/29/2021 4:15:00 PM 9.78 49.604 0.039 6.56 4.35 10.8
10/29/2021 4:30:00 PM 9.77 49.586 0.039 6.55 5.47 10.79
10/29/2021 4:45:00 PM 9.76 49.568 0.039 6.54 6.09 10.79
10/29/2021 5:00:00 PM 9.75 49.55 0.039 6.53 5.27 10.78
10/29/2021 5:15:00 PM 9.73 49.514 0.039 6.53 5.76 10.78
10/29/2021 5:30:00 PM 9.72 49.496 0.039 6.52 7.17 10.77
10/29/2021 5:45:00 PM 9.72 49.496 0.04 6.52 7.03 10.77
10/29/2021 6:00:00 PM 9.71 49.478 0.04 6.52 8.59 10.75
10/29/2021 6:15:00 PM 9.7 49.46 0.04 6.52 10.6 10.75
10/29/2021 6:30:00 PM 9.69 49.442 0.04 6.52 8.92 10.75
10/29/2021 6:45:00 PM 9.67 49.406 0.04 6.52 10.94 10.74
10/29/2021 7:00:00 PM 9.65 49.37 0.04 6.53 11.09 10.74
10/29/2021 7:15:00 PM 9.64 49.352 0.04 6.46 11.73 10.74
10/29/2021 7:30:00 PM 9.63 49.334 0.04 6.51 11.66 10.74
10/29/2021 7:45:00 PM 9.62 49.316 0.04 6.5 11.78 10.75
10/29/2021 8:00:00 PM 9.6 49.28 0.04 6.49 11.2 10.75
10/29/2021 8:15:00 PM 9.59 49.262 0.04 6.49 10.19 10.76
10/29/2021 8:30:00 PM 9.58 49.244 0.04 6.49 15.01 10.76
10/29/2021 8:45:00 PM 9.57 49.226 0.04 6.49 16.25 10.76
10/29/2021 9:00:00 PM 9.55 49.19 0.04 6.49 8.42 10.76
10/29/2021 9:15:00 PM 9.54 49.172 0.04 6.5 8.08 10.77
10/29/2021 9:30:00 PM 9.53 49.154 0.04 6.42 8.25 10.77
10/29/2021 9:45:00 PM 9.52 49.136 0.04 6.48 7.31 10.77
10/29/2021 10:00:00 PM 9.51 49.118 0.04 6.43 7.17 10.77
10/29/2021 10:15:00 PM 9.5 49.1 0.04 6.47 7.9 10.77
10/29/2021 10:30:00 PM 9.49 49.082 0.04 6.44 6.97 10.78
10/29/2021 10:45:00 PM 9.49 49.082 0.04 6.45 6.93 10.78
10/29/2021 11:00:00 PM 9.48 49.064 0.04 6.45 6.51 10.79
10/29/2021 11:15:00 PM 9.47 49.046 0.041 6.4 7.86 10.78
10/29/2021 11:30:00 PM 9.47 49.046 0.041 6.48 6.66 10.79
10/29/2021 11:45:00 PM 9.46 49.028 0.041 6.47 6.76 10.78
10/30/2021 12:00:00 AM 9.46 49.028 0.041 6.41 8.48 10.78
10/30/2021 12:15:00 AM 9.45 49.01 0.041 6.45 6.5 10.78
10/30/2021 12:30:00 AM 9.45 49.01 0.041 6.44 6.28 10.78
10/30/2021 12:45:00 AM 9.44 48.992 0.041 6.48 5.32 10.79
10/30/2021 1:00:00 AM 9.44 48.992 0.041 6.48 6.68 10.79
10/30/2021 1:15:00 AM 9.43 48.974 0.041 6.51 5.33 10.8
10/30/2021 1:30:00 AM 9.43 48.974 0.041 6.5 5.33 10.8
10/30/2021 1:45:00 AM 9.42 48.956 0.041 6.49 5.39 10.8
10/30/2021 2:00:00 AM 9.41 48.938 0.041 6.47 10.61 10.79
10/30/2021 2:15:00 AM 9.41 48.938 0.041 6.49 5.37 10.79
10/30/2021 2:30:00 AM 9.4 48.92 0.041 6.49 4.93 10.79
10/30/2021 2:45:00 AM 9.4 48.92 0.041 6.43 5.31 10.8
10/30/2021 3:00:00 AM 9.39 48.902 0.041 6.46 6.14 10.8
10/30/2021 3:15:00 AM 9.39 48.902 0.041 6.48 4.99 10.8
10/30/2021 3:30:00 AM 9.38 48.884 0.041 6.5 4.94 10.8
10/30/2021 3:45:00 AM 9.38 48.884 0.041 6.47 4.6 10.8
10/30/2021 4:00:00 AM 9.38 48.884 0.041 6.5 4.58 10.8
10/30/2021 4:15:00 AM 9.37 48.866 0.041 6.49 5.09 10.79
10/30/2021 4:30:00 AM 9.37 48.866 0.041 6.49 5.04 10.79
10/30/2021 4:45:00 AM 9.37 48.866 0.041 6.46 5.01 10.79
10/30/2021 5:00:00 AM 9.37 48.866 0.041 6.49 5.21 10.8
10/30/2021 5:15:00 AM 9.36 48.848 0.041 6.45 5.14 10.8
10/30/2021 5:30:00 AM 9.36 48.848 0.041 6.49 5.3 10.8
10/30/2021 5:45:00 AM 9.36 48.848 0.041 6.47 5.16 10.81
10/30/2021 6:00:00 AM 9.36 48.848 0.041 6.47 4.83 10.8
10/30/2021 6:15:00 AM 9.36 48.848 0.041 6.48 5.33 10.8
10/30/2021 6:30:00 AM 9.36 48.848 0.041 6.49 5.25 10.81
10/30/2021 6:45:00 AM 9.36 48.848 0.041 6.47 15.73 10.8
10/30/2021 7:00:00 AM 9.36 48.848 0.041 6.45 5.56 10.81
10/30/2021 7:15:00 AM 9.36 48.848 0.041 6.5 5.33 10.81
10/30/2021 7:30:00 AM 9.36 48.848 0.041 6.49 6.46 10.81
10/30/2021 7:45:00 AM 9.36 48.848 0.041 6.48 5.94 10.81
10/30/2021 8:00:00 AM 9.36 48.848 0.041 6.48 10.85 10.81
10/30/2021 8:15:00 AM 9.36 48.848 0.041 6.48 13.01 10.82
10/30/2021 8:30:00 AM 9.37 48.866 0.04 6.46 5.96 10.83
10/30/2021 8:45:00 AM 9.38 48.884 0.04 6.47 6.25 10.84
10/30/2021 9:00:00 AM 9.4 48.92 0.04 6.5 5.9 10.87
10/30/2021 9:15:00 AM 9.43 48.974 0.04 6.49 5.39 10.89
10/30/2021 9:30:00 AM 9.45 49.01 0.04 6.47 9.58 10.9
10/30/2021 9:45:00 AM 9.48 49.064 0.04 6.52 5.22 10.91
10/30/2021 10:00:00 AM 9.51 49.118 0.04 6.52 5.74 10.91
10/30/2021 10:15:00 AM 9.54 49.172 0.04 6.48 5.77 10.91
10/30/2021 10:30:00 AM 9.57 49.226 0.04 6.54 5.52 10.91
10/30/2021 10:45:00 AM 9.6 49.28 0.04 6.55 6.46 10.91
10/30/2021 11:00:00 AM 9.64 49.352 0.04 6.54 4.9 10.91
10/30/2021 11:15:00 AM 9.68 49.424 0.04 6.55 5.92 10.91
10/30/2021 11:30:00 AM 9.72 49.496 0.04 6.55 6.26 10.9
10/30/2021 11:45:00 AM 9.76 49.568 0.04 6.49 5.49 10.89
10/30/2021 12:00:00 PM 9.8 49.64 0.04 6.56 5.97 10.89
10/30/2021 12:15:00 PM 9.84 49.712 0.04 6.57 5.53 10.88
10/30/2021 12:30:00 PM 9.87 49.766 0.04 6.58 8.38 10.87
10/30/2021 12:45:00 PM 9.9 49.82 0.04 6.57 5.15 10.85
10/30/2021 1:00:00 PM 9.93 49.874 0.04 6.57 5.62 10.84
10/30/2021 1:15:00 PM 9.95 49.91 0.04 6.53 10.29 10.83
10/30/2021 1:30:00 PM 9.98 49.964 0.04 6.57 5.03 10.81
10/30/2021 1:45:00 PM 10 50 0.04 6.58 5.61 10.82
10/30/2021 2:00:00 PM 10.02 50.036 0.04 6.52 8.74 10.79
10/30/2021 2:15:00 PM 10.05 50.09 0.04 6.56 7.37 10.8
10/30/2021 2:30:00 PM 10.08 50.144 0.04 6.57 6.3 10.79
10/30/2021 2:45:00 PM 10.11 50.198 0.04 6.58 6.8 10.79
10/30/2021 3:00:00 PM 10.13 50.234 0.04 6.57 5.63 10.78
10/30/2021 3:15:00 PM 10.15 50.27 0.04 6.59 6.39 10.77
10/30/2021 3:30:00 PM 10.17 50.306 0.04 6.56 9.64 10.75
10/30/2021 3:45:00 PM 10.18 50.324 0.04 6.56 7.79 10.74
10/30/2021 4:00:00 PM 10.18 50.324 0.04 6.55 6.3 10.72
10/30/2021 4:15:00 PM 10.18 50.324 0.04 6.54 6.01 10.7
10/30/2021 4:30:00 PM 10.19 50.342 0.04 6.53 6.46 10.7
10/30/2021 4:45:00 PM 10.18 50.324 0.04 6.52 7.72 10.68
10/30/2021 5:00:00 PM 10.18 50.324 0.04 6.51 7.92 10.67
10/30/2021 5:15:00 PM 10.18 50.324 0.04 6.45 7.18 10.65
10/30/2021 5:30:00 PM 10.17 50.306 0.04 6.51 7.61 10.64
10/30/2021 5:45:00 PM 10.17 50.306 0.04 6.45 7.42 10.64
10/30/2021 6:00:00 PM 10.16 50.288 0.04 6.46 7.98 10.64
10/30/2021 6:15:00 PM 10.16 50.288 0.04 6.46 9.91 10.63
10/30/2021 6:30:00 PM 10.15 50.27 0.04 6.45 7.52 10.62
10/30/2021 6:45:00 PM 10.15 50.27 0.04 6.4 12.88 10.63
10/30/2021 7:00:00 PM 10.14 50.252 0.04 6.42 12.72 10.62
10/30/2021 7:15:00 PM 10.13 50.234 0.04 6.46 11.72 10.63
10/30/2021 7:30:00 PM 10.12 50.216 0.04 6.45 15.75 10.63
10/30/2021 7:45:00 PM 10.12 50.216 0.04 6.42 6.81 10.63
10/30/2021 8:00:00 PM 10.11 50.198 0.04 6.42 8.33 10.63
10/30/2021 8:15:00 PM 10.1 50.18 0.04 6.44 6.72 10.64
10/30/2021 8:30:00 PM 10.1 50.18 0.04 6.43 8.94 10.63
10/30/2021 8:45:00 PM 10.09 50.162 0.04 6.44 7.21 10.63
10/30/2021 9:00:00 PM 10.08 50.144 0.04 6.41 6.58 10.63
10/30/2021 9:15:00 PM 10.07 50.126 0.04 6.44 7.36 10.64
10/30/2021 9:30:00 PM 10.07 50.126 0.04 6.43 7.24 10.64
10/30/2021 9:45:00 PM 10.06 50.108 0.04 6.42 11.21 10.65
10/30/2021 10:00:00 PM 10.06 50.108 0.04 6.4 6.05 10.65
10/30/2021 10:15:00 PM 10.05 50.09 0.04 6.42 6.86 10.65
10/30/2021 10:30:00 PM 10.05 50.09 0.04 6.37 5.41 10.64
10/30/2021 10:45:00 PM 10.04 50.072 0.04 6.42 6.8 10.65
10/30/2021 11:00:00 PM 10.04 50.072 0.039 6.41 6.08 10.66
10/30/2021 11:15:00 PM 10.03 50.054 0.039 6.41 6.15 10.66
10/30/2021 11:30:00 PM 10.03 50.054 0.039 6.39 6.14 10.64
10/30/2021 11:45:00 PM 10.02 50.036 0.039 6.38 5.23 10.65
10/31/2021 12:00:00 AM 10.02 50.036 0.039 6.39 11.67 10.65
10/31/2021 12:15:00 AM 10.01 50.018 0.039 6.38 5.3 10.66
10/31/2021 12:30:00 AM 10.01 50.018 0.039 6.4 5.34 10.66
10/31/2021 12:45:00 AM 10 50 0.039 6.42 7.19 10.66
10/31/2021 1:00:00 AM 10 50 0.039 6.41 6.37 10.65
10/31/2021 1:15:00 AM 10 50 0.039 6.39 5.35 10.65
10/31/2021 1:30:00 AM 10 50 0.039 6.39 6.02 10.65
10/31/2021 1:45:00 AM 9.99 49.982 0.039 6.36 6.37 10.66
10/31/2021 2:00:00 AM 9.99 49.982 0.039 6.39 6.98 10.65
10/31/2021 2:15:00 AM 9.99 49.982 0.039 6.38 5.85 10.65
10/31/2021 2:30:00 AM 9.99 49.982 0.039 6.35 5.4 10.65
10/31/2021 2:45:00 AM 9.98 49.964 0.039 6.38 6.59 10.65
10/31/2021 3:00:00 AM 9.98 49.964 0.039 6.36 5.65 10.66
10/31/2021 3:15:00 AM 9.98 49.964 0.039 6.36 5.5 10.65
10/31/2021 3:30:00 AM 9.98 49.964 0.039 6.38 5.78 10.65
10/31/2021 3:45:00 AM 9.97 49.946 0.039 6.4 5.68 10.65
10/31/2021 4:00:00 AM 9.97 49.946 0.039 6.42 7.86 10.66
10/31/2021 4:15:00 AM 9.96 49.928 0.039 6.42 9.13 10.66
10/31/2021 4:30:00 AM 9.96 49.928 0.039 6.41 5.74 10.65
10/31/2021 4:45:00 AM 9.95 49.91 0.039 6.41 7.04 10.66
10/31/2021 5:00:00 AM 9.95 49.91 0.039 6.43 7.79 10.65
10/31/2021 5:15:00 AM 9.95 49.91 0.039 6.44 6.93 10.66
10/31/2021 5:30:00 AM 9.95 49.91 0.039 6.4 6.43 10.66
10/31/2021 5:45:00 AM 9.95 49.91 0.039 6.44 6.63 10.67
10/31/2021 6:00:00 AM 9.95 49.91 0.039 6.43 6.31 10.66
10/31/2021 6:15:00 AM 9.94 49.892 0.039 6.38 6.62 10.67
10/31/2021 6:30:00 AM 9.94 49.892 0.039 6.44 5.44 10.67
10/31/2021 6:45:00 AM 9.94 49.892 0.039 6.45 6.14 10.66
10/31/2021 7:00:00 AM 9.94 49.892 0.039 6.45 5.08 10.67
10/31/2021 7:15:00 AM 9.94 49.892 0.039 6.45 5.34 10.67
10/31/2021 7:30:00 AM 9.93 49.874 0.039 6.46 5 10.67
10/31/2021 7:45:00 AM 9.93 49.874 0.039 6.45 5.72 10.67
10/31/2021 8:00:00 AM 9.93 49.874 0.039 6.46 8.52 10.68
10/31/2021 8:15:00 AM 9.93 49.874 0.039 6.45 5.37 10.69
10/31/2021 8:30:00 AM 9.94 49.892 0.039 6.45 6.72 10.69
10/31/2021 8:45:00 AM 9.94 49.892 0.039 6.39 8.2 10.7
10/31/2021 9:00:00 AM 9.94 49.892 0.039 6.48 6.3 10.72
10/31/2021 9:15:00 AM 9.95 49.91 0.039 6.4 5.59 10.73
10/31/2021 9:30:00 AM 9.97 49.946 0.039 6.46 7.3 10.74
10/31/2021 9:45:00 AM 9.97 49.946 0.039 6.47 5.65 10.73
10/31/2021 10:00:00 AM 9.97 49.946 0.039 6.46 5.25 10.74
10/31/2021 10:15:00 AM 9.98 49.964 0.039 6.45 7.72 10.76
10/31/2021 10:30:00 AM 10.01 50.018 0.039 6.46 4.49 10.79
10/31/2021 10:45:00 AM 10.03 50.054 0.039 6.48 4.42 10.8
10/31/2021 11:00:00 AM 10.05 50.09 0.039 6.48 4.58 10.81
10/31/2021 11:15:00 AM 10.07 50.126 0.039 6.49 5.01 10.81
10/31/2021 11:30:00 AM 10.08 50.144 0.039 6.49 5.46 10.8
10/31/2021 11:45:00 AM 10.09 50.162 0.039 6.49 15.31 10.8
10/31/2021 12:00:00 PM 10.1 50.18 0.039 6.5 4.21 10.81
10/31/2021 12:15:00 PM 10.11 50.198 0.039 6.49 3.94 10.8
10/31/2021 12:30:00 PM 10.11 50.198 0.039 6.48 4.05 10.8
10/31/2021 12:45:00 PM 10.12 50.216 0.039 6.44 4.43 10.79
10/31/2021 1:00:00 PM 10.12 50.216 0.039 6.43 13.47 10.79
10/31/2021 1:15:00 PM 10.13 50.234 0.039 6.47 3.89 10.8
10/31/2021 1:30:00 PM 10.14 50.252 0.039 6.45 4.94 10.8
10/31/2021 1:45:00 PM 10.16 50.288 0.039 6.48 4.78 10.81
10/31/2021 2:00:00 PM 10.19 50.342 0.039 6.49 4.23 10.81
10/31/2021 2:15:00 PM 10.22 50.396 0.039 6.5 4.61 10.81
10/31/2021 2:30:00 PM 10.23 50.414 0.039 6.5 4.23 10.8
10/31/2021 2:45:00 PM 10.24 50.432 0.039 6.49 4.4 10.79
10/31/2021 3:00:00 PM 10.25 50.45 0.039 6.49 4.12 10.79
10/31/2021 3:15:00 PM 10.27 50.486 0.039 6.53 4.2 10.79
10/31/2021 3:30:00 PM 10.29 50.522 0.039 6.48 4.02 10.79
10/31/2021 3:45:00 PM 10.32 50.576 0.039 6.53 3.52 10.8
10/31/2021 4:00:00 PM 10.34 50.612 0.039 6.51 4.11 10.79
10/31/2021 4:15:00 PM 10.34 50.612 0.039 6.51 4.39 10.79
10/31/2021 4:30:00 PM 10.34 50.612 0.039 6.49 3.83 10.78
10/31/2021 4:45:00 PM 10.34 50.612 0.039 6.5 3.94 10.78
10/31/2021 5:00:00 PM 10.33 50.594 0.039 6.46 5.44 10.77
10/31/2021 5:15:00 PM 10.31 50.558 0.039 6.51 6.05 10.76
10/31/2021 5:30:00 PM 10.29 50.522 0.039 6.46 5.71 10.75
10/31/2021 5:45:00 PM 10.25 50.45 0.039 6.47 5.34 10.75
10/31/2021 6:00:00 PM 10.21 50.378 0.039 6.46 4.13 10.73
10/31/2021 6:15:00 PM 10.17 50.306 0.039 6.46 4.35 10.72
10/31/2021 6:30:00 PM 10.13 50.234 0.039 6.45 3.87 10.71
10/31/2021 6:45:00 PM 10.1 50.18 0.039 6.44 4.35 10.71
10/31/2021 7:00:00 PM 10.05 50.09 0.039 6.45 4.56 10.72
10/31/2021 7:15:00 PM 10.01 50.018 0.039 6.44 5.54 10.73
10/31/2021 7:30:00 PM 9.96 49.928 0.039 6.43 4.54 10.73
10/31/2021 7:45:00 PM 9.91 49.838 0.039 6.44 4.18 10.75
10/31/2021 8:00:00 PM 9.87 49.766 0.039 6.43 4.31 10.76
10/31/2021 8:15:00 PM 9.82 49.676 0.039 6.45 7.35 10.77
10/31/2021 8:30:00 PM 9.78 49.604 0.039 6.45 5.15 10.78
10/31/2021 8:45:00 PM 9.74 49.532 0.039 6.43 4.88 10.8
10/31/2021 9:00:00 PM 9.7 49.46 0.039 6.45 5.57 10.81
10/31/2021 9:15:00 PM 9.66 49.388 0.039 6.43 5.34 10.82
10/31/2021 9:30:00 PM 9.63 49.334 0.039 6.46 5.7 10.84
10/31/2021 9:45:00 PM 9.59 49.262 0.039 6.45 5.74 10.84
10/31/2021 10:00:00 PM 9.56 49.208 0.039 6.43 4.29 10.86
10/31/2021 10:15:00 PM 9.53 49.154 0.039 6.44 4.42 10.87
10/31/2021 10:30:00 PM 9.5 49.1 0.039 6.45 4.97 10.87
10/31/2021 10:45:00 PM 9.49 49.082 0.039 6.45 4.48 10.88
10/31/2021 11:00:00 PM 9.48 49.064 0.039 6.44 10.33 10.89
10/31/2021 11:15:00 PM 9.46 49.028 0.039 6.45 4.77 10.89
10/31/2021 11:30:00 PM 9.45 49.01 0.039 6.44 4.32 10.9
10/31/2021 11:45:00 PM 9.45 49.01 0.039 6.45 5.1 10.91
11/1/2021 12:00:00 AM 9.44 48.992 0.039 6.44 4.65 10.91
11/1/2021 12:15:00 AM 9.44 48.992 0.039 6.43 4.73 10.91
11/1/2021 12:30:00 AM 9.44 48.992 0.039 6.47 5.08 10.91
11/1/2021 12:45:00 AM 9.44 48.992 0.039 6.48 3.97 10.91
11/1/2021 1:00:00 AM 9.44 48.992 0.039 6.49 4.19 10.91
11/1/2021 1:15:00 AM 9.43 48.974 0.039 6.47 4.04 10.91
11/1/2021 1:30:00 AM 9.43 48.974 0.039 6.48 3.98 10.91
11/1/2021 1:45:00 AM 9.44 48.992 0.039 6.42 4.45 10.9
11/1/2021 2:00:00 AM 9.45 49.01 0.039 6.48 3.82 10.91
11/1/2021 2:15:00 AM 9.45 49.01 0.039 6.47 4.55 10.91
11/1/2021 2:30:00 AM 9.46 49.028 0.039 6.48 3.96 10.92
11/1/2021 2:45:00 AM 9.46 49.028 0.039 6.48 4.39 10.91
11/1/2021 3:00:00 AM 9.46 49.028 0.039 6.49 4.38 10.92
11/1/2021 3:15:00 AM 9.46 49.028 0.039 6.49 3.97 10.92
11/1/2021 3:30:00 AM 9.45 49.01 0.039 6.47 3.97 10.93
11/1/2021 3:45:00 AM 9.44 48.992 0.039 6.41 4.37 10.93
11/1/2021 4:00:00 AM 9.44 48.992 0.039 6.47 4.39 10.93
11/1/2021 4:15:00 AM 9.42 48.956 0.039 6.47 4.31 10.94
11/1/2021 4:30:00 AM 9.39 48.902 0.039 6.45 5.04 10.94
11/1/2021 4:45:00 AM 9.36 48.848 0.039 6.48 4.76 10.96
11/1/2021 5:00:00 AM 9.34 48.812 0.039 6.46 4.46 10.96
11/1/2021 5:15:00 AM 9.31 48.758 0.039 6.48 4.35 10.98
11/1/2021 5:30:00 AM 9.29 48.722 0.039 6.48 4.5 10.98
11/1/2021 5:45:00 AM 9.25 48.65 0.039 6.48 3.96 10.99
11/1/2021 6:00:00 AM 9.22 48.596 0.039 6.49 4.36 11
11/1/2021 6:15:00 AM 9.19 48.542 0.039 6.48 4.44 11.02
11/1/2021 6:30:00 AM 9.15 48.47 0.039 6.49 4.21 11.03
11/1/2021 6:45:00 AM 9.11 48.398 0.039 6.48 4.09 11.05
11/1/2021 7:00:00 AM 9.07 48.326 0.039 6.47 4.6 11.06
11/1/2021 7:15:00 AM 9.03 48.254 0.039 6.45 3.92 11.08
11/1/2021 7:30:00 AM 8.99 48.182 0.039 6.45 5.64 11.09
11/1/2021 7:45:00 AM 8.95 48.11 0.039 6.42 3.94 11.09
11/1/2021 8:00:00 AM 8.9 48.02 0.039 6.47 3.4 11.13
11/1/2021 8:15:00 AM 8.86 47.948 0.039 6.46 3.28 11.15
11/1/2021 8:30:00 AM 8.82 47.876 0.039 6.47 3.54 11.17
11/1/2021 8:45:00 AM 8.79 47.822 0.039 6.47 3.52 11.2
11/1/2021 9:00:00 AM 8.75 47.75 0.039 6.46 3.29 11.21
11/1/2021 9:15:00 AM 8.72 47.696 0.039 6.46 3.38 11.23
11/1/2021 9:30:00 AM 8.7 47.66 0.039 6.45 3.48 11.26
11/1/2021 9:45:00 AM 8.68 47.624 0.039 6.49 2.99 11.29
11/1/2021 10:00:00 AM 8.68 47.624 0.039 6.47 3.46 11.3
11/1/2021 10:15:00 AM 8.69 47.642 0.039 6.5 2.96 11.31
11/1/2021 10:30:00 AM 8.72 47.696 0.039 6.51 3.13 11.36
11/1/2021 10:45:00 AM 8.74 47.732 0.039 6.53 3.42 11.36
11/1/2021 11:00:00 AM 8.76 47.768 0.039 6.54 2.98 11.37
11/1/2021 11:15:00 AM 8.8 47.84 0.039 6.52 2.78 11.37
11/1/2021 11:30:00 AM 8.82 47.876 0.039 6.57 2.89 11.38
11/1/2021 11:45:00 AM 8.83 47.894 0.039 6.56 3.29 11.38
11/1/2021 12:00:00 PM 8.85 47.93 0.039 6.53 3.2 11.37
11/1/2021 12:15:00 PM 8.94 48.092 0.039 6.56 3.58 11.36
11/1/2021 12:30:00 PM 9.1 48.38 0.039 6.6 2.83 11.35
11/1/2021 12:45:00 PM 9.19 48.542 0.039 6.6 3.25 11.31
11/1/2021 1:00:00 PM 9.23 48.614 0.039 6.6 4.64 11.3
11/1/2021 1:15:00 PM 9.21 48.578 0.039 6.59 3 11.3
11/1/2021 1:30:00 PM 9.2 48.56 0.039 6.58 3.06 11.29
11/1/2021 1:45:00 PM 9.22 48.596 0.039 6.57 5.08 11.29
11/1/2021 2:00:00 PM 9.31 48.758 0.039 6.59 3.3 11.27
11/1/2021 2:15:00 PM 9.42 48.956 0.039 6.6 3.26 11.25
11/1/2021 2:30:00 PM 9.51 49.118 0.039 6.59 3.43 11.24
11/1/2021 2:45:00 PM 9.55 49.19 0.039 6.59 3.68 11.22
11/1/2021 3:00:00 PM 9.53 49.154 0.039 6.6 3.1 11.2
11/1/2021 3:15:00 PM 9.52 49.136 0.039 6.54 2.99 11.2
11/1/2021 3:30:00 PM 9.55 49.19 0.039 6.6 3.08 11.19
11/1/2021 3:45:00 PM 9.58 49.244 0.039 6.61 3.17 11.17
11/1/2021 4:00:00 PM 9.56 49.208 0.039 6.6 2.95 11.17
11/1/2021 4:15:00 PM 9.53 49.154 0.039 6.6 3.36 11.17
11/1/2021 4:30:00 PM 9.48 49.064 0.039 6.53 4.64 11.17
11/1/2021 4:45:00 PM 9.41 48.938 0.039 6.58 2.76 11.15
11/1/2021 5:00:00 PM 9.35 48.83 0.039 6.56 3 11.16
11/1/2021 5:15:00 PM 9.31 48.758 0.039 6.56 3.15 11.16
11/1/2021 5:30:00 PM 9.24 48.632 0.039 6.5 3.19 11.16
11/1/2021 5:45:00 PM 9.18 48.524 0.039 6.55 3.04 11.16
11/1/2021 6:00:00 PM 9.14 48.452 0.039 6.54 2.97 11.14
11/1/2021 6:15:00 PM 9.1 48.38 0.039 6.52 2.98 11.14
11/1/2021 6:30:00 PM 9.06 48.308 0.039 6.51 2.83 11.14
11/1/2021 6:45:00 PM 9.02 48.236 0.039 6.52 3.71 11.13
11/1/2021 7:00:00 PM 8.97 48.146 0.039 6.5 3.34 11.13
11/1/2021 7:15:00 PM 8.92 48.056 0.039 6.5 3.16 11.15
11/1/2021 7:30:00 PM 8.87 47.966 0.039 6.49 3.45 11.16
11/1/2021 7:45:00 PM 8.82 47.876 0.039 6.46 2.98 11.16
11/1/2021 8:00:00 PM 8.78 47.804 0.039 6.51 3.08 11.19
11/1/2021 8:15:00 PM 8.75 47.75 0.039 6.51 3.41 11.19
11/1/2021 8:30:00 PM 8.72 47.696 0.039 6.51 3.05 11.2
11/1/2021 8:45:00 PM 8.68 47.624 0.039 6.45 3.05 11.22
11/1/2021 9:00:00 PM 8.64 47.552 0.039 6.52 3.13 11.23
11/1/2021 9:15:00 PM 8.59 47.462 0.039 6.51 3.02 11.24
11/1/2021 9:30:00 PM 8.54 47.372 0.039 6.48 3.19 11.25
11/1/2021 9:45:00 PM 8.49 47.282 0.039 6.5 3 11.26
11/1/2021 10:00:00 PM 8.43 47.174 0.039 6.5 2.84 11.29
11/1/2021 10:15:00 PM 8.38 47.084 0.039 6.49 3.14 11.3
11/1/2021 10:30:00 PM 8.32 46.976 0.039 6.45 3.05 11.31
11/1/2021 10:45:00 PM 8.27 46.886 0.039 6.5 2.99 11.34
11/1/2021 11:00:00 PM 8.22 46.796 0.039 6.51 3.11 11.34
11/1/2021 11:15:00 PM 8.18 46.724 0.039 6.5 3.17 11.36
11/1/2021 11:30:00 PM 8.14 46.652 0.039 6.48 3.1 11.37
11/1/2021 11:45:00 PM 8.12 46.616 0.039 6.51 3.17 11.38
11/2/2021 12:00:00 AM 8.09 46.562 0.039 6.5 4.21 11.39
11/2/2021 12:15:00 AM 8.07 46.526 0.039 6.46 2.95 11.39
11/2/2021 12:30:00 AM 8.04 46.472 0.039 6.52 3.58 11.4
11/2/2021 12:45:00 AM 8.02 46.436 0.039 6.52 3.12 11.41
11/2/2021 1:00:00 AM 8 46.4 0.039 6.53 3.3 11.42
11/2/2021 1:15:00 AM 7.97 46.346 0.039 6.52 2.83 11.43
11/2/2021 1:30:00 AM 7.95 46.31 0.039 6.52 2.82 11.43
11/2/2021 1:45:00 AM 7.93 46.274 0.039 6.52 4.61 11.44
11/2/2021 2:00:00 AM 7.9 46.22 0.039 6.53 2.95 11.45
11/2/2021 2:15:00 AM 7.88 46.184 0.039 6.47 2.76 11.46
11/2/2021 2:30:00 AM 7.86 46.148 0.039 6.52 3.1 11.46
11/2/2021 2:45:00 AM 7.84 46.112 0.039 6.51 3.41 11.46
11/2/2021 3:00:00 AM 7.82 46.076 0.039 6.47 3.24 11.47
11/2/2021 3:15:00 AM 7.81 46.058 0.039 6.53 2.69 11.47
11/2/2021 3:30:00 AM 7.79 46.022 0.039 6.48 2.96 11.48
11/2/2021 3:45:00 AM 7.78 46.004 0.039 6.53 2.74 11.48
11/2/2021 4:00:00 AM 7.77 45.986 0.039 6.53 2.65 11.48
11/2/2021 4:15:00 AM 7.76 45.968 0.039 6.53 2.71 11.49
11/2/2021 4:30:00 AM 7.75 45.95 0.039 6.52 3.63 11.49
11/2/2021 4:45:00 AM 7.75 45.95 0.039 6.52 2.76 11.49
11/2/2021 5:00:00 AM 7.74 45.932 0.039 6.51 2.92 11.49
11/2/2021 5:15:00 AM 7.73 45.914 0.039 6.49 3.16 11.5
11/2/2021 5:30:00 AM 7.72 45.896 0.039 6.52 2.94 11.5
11/2/2021 5:45:00 AM 7.71 45.878 0.039 6.48 2.74 11.5
11/2/2021 6:00:00 AM 7.7 45.86 0.039 6.53 2.6 11.51
11/2/2021 6:15:00 AM 7.69 45.842 0.039 6.51 2.83 11.51
11/2/2021 6:30:00 AM 7.68 45.824 0.039 6.47 2.63 11.51
11/2/2021 6:45:00 AM 7.66 45.788 0.039 6.53 2.71 11.52
11/2/2021 7:00:00 AM 7.64 45.752 0.039 6.53 2.78 11.51
11/2/2021 7:15:00 AM 7.62 45.716 0.039 6.53 2.67 11.53
11/2/2021 7:30:00 AM 7.6 45.68 0.039 6.53 2.61 11.53
11/2/2021 7:45:00 AM 7.58 45.644 0.039 6.52 2.72 11.53
11/2/2021 8:00:00 AM 7.55 45.59 0.039 6.53 2.74 11.55
11/2/2021 8:15:00 AM 7.53 45.554 0.039 6.48 2.72 11.58
11/2/2021 8:30:00 AM 7.52 45.536 0.039 6.51 2.8 11.6
11/2/2021 8:45:00 AM 7.51 45.518 0.039 6.56 2.65 11.62
11/2/2021 9:00:00 AM 7.51 45.518 0.039 6.55 2.54 11.64
11/2/2021 9:15:00 AM 7.52 45.536 0.039 6.56 3.36 11.66
11/2/2021 9:30:00 AM 7.54 45.572 0.039 6.56 2.57 11.68
11/2/2021 9:45:00 AM 7.57 45.626 0.039 6.52 2.71 11.7
11/2/2021 10:00:00 AM 7.6 45.68 0.039 6.6 2.77 11.7
11/2/2021 10:15:00 AM 7.63 45.734 0.039 6.6 2.75 11.71
11/2/2021 10:30:00 AM 7.66 45.788 0.039 6.61 2.64 11.71
11/2/2021 10:45:00 AM 7.71 45.878 0.039 6.61 2.48 11.73
11/2/2021 11:00:00 AM 7.76 45.968 0.039 6.63 2.7 11.72
11/2/2021 11:15:00 AM 7.8 46.04 0.039 6.64 2.41 11.71
11/2/2021 11:30:00 AM 7.87 46.166 0.039 6.64 2.56 11.69
11/2/2021 11:45:00 AM 7.94 46.292 0.039 6.64 2.38 11.67
11/2/2021 12:00:00 PM 7.99 46.382 0.039 6.64 2.53 11.66
11/2/2021 12:15:00 PM 7.99 46.382 0.039 6.65 2.57 11.65
11/2/2021 12:30:00 PM 8.02 46.436 0.039 6.64 2.68 11.63
11/2/2021 12:45:00 PM 8.04 46.472 0.039 6.65 2.35 11.64
11/2/2021 1:00:00 PM 8.11 46.598 0.039 6.63 2.66 11.59
11/2/2021 1:15:00 PM 8.15 46.67 0.039 6.64 2.37 11.59
11/2/2021 1:30:00 PM 8.12 46.616 0.039 6.65 3.27 11.59
11/2/2021 1:45:00 PM 8.13 46.634 0.039 6.63 3.44 11.58
11/2/2021 2:00:00 PM 8.18 46.724 0.039 6.65 3.16 11.58
11/2/2021 2:15:00 PM 8.23 46.814 0.039 6.66 2.97 11.57
11/2/2021 2:30:00 PM 8.27 46.886 0.039 6.65 3.06 11.53
11/2/2021 2:45:00 PM 8.28 46.904 0.039 6.65 3.07 11.51
11/2/2021 3:00:00 PM 8.27 46.886 0.039 6.63 4.3 11.52
11/2/2021 3:15:00 PM 8.29 46.922 0.039 6.64 3.25 11.52
11/2/2021 3:30:00 PM 8.33 46.994 0.039 6.64 3.32 11.53
11/2/2021 3:45:00 PM 8.34 47.012 0.039 6.65 3.68 11.52
11/2/2021 4:00:00 PM 8.36 47.048 0.039 6.63 3.2 11.52
11/2/2021 4:15:00 PM 8.37 47.066 0.039 6.62 2.96 11.5
11/2/2021 4:30:00 PM 8.39 47.102 0.039 6.63 2.75 11.5
11/2/2021 4:45:00 PM 8.39 47.102 0.039 6.64 2.98 11.47
11/2/2021 5:00:00 PM 8.36 47.048 0.039 6.63 3.07 11.46
11/2/2021 5:15:00 PM 8.35 47.03 0.039 6.62 2.84 11.45
11/2/2021 5:30:00 PM 8.33 46.994 0.039 6.61 2.59 11.44
11/2/2021 5:45:00 PM 8.32 46.976 0.039 6.61 2.51 11.42
11/2/2021 6:00:00 PM 8.3 46.94 0.039 6.62 2.99 11.4
11/2/2021 6:15:00 PM 8.28 46.904 0.039 6.6 2.91 11.37
11/2/2021 6:30:00 PM 8.25 46.85 0.039 6.58 4.49 11.37
11/2/2021 6:45:00 PM 8.24 46.832 0.039 6.58 3.27 11.36
11/2/2021 7:00:00 PM 8.21 46.778 0.039 6.58 3.42 11.36
11/2/2021 7:15:00 PM 8.19 46.742 0.039 6.58 3.28 11.36
11/2/2021 7:30:00 PM 8.17 46.706 0.04 6.58 2.93 11.36
11/2/2021 7:45:00 PM 8.15 46.67 0.04 6.57 3.82 11.38
11/2/2021 8:00:00 PM 8.12 46.616 0.04 6.57 4 11.38
11/2/2021 8:15:00 PM 8.09 46.562 0.04 6.56 3.16 11.39
11/2/2021 8:30:00 PM 8.07 46.526 0.04 6.54 2.91 11.4
11/2/2021 8:45:00 PM 8.05 46.49 0.04 6.57 2.86 11.41
11/2/2021 9:00:00 PM 8.03 46.454 0.04 6.48 3.38 11.41
11/2/2021 9:15:00 PM 8 46.4 0.04 6.52 3.69 11.43
11/2/2021 9:30:00 PM 7.96 46.328 0.04 6.57 3.19 11.43
11/2/2021 9:45:00 PM 7.92 46.256 0.04 6.56 3.63 11.44
11/2/2021 10:00:00 PM 7.87 46.166 0.04 6.56 3.19 11.45
11/2/2021 10:15:00 PM 7.83 46.094 0.04 6.55 3.2 11.46
11/2/2021 10:30:00 PM 7.79 46.022 0.04 6.54 3.79 11.47
11/2/2021 10:45:00 PM 7.74 45.932 0.04 6.46 3.12 11.49
11/2/2021 11:00:00 PM 7.7 45.86 0.04 6.55 2.76 11.51
11/2/2021 11:15:00 PM 7.66 45.788 0.04 6.55 2.77 11.52
11/2/2021 11:30:00 PM 7.63 45.734 0.04 6.55 2.93 11.53
11/2/2021 11:45:00 PM 7.6 45.68 0.04 6.54 3.01 11.53
11/3/2021 12:00:00 AM 7.57 45.626 0.04 6.5 3.33 11.54
11/3/2021 12:15:00 AM 7.54 45.572 0.04 6.56 4.18 11.55
11/3/2021 12:30:00 AM 7.51 45.518 0.04 6.5 3.57 11.56
11/3/2021 12:45:00 AM 7.49 45.482 0.04 6.56 3.5 11.57
11/3/2021 1:00:00 AM 7.47 45.446 0.04 6.55 3.53 11.58
11/3/2021 1:15:00 AM 7.45 45.41 0.04 6.56 3.55 11.59
11/3/2021 1:30:00 AM 7.43 45.374 0.04 6.55 4.07 11.59
11/3/2021 1:45:00 AM 7.41 45.338 0.04 6.55 3.6 11.59
11/3/2021 2:00:00 AM 7.39 45.302 0.04 6.54 3.7 11.6
11/3/2021 2:15:00 AM 7.37 45.266 0.04 6.47 2.86 11.59
11/3/2021 2:30:00 AM 7.36 45.248 0.04 6.56 3.86 11.6
11/3/2021 2:45:00 AM 7.34 45.212 0.04 6.55 3.42 11.62
11/3/2021 3:00:00 AM 7.33 45.194 0.04 6.56 2.83 11.62
11/3/2021 3:15:00 AM 7.32 45.176 0.04 6.56 3.66 11.62
11/3/2021 3:30:00 AM 7.31 45.158 0.04 6.56 3.35 11.63
11/3/2021 3:45:00 AM 7.3 45.14 0.04 6.55 2.96 11.64
11/3/2021 4:00:00 AM 7.29 45.122 0.04 6.49 3.47 11.63
11/3/2021 4:15:00 AM 7.29 45.122 0.04 6.57 3.51 11.63
11/3/2021 4:30:00 AM 7.28 45.104 0.04 6.5 3.28 11.64
11/3/2021 4:45:00 AM 7.27 45.086 0.04 6.56 3.53 11.65
11/3/2021 5:00:00 AM 7.26 45.068 0.04 6.53 2.98 11.65
11/3/2021 5:15:00 AM 7.26 45.068 0.04 6.56 3.91 11.64
11/3/2021 5:30:00 AM 7.25 45.05 0.04 6.56 4.1 11.64
11/3/2021 5:45:00 AM 7.25 45.05 0.04 6.46 3.81 11.65
11/3/2021 6:00:00 AM 7.24 45.032 0.04 6.51 3.43 11.65
11/3/2021 6:15:00 AM 7.24 45.032 0.04 6.56 3.68 11.65
11/3/2021 6:30:00 AM 7.24 45.032 0.04 6.57 2.82 11.64
11/3/2021 6:45:00 AM 7.24 45.032 0.04 6.56 2.81 11.65
11/3/2021 7:00:00 AM 7.24 45.032 0.04 6.56 2.62 11.65
11/3/2021 7:15:00 AM 7.22 44.996 0.04 6.56 3.09 11.65
11/3/2021 7:30:00 AM 7.2 44.96 0.04 6.56 2.81 11.66
11/3/2021 7:45:00 AM 7.19 44.942 0.04 6.56 2.68 11.67
11/3/2021 8:00:00 AM 7.17 44.906 0.04 6.47 3.04 11.68
11/3/2021 8:15:00 AM 7.15 44.87 0.04 6.51 3.36 11.7
11/3/2021 8:30:00 AM 7.12 44.816 0.04 6.57 2.79 11.72
11/3/2021 8:45:00 AM 7.11 44.798 0.04 6.55 2.94 11.76
11/3/2021 9:00:00 AM 7.11 44.798 0.04 6.59 3.19 11.79
11/3/2021 9:15:00 AM 7.11 44.798 0.04 6.59 2.75 11.81
11/3/2021 9:30:00 AM 7.13 44.834 0.04 6.61 2.59 11.84
11/3/2021 9:45:00 AM 7.14 44.852 0.04 6.51 2.53 11.85
11/3/2021 10:00:00 AM 7.16 44.888 0.04 6.59 2.58 11.86
11/3/2021 10:15:00 AM 7.17 44.906 0.04 6.61 2.58 11.88
11/3/2021 10:30:00 AM 7.19 44.942 0.04 6.65 2.86 11.89
11/3/2021 10:45:00 AM 7.21 44.978 0.04 6.64 3.07 11.89
11/3/2021 11:00:00 AM 7.26 45.068 0.039 6.62 2.47 11.9
11/3/2021 11:15:00 AM 7.32 45.176 0.039 6.64 2.5 11.9
11/3/2021 11:30:00 AM 7.36 45.248 0.039 6.63 2.57 11.9
11/3/2021 11:45:00 AM 7.35 45.23 0.039 6.65 2.38 11.87
11/3/2021 12:00:00 PM 7.37 45.266 0.039 6.64 2.58 11.89
11/3/2021 12:15:00 PM 7.45 45.41 0.039 6.65 2.76 11.87
11/3/2021 12:30:00 PM 7.46 45.428 0.039 6.66 2.52 11.87
11/3/2021 12:45:00 PM 7.48 45.464 0.039 6.67 2.63 11.87
11/3/2021 1:00:00 PM 7.5 45.5 0.039 6.62 2.81 11.85
11/3/2021 1:15:00 PM 7.6 45.68 0.039 6.68 2.52 11.85
11/3/2021 1:30:00 PM 7.63 45.734 0.039 6.65 2.67 11.83
11/3/2021 1:45:00 PM 7.67 45.806 0.039 6.66 2.82 11.8
11/3/2021 2:00:00 PM 7.74 45.932 0.039 6.63 2.74 11.8
11/3/2021 2:15:00 PM 7.81 46.058 0.039 6.67 2.43 11.78
11/3/2021 2:30:00 PM 7.86 46.148 0.039 6.56 2.41 11.76
11/3/2021 2:45:00 PM 7.93 46.274 0.039 6.68 2.55 11.75
11/3/2021 3:00:00 PM 7.98 46.364 0.039 6.66 2.27 11.71
11/3/2021 3:15:00 PM 8 46.4 0.039 6.67 2.4 11.7
11/3/2021 3:30:00 PM 7.97 46.346 0.039 6.66 2.59 11.71
11/3/2021 3:45:00 PM 7.95 46.31 0.039 6.65 2.52 11.71
11/3/2021 4:00:00 PM 7.94 46.292 0.039 6.64 2.52 11.71
11/3/2021 4:15:00 PM 7.93 46.274 0.039 6.62 2.42 11.71
11/3/2021 4:30:00 PM 7.93 46.274 0.039 6.65 2.41 11.71
11/3/2021 4:45:00 PM 7.89 46.202 0.039 6.64 2.64 11.69
11/3/2021 5:00:00 PM 7.88 46.184 0.039 6.63 2.59 11.69
11/3/2021 5:15:00 PM 7.86 46.148 0.039 6.61 2.78 11.67
11/3/2021 5:30:00 PM 7.83 46.094 0.039 6.63 2.6 11.65
11/3/2021 5:45:00 PM 7.8 46.04 0.039 6.61 2.57 11.63
11/3/2021 6:00:00 PM 7.78 46.004 0.04 6.6 2.77 11.61
11/3/2021 6:15:00 PM 7.76 45.968 0.04 6.59 2.71 11.59
11/3/2021 6:30:00 PM 7.73 45.914 0.04 6.57 2.72 11.57
11/3/2021 6:45:00 PM 7.7 45.86 0.04 6.52 2.67 11.57
11/3/2021 7:00:00 PM 7.67 45.806 0.04 6.58 2.99 11.56
11/3/2021 7:15:00 PM 7.65 45.77 0.04 6.53 2.57 11.56
11/3/2021 7:30:00 PM 7.63 45.734 0.04 6.58 2.6 11.57
11/3/2021 7:45:00 PM 7.61 45.698 0.04 6.56 2.72 11.57
11/3/2021 8:00:00 PM 7.59 45.662 0.04 6.47 2.8 11.57
11/3/2021 8:15:00 PM 7.57 45.626 0.04 6.58 3.26 11.58
11/3/2021 8:30:00 PM 7.55 45.59 0.04 6.45 2.78 11.58
11/3/2021 8:45:00 PM 7.53 45.554 0.04 6.57 3.3 11.6
11/3/2021 9:00:00 PM 7.51 45.518 0.04 6.55 2.72 11.6
11/3/2021 9:15:00 PM 7.49 45.482 0.04 6.56 2.97 11.61
11/3/2021 9:30:00 PM 7.45 45.41 0.04 6.56 3.33 11.62
11/3/2021 9:45:00 PM 7.42 45.356 0.04 6.54 3.28 11.62
11/3/2021 10:00:00 PM 7.37 45.266 0.04 6.55 3.12 11.63
11/3/2021 10:15:00 PM 7.32 45.176 0.04 6.55 2.69 11.64
11/3/2021 10:30:00 PM 7.27 45.086 0.04 6.55 2.67 11.66
11/3/2021 10:45:00 PM 7.22 44.996 0.04 6.56 3.42 11.67
11/3/2021 11:00:00 PM 7.17 44.906 0.04 6.55 2.79 11.69
11/3/2021 11:15:00 PM 7.12 44.816 0.04 6.55 3.01 11.71
11/3/2021 11:30:00 PM 7.06 44.708 0.04 6.55 2.8 11.73
11/3/2021 11:45:00 PM 7.01 44.618 0.04 6.54 3.27 11.74
11/4/2021 12:00:00 AM 6.96 44.528 0.04 6.54 2.83 11.76
11/4/2021 12:15:00 AM 6.92 44.456 0.04 6.54 3.9 11.77
11/4/2021 12:30:00 AM 6.88 44.384 0.04 6.55 3.32 11.78
11/4/2021 12:45:00 AM 6.85 44.33 0.04 6.54 2.8 11.81
11/4/2021 1:00:00 AM 6.82 44.276 0.04 6.55 2.92 11.81
11/4/2021 1:15:00 AM 6.79 44.222 0.04 6.55 4.87 11.82
11/4/2021 1:30:00 AM 6.76 44.168 0.04 6.54 3.37 11.83
11/4/2021 1:45:00 AM 6.72 44.096 0.04 6.53 2.96 11.84
11/4/2021 2:00:00 AM 6.68 44.024 0.04 6.54 3.25 11.85
11/4/2021 2:15:00 AM 6.65 43.97 0.04 6.54 3.57 11.86
11/4/2021 2:30:00 AM 6.62 43.916 0.04 6.55 4.48 11.86
11/4/2021 2:45:00 AM 6.58 43.844 0.04 6.53 3.17 11.88
11/4/2021 3:00:00 AM 6.55 43.79 0.04 6.55 2.52 11.9
11/4/2021 3:15:00 AM 6.52 43.736 0.04 6.56 2.51 11.91
11/4/2021 3:30:00 AM 6.49 43.682 0.04 6.54 2.75 11.92
11/4/2021 3:45:00 AM 6.45 43.61 0.04 6.55 2.72 11.91
11/4/2021 4:00:00 AM 6.42 43.556 0.04 6.55 2.48 11.94
11/4/2021 4:15:00 AM 6.38 43.484 0.04 6.54 2.5 11.94
11/4/2021 4:30:00 AM 6.35 43.43 0.04 6.55 2.85 11.96
11/4/2021 4:45:00 AM 6.33 43.394 0.04 6.54 2.86 11.97
11/4/2021 5:00:00 AM 6.31 43.358 0.04 6.55 2.81 11.97
11/4/2021 5:15:00 AM 6.29 43.322 0.04 6.56 4.46 11.99
11/4/2021 5:30:00 AM 6.28 43.304 0.04 6.55 4.74 11.98
11/4/2021 5:45:00 AM 6.26 43.268 0.04 6.55 3.23 11.99
11/4/2021 6:00:00 AM 6.25 43.25 0.04 6.53 2.63 11.99
11/4/2021 6:15:00 AM 6.23 43.214 0.04 6.53 3.28 11.99
11/4/2021 6:30:00 AM 6.21 43.178 0.039 6.48 4.62 12.01
11/4/2021 6:45:00 AM 6.18 43.124 0.04 6.5 3.16 12
11/4/2021 7:00:00 AM 6.16 43.088 0.04 6.53 3.08 12.01
11/4/2021 7:15:00 AM 6.14 43.052 0.04 6.5 3.66 12.03
11/4/2021 7:30:00 AM 6.12 43.016 0.04 6.55 9.52 12.02
11/4/2021 7:45:00 AM 6.1 42.98 0.038 6.4 5 12.03
11/4/2021 8:00:00 AM 6.08 42.944 0.04 6.55 4.07 12.05
11/4/2021 8:15:00 AM 6.04 42.872 0.04 6.47 3.33 12.08
11/4/2021 8:30:00 AM 6.02 42.836 0.04 6.57 3.01 12.09
11/4/2021 8:45:00 AM 5.99 42.782 0.04 6.57 2.77 12.13
11/4/2021 9:00:00 AM 5.98 42.764 0.04 6.58 3.02 12.16
11/4/2021 9:15:00 AM 5.97 42.746 0.04 6.58 5.57 12.19
11/4/2021 9:30:00 AM 5.96 42.728 0.04 6.52 3.37 12.21
11/4/2021 9:45:00 AM 5.95 42.71 0.04 6.6 3.53 12.22
11/4/2021 10:00:00 AM 5.95 42.71 0.04 6.6 3.14 12.23
11/4/2021 10:15:00 AM 5.98 42.764 0.04 6.61 2.78 12.24
11/4/2021 10:30:00 AM 6.03 42.854 0.04 6.61 3.1 12.24
11/4/2021 10:45:00 AM 6.08 42.944 0.04 6.63 3.51 12.24
11/4/2021 11:00:00 AM 6.14 43.052 0.04 6.61 3.27 12.23
11/4/2021 11:15:00 AM 6.22 43.196 0.04 6.62 3.12 12.23
11/4/2021 11:30:00 AM 6.29 43.322 0.04 6.65 2.72 12.22
11/4/2021 11:45:00 AM 6.38 43.484 0.04 6.65 3.48 12.21
11/4/2021 12:00:00 PM 6.49 43.682 0.04 6.66 3.49 12.19
11/4/2021 12:15:00 PM 6.61 43.898 0.04 6.68 2.48 12.17
11/4/2021 12:30:00 PM 6.73 44.114 0.04 6.67 2.5 12.15
11/4/2021 12:45:00 PM 6.84 44.312 0.04 6.68 2.83 12.12
11/4/2021 1:00:00 PM 6.94 44.492 0.04 6.67 2.87 12.1
11/4/2021 1:15:00 PM 6.96 44.528 0.04 6.68 2.84 12.06
11/4/2021 1:30:00 PM 6.95 44.51 0.04 6.66 3.67 12.05
11/4/2021 1:45:00 PM 6.97 44.546 0.04 6.66 3.42 12.06
11/4/2021 2:00:00 PM 6.99 44.582 0.04 6.67 2.53 12.05
11/4/2021 2:15:00 PM 7.03 44.654 0.04 6.65 2.7 12.04
11/4/2021 2:30:00 PM 7.06 44.708 0.04 6.68 3.55 12.02
11/4/2021 2:45:00 PM 7.08 44.744 0.04 6.68 3.87 12
11/4/2021 3:00:00 PM 7.11 44.798 0.04 6.67 3.87 12
11/4/2021 3:15:00 PM 7.14 44.852 0.04 6.66 5.37 11.99
11/4/2021 3:30:00 PM 7.19 44.942 0.04 6.67 4.04 11.98
11/4/2021 3:45:00 PM 7.23 45.014 0.04 6.66 3.52 11.97
11/4/2021 4:00:00 PM 7.26 45.068 0.04 6.68 3.62 11.95
11/4/2021 4:15:00 PM 7.28 45.104 0.04 6.67 2.5 11.94
11/4/2021 4:30:00 PM 7.3 45.14 0.04 6.55 3.67 11.93
11/4/2021 4:45:00 PM 7.31 45.158 0.04 6.68 4.4 11.91
11/4/2021 5:00:00 PM 7.31 45.158 0.04 6.66 2.57 11.88
11/4/2021 5:15:00 PM 7.3 45.14 0.04 6.65 2.65 11.86
11/4/2021 5:30:00 PM 7.27 45.086 0.04 6.63 3.95 11.84
11/4/2021 5:45:00 PM 7.23 45.014 0.04 6.52 3.84 11.8
11/4/2021 6:00:00 PM 7.19 44.942 0.04 6.56 2.87 11.78
11/4/2021 6:15:00 PM 7.15 44.87 0.04 6.53 5.58 11.77
11/4/2021 6:30:00 PM 7.1 44.78 0.04 6.54 2.99 11.75
11/4/2021 6:45:00 PM 7.05 44.69 0.04 6.56 3.57 11.75
11/4/2021 7:00:00 PM 7.01 44.618 0.04 6.58 2.9 11.75
11/4/2021 7:15:00 PM 6.96 44.528 0.04 6.56 3.77 11.75
11/4/2021 7:30:00 PM 6.91 44.438 0.04 6.55 3.91 11.76
11/4/2021 7:45:00 PM 6.87 44.366 0.04 6.55 3.71 11.77
11/4/2021 8:00:00 PM 6.83 44.294 0.04 6.56 3.29 11.78
11/4/2021 8:15:00 PM 6.78 44.204 0.04 6.55 3.23 11.79
11/4/2021 8:30:00 PM 6.75 44.15 0.04 6.56 2.47 11.8
11/4/2021 8:45:00 PM 6.71 44.078 0.041 6.55 3.99 11.81
11/4/2021 9:00:00 PM 6.67 44.006 0.041 6.56 3.35 11.82
11/4/2021 9:15:00 PM 6.64 43.952 0.041 6.56 2.78 11.83
11/4/2021 9:30:00 PM 6.6 43.88 0.041 6.53 2.69 11.85
11/4/2021 9:45:00 PM 6.57 43.826 0.041 6.57 3.14 11.86
11/4/2021 10:00:00 PM 6.54 43.772 0.041 6.56 2.58 11.87
11/4/2021 10:15:00 PM 6.5 43.7 0.041 6.55 2.74 11.88
11/4/2021 10:30:00 PM 6.46 43.628 0.041 6.56 2.63 11.89
11/4/2021 10:45:00 PM 6.41 43.538 0.041 6.56 3.46 11.91
11/4/2021 11:00:00 PM 6.37 43.466 0.041 6.57 3.19 11.92
11/4/2021 11:15:00 PM 6.32 43.376 0.041 6.57 4.42 11.95
11/4/2021 11:30:00 PM 6.28 43.304 0.041 6.56 2.78 11.95
11/4/2021 11:45:00 PM 6.24 43.232 0.039 6.54 4.49 11.96
11/5/2021 12:00:00 AM 6.19 43.142 0.041 6.58 3.13 11.98
11/5/2021 12:15:00 AM 6.14 43.052 0.039 6.55 4.73 12
11/5/2021 12:30:00 AM 6.09 42.962 0.041 6.56 2.9 12.02
11/5/2021 12:45:00 AM 6.04 42.872 0.04 6.54 4.22 12.04
11/5/2021 1:00:00 AM 5.99 42.782 0.041 6.56 2.53 12.04
11/5/2021 1:15:00 AM 5.94 42.692 0.041 6.55 2.58 12.06
11/5/2021 1:30:00 AM 5.9 42.62 0.041 6.49 2.45 12.07
11/5/2021 1:45:00 AM 5.85 42.53 0.041 6.52 2.71 12.09
11/5/2021 2:00:00 AM 5.8 42.44 0.041 6.54 2.72 12.1
11/5/2021 2:15:00 AM 5.76 42.368 0.041 6.55 2.42 12.12
11/5/2021 2:30:00 AM 5.71 42.278 0.041 6.47 2.69 12.14
11/5/2021 2:45:00 AM 5.67 42.206 0.041 6.55 4.5 12.15
11/5/2021 3:00:00 AM 5.63 42.134 0.041 6.55 2.9 12.17
11/5/2021 3:15:00 AM 5.59 42.062 0.041 6.55 2.62 12.18
11/5/2021 3:30:00 AM 5.54 41.972 0.041 6.51 4.66 12.19
11/5/2021 3:45:00 AM 5.5 41.9 0.041 6.52 4.77 12.21
11/5/2021 4:00:00 AM 5.46 41.828 0.041 6.55 2.77 12.2
11/5/2021 4:15:00 AM 5.42 41.756 0.041 6.55 2.62 12.23
11/5/2021 4:30:00 AM 5.38 41.684 0.041 6.52 2.71 12.25
11/5/2021 4:45:00 AM 5.34 41.612 0.04 6.52 5.53 12.27
11/5/2021 5:00:00 AM 5.29 41.522 0.041 6.55 2.36 12.28
11/5/2021 5:15:00 AM 5.25 41.45 0.041 6.54 3.9 12.29
11/5/2021 5:30:00 AM 5.21 41.378 0.041 6.51 2.89 12.31
11/5/2021 5:45:00 AM 5.17 41.306 0.041 6.56 3.78 12.33
11/5/2021 6:00:00 AM 5.13 41.234 0.041 6.55 3.58 12.34
11/5/2021 6:15:00 AM 5.09 41.162 0.041 6.54 3.84 12.35
11/5/2021 6:30:00 AM 5.06 41.108 0.041 6.54 2.89 12.37
11/5/2021 6:45:00 AM 5.02 41.036 0.041 6.54 2.77 12.38
11/5/2021 7:00:00 AM 4.98 40.964 0.041 6.49 2.76 12.39
11/5/2021 7:15:00 AM 4.94 40.892 0.041 6.56 2.71 12.41
11/5/2021 7:30:00 AM 4.9 40.82 0.041 6.48 3.57 12.43
11/5/2021 7:45:00 AM 4.87 40.766 0.041 6.57 2.71 12.45
11/5/2021 8:00:00 AM 4.84 40.712 0.041 6.55 2.82 12.47
11/5/2021 8:15:00 AM 4.81 40.658 0.041 6.57 3.26 12.49
11/5/2021 8:30:00 AM 4.78 40.604 0.04 6.52 4.96 12.53
11/5/2021 8:45:00 AM 4.75 40.55 0.039 6.56 4.85 12.55
11/5/2021 9:00:00 AM 4.73 40.514 0.041 6.57 3.24 12.59
11/5/2021 9:15:00 AM 4.72 40.496 0.041 6.52 3.23 12.62
11/5/2021 9:30:00 AM 4.71 40.478 0.041 6.61 3.15 12.65
11/5/2021 9:45:00 AM 4.7 40.46 0.041 6.61 3.22 12.66
11/5/2021 10:00:00 AM 4.69 40.442 0.041 6.61 3.65 12.68
11/5/2021 10:15:00 AM 4.72 40.496 0.04 6.6 4.77 12.69
11/5/2021 10:30:00 AM 4.78 40.604 0.041 6.64 3.46 12.7
11/5/2021 10:45:00 AM 4.84 40.712 0.04 6.61 5.01 12.69
11/5/2021 11:00:00 AM 4.91 40.838 0.041 6.58 3.33 12.69
11/5/2021 11:15:00 AM 5 41 0.041 6.68 3.38 12.67
11/5/2021 11:30:00 AM 5.09 41.162 0.041 6.66 3.31 12.66
11/5/2021 11:45:00 AM 5.21 41.378 0.04 6.67 3.27 12.65
11/5/2021 12:00:00 PM 5.35 41.63 0.04 6.68 3.28 12.63
11/5/2021 12:15:00 PM 5.49 41.882 0.039 6.65 4.59 12.59
11/5/2021 12:30:00 PM 5.56 42.008 0.04 6.69 3.28 12.56
11/5/2021 12:45:00 PM 5.61 42.098 0.04 6.69 3.32 12.54
11/5/2021 1:00:00 PM 5.71 42.278 0.04 6.69 3.18 12.52
11/5/2021 1:15:00 PM 5.92 42.656 0.04 6.71 3.16 12.47
11/5/2021 1:30:00 PM 5.97 42.746 0.04 6.7 3.29 12.43
11/5/2021 1:45:00 PM 6.08 42.944 0.04 6.61 3.06 12.39
11/5/2021 2:00:00 PM 6.16 43.088 0.039 6.68 4.88 12.36
11/5/2021 2:15:00 PM 6.26 43.268 0.04 6.66 3.3 12.34
11/5/2021 2:30:00 PM 6.42 43.556 0.04 6.69 3.27 12.29
11/5/2021 2:45:00 PM 6.47 43.646 0.04 6.68 3.27 12.28
11/5/2021 3:00:00 PM 6.48 43.664 0.04 6.68 3.45 12.26
11/5/2021 3:15:00 PM 6.52 43.736 0.04 6.68 3.22 12.22
11/5/2021 3:30:00 PM 6.55 43.79 0.04 6.68 2.9 12.2
11/5/2021 3:45:00 PM 6.61 43.898 0.04 6.68 2.94 12.18
11/5/2021 4:00:00 PM 6.67 44.006 0.04 6.68 5.98 12.15
11/5/2021 4:15:00 PM 6.73 44.114 0.038 6.65 3.96 12.13
11/5/2021 4:30:00 PM 6.76 44.168 0.038 6.66 4.06 12.11
11/5/2021 4:45:00 PM 6.77 44.186 0.04 6.64 2.18 12.09
11/5/2021 5:00:00 PM 6.74 44.132 0.04 6.66 2.12 12.06
11/5/2021 5:15:00 PM 6.71 44.078 0.04 6.65 2.11 12.05
11/5/2021 5:30:00 PM 6.66 43.988 0.04 6.63 2.2 12.04
11/5/2021 5:45:00 PM 6.6 43.88 0.04 6.63 2.3 12.03
11/5/2021 6:00:00 PM 6.53 43.754 0.04 6.61 2.28 12.02
11/5/2021 6:15:00 PM 6.46 43.628 0.041 6.61 3.23 12.02
11/5/2021 6:30:00 PM 6.4 43.52 0.041 6.6 2.53 12
11/5/2021 6:45:00 PM 6.34 43.412 0.041 6.56 3.62 12.01
11/5/2021 7:00:00 PM 6.3 43.34 0.041 6.58 2.97 12.01
11/5/2021 7:15:00 PM 6.25 43.25 0.041 6.57 3.59 12.01
11/5/2021 7:30:00 PM 6.22 43.196 0.04 6.55 4.48 12.01
11/5/2021 7:45:00 PM 6.18 43.124 0.041 6.57 3.19 12.03
11/5/2021 8:00:00 PM 6.14 43.052 0.041 6.57 3.57 12.03
11/5/2021 8:15:00 PM 6.1 42.98 0.041 6.57 4.4 12.04
11/5/2021 8:30:00 PM 6.06 42.908 0.04 6.54 4.28 12.04
11/5/2021 8:45:00 PM 6.02 42.836 0.041 6.57 2.52 12.06
11/5/2021 9:00:00 PM 5.98 42.764 0.041 6.57 3.11 12.08
11/5/2021 9:15:00 PM 5.94 42.692 0.041 6.57 2.57 12.09
11/5/2021 9:30:00 PM 5.9 42.62 0.041 6.57 2.59 12.1
11/5/2021 9:45:00 PM 5.86 42.548 0.041 6.56 3.66 12.11
11/5/2021 10:00:00 PM 5.82 42.476 0.041 6.57 2.75 12.12
11/5/2021 10:15:00 PM 5.78 42.404 0.041 6.57 2.57 12.14
11/5/2021 10:30:00 PM 5.74 42.332 0.041 6.57 5.15 12.16
11/5/2021 10:45:00 PM 5.7 42.26 0.041 6.57 4.92 12.17
11/5/2021 11:00:00 PM 5.66 42.188 0.041 6.57 4.01 12.18
11/5/2021 11:15:00 PM 5.61 42.098 0.041 6.57 3.03 12.2
11/5/2021 11:30:00 PM 5.57 42.026 0.041 6.57 2.58 12.21
11/5/2021 11:45:00 PM 5.53 41.954 0.04 6.54 4.62 12.22
11/6/2021 12:00:00 AM 5.48 41.864 0.041 6.57 2.65 12.24
11/6/2021 12:15:00 AM 5.44 41.792 0.041 6.57 3.27 12.26
11/6/2021 12:30:00 AM 5.39 41.702 0.041 6.56 7.16 12.27
11/6/2021 12:45:00 AM 5.35 41.63 0.041 6.57 2.98 12.29
11/6/2021 1:00:00 AM 5.31 41.558 0.041 6.57 3.13 12.3
11/6/2021 1:15:00 AM 5.26 41.468 0.041 6.57 2.52 12.31
11/6/2021 1:30:00 AM 5.22 41.396 0.041 6.56 2.72 12.33
11/6/2021 1:45:00 AM 5.18 41.324 0.041 6.57 3.43 12.34
11/6/2021 2:00:00 AM 5.13 41.234 0.041 6.58 3.29 12.36
11/6/2021 2:15:00 AM 5.08 41.144 0.041 6.56 4.27 12.37
11/6/2021 2:30:00 AM 5.05 41.09 0.041 6.57 4.08 12.39
11/6/2021 2:45:00 AM 5.01 41.018 0.041 6.48 4.17 12.4
11/6/2021 3:00:00 AM 4.97 40.946 0.041 6.58 4.18 12.41
11/6/2021 3:15:00 AM 4.92 40.856 0.041 6.57 4.21 12.42
11/6/2021 3:30:00 AM 4.88 40.784 0.041 6.58 3.57 12.44
11/6/2021 3:45:00 AM 4.84 40.712 0.041 6.58 4.19 12.46
11/6/2021 4:00:00 AM 4.8 40.64 0.039 6.55 5.54 12.48
11/6/2021 4:15:00 AM 4.76 40.568 0.041 6.57 2.49 12.49
11/6/2021 4:30:00 AM 4.73 40.514 0.041 6.58 2.95 12.5
11/6/2021 4:45:00 AM 4.69 40.442 0.041 6.58 2.74 12.52
11/6/2021 5:00:00 AM 4.65 40.37 0.041 6.58 4.24 12.53
11/6/2021 5:15:00 AM 4.62 40.316 0.041 6.58 3.14 12.54
11/6/2021 5:30:00 AM 4.58 40.244 0.041 6.59 2.73 12.55
11/6/2021 5:45:00 AM 4.54 40.172 0.041 6.58 2.88 12.57
11/6/2021 6:00:00 AM 4.51 40.118 0.041 6.58 2.21 12.58
11/6/2021 6:15:00 AM 4.48 40.064 0.041 6.58 2.26 12.6
11/6/2021 6:30:00 AM 4.44 39.992 0.041 6.58 2.17 12.61
11/6/2021 6:45:00 AM 4.41 39.938 0.041 6.58 2.47 12.61
11/6/2021 7:00:00 AM 4.37 39.866 0.041 6.58 2.34 12.63
11/6/2021 7:15:00 AM 4.34 39.812 0.041 6.59 2.37 12.64
11/6/2021 7:30:00 AM 4.31 39.758 0.041 6.58 2.53 12.66
11/6/2021 7:45:00 AM 4.28 39.704 0.041 6.57 3.98 12.66
11/6/2021 8:00:00 AM 4.25 39.65 0.039 6.56 4.68 12.68
11/6/2021 8:15:00 AM 4.22 39.596 0.041 6.59 4.04 12.71
11/6/2021 8:30:00 AM 4.19 39.542 0.041 6.56 4.76 12.74
11/6/2021 8:45:00 AM 4.17 39.506 0.041 6.6 3.02 12.76
11/6/2021 9:00:00 AM 4.15 39.47 0.041 6.6 3.82 12.79
11/6/2021 9:15:00 AM 4.14 39.452 0.041 6.62 2.81 12.82
11/6/2021 9:30:00 AM 4.12 39.416 0.041 6.63 3.13 12.84
11/6/2021 9:45:00 AM 4.11 39.398 0.041 6.62 3.12 12.85
11/6/2021 10:00:00 AM 4.11 39.398 0.041 6.64 2.95 12.88
11/6/2021 10:15:00 AM 4.14 39.452 0.04 6.62 4.48 12.89
11/6/2021 10:30:00 AM 4.2 39.56 0.041 6.64 2.63 12.89
11/6/2021 10:45:00 AM 4.27 39.686 0.041 6.66 2.59 12.89
11/6/2021 11:00:00 AM 4.35 39.83 0.041 6.67 2.6 12.88
11/6/2021 11:15:00 AM 4.45 40.01 0.041 6.68 2.61 12.87
11/6/2021 11:30:00 AM 4.56 40.208 0.041 6.69 2.53 12.84
11/6/2021 11:45:00 AM 4.67 40.406 0.041 6.69 2.53 12.82
11/6/2021 12:00:00 PM 4.78 40.604 0.04 6.63 4.03 12.8
11/6/2021 12:15:00 PM 4.92 40.856 0.041 6.7 2.58 12.76
11/6/2021 12:30:00 PM 5.06 41.108 0.041 6.68 2.6 12.71
11/6/2021 12:45:00 PM 5.2 41.36 0.041 6.72 2.58 12.68
11/6/2021 1:00:00 PM 5.34 41.612 0.041 6.7 2.64 12.63
11/6/2021 1:15:00 PM 5.49 41.882 0.041 6.71 2.69 12.59
11/6/2021 1:30:00 PM 5.64 42.152 0.041 6.72 2.57 12.55
11/6/2021 1:45:00 PM 5.78 42.404 0.041 6.72 2.64 12.5
11/6/2021 2:00:00 PM 5.91 42.638 0.041 6.71 2.56 12.46
11/6/2021 2:15:00 PM 6.03 42.854 0.041 6.7 2.59 12.43
11/6/2021 2:30:00 PM 6.14 43.052 0.04 6.68 4.11 12.37
11/6/2021 2:45:00 PM 6.23 43.214 0.041 6.7 3.01 12.35
11/6/2021 3:00:00 PM 6.31 43.358 0.041 6.7 2.83 12.31
11/6/2021 3:15:00 PM 6.37 43.466 0.041 6.69 2.93 12.29
11/6/2021 3:30:00 PM 6.42 43.556 0.041 6.7 3.42 12.25
11/6/2021 3:45:00 PM 6.47 43.646 0.041 6.68 2.6 12.23
11/6/2021 4:00:00 PM 6.49 43.682 0.041 6.68 3.44 12.2
11/6/2021 4:15:00 PM 6.49 43.682 0.041 6.69 2.64 12.19
11/6/2021 4:30:00 PM 6.47 43.646 0.041 6.68 2.74 12.17
11/6/2021 4:45:00 PM 6.45 43.61 0.041 6.67 2.85 12.16
11/6/2021 5:00:00 PM 6.41 43.538 0.041 6.66 3.28 12.14
11/6/2021 5:15:00 PM 6.37 43.466 0.041 6.65 3.17 12.12
11/6/2021 5:30:00 PM 6.34 43.412 0.041 6.64 2.84 12.1
11/6/2021 5:45:00 PM 6.3 43.34 0.041 6.63 3.28 12.09
11/6/2021 6:00:00 PM 6.25 43.25 0.041 6.63 3.06 12.07
11/6/2021 6:15:00 PM 6.19 43.142 0.041 6.61 3.03 12.07
11/6/2021 6:30:00 PM 6.13 43.034 0.041 6.52 3.16 12.05
11/6/2021 6:45:00 PM 6.09 42.962 0.04 6.59 4.5 12.05
11/6/2021 7:00:00 PM 6.05 42.89 0.041 6.56 2.9 12.05
11/6/2021 7:15:00 PM 6.01 42.818 0.041 6.58 3.19 12.04
11/6/2021 7:30:00 PM 5.97 42.746 0.041 6.58 3.13 12.05
11/6/2021 7:45:00 PM 5.94 42.692 0.041 6.58 3.15 12.05
11/6/2021 8:00:00 PM 5.91 42.638 0.041 6.58 2.93 12.06
11/6/2021 8:15:00 PM 5.87 42.566 0.041 6.58 2.93 12.06
11/6/2021 8:30:00 PM 5.84 42.512 0.041 6.58 3.22 12.08
11/6/2021 8:45:00 PM 5.81 42.458 0.041 6.58 3.31 12.08
11/6/2021 9:00:00 PM 5.77 42.386 0.042 6.58 3.04 12.1
11/6/2021 9:15:00 PM 5.73 42.314 0.042 6.58 3.08 12.1
11/6/2021 9:30:00 PM 5.7 42.26 0.042 6.58 3.21 12.12
11/6/2021 9:45:00 PM 5.66 42.188 0.042 6.57 3.18 12.13
11/6/2021 10:00:00 PM 5.63 42.134 0.042 6.58 2.85 12.14
11/6/2021 10:15:00 PM 5.59 42.062 0.042 6.58 3 12.15
11/6/2021 10:30:00 PM 5.55 41.99 0.042 6.58 3.3 12.17
11/6/2021 10:45:00 PM 5.51 41.918 0.042 6.58 3.22 12.17
11/6/2021 11:00:00 PM 5.47 41.846 0.042 6.43 3.09 12.19
11/6/2021 11:15:00 PM 5.43 41.774 0.042 6.58 3.13 12.2
11/6/2021 11:30:00 PM 5.39 41.702 0.042 6.57 3.3 12.22
11/6/2021 11:45:00 PM 5.35 41.63 0.042 6.58 2.99 12.23
11/7/2021 12:00:00 AM 5.3 41.54 0.042 6.57 2.84 12.25
11/7/2021 12:15:00 AM 5.26 41.468 0.042 6.58 2.9 12.26
11/7/2021 12:30:00 AM 5.22 41.396 0.042 6.57 3.21 12.27
11/7/2021 12:45:00 AM 5.18 41.324 0.042 6.58 3.45 12.28
11/7/2021 1:00:00 AM 5.13 41.234 0.042 6.58 3.33 12.3
11/7/2021 1:15:00 AM 5.09 41.162 0.042 6.56 3.54 12.32
11/7/2021 1:30:00 AM 5.05 41.09 0.042 6.58 3.83 12.32
11/7/2021 1:45:00 AM 5 41 0.042 6.57 3.51 12.35
11/7/2021 2:00:00 AM 4.96 40.928 0.042 6.57 3.44 12.36
11/7/2021 2:15:00 AM 4.92 40.856 0.042 6.57 3.02 12.38
11/7/2021 2:30:00 AM 4.87 40.766 0.042 6.57 3.04 12.38
11/7/2021 2:45:00 AM 4.68 40.424 0.041 6.57 4.61 12.46
11/7/2021 3:00:00 AM 4.63 40.334 0.042 6.59 3.31 12.47
11/7/2021 3:15:00 AM 4.59 40.262 0.042 6.59 3.11 12.48
11/7/2021 3:30:00 AM 4.55 40.19 0.042 6.59 3.07 12.49
11/7/2021 3:45:00 AM 4.51 40.118 0.042 6.59 3.17 12.51
11/7/2021 4:00:00 AM 4.48 40.064 0.042 6.59 3.42 12.51
11/7/2021 4:15:00 AM 4.44 39.992 0.042 6.59 3 12.53
11/7/2021 4:30:00 AM 4.4 39.92 0.042 6.59 3.25 12.54
11/7/2021 4:45:00 AM 4.37 39.866 0.042 6.59 3.18 12.55
11/7/2021 5:00:00 AM 4.33 39.794 0.042 6.59 2.9 12.57
11/7/2021 5:15:00 AM 4.29 39.722 0.042 6.59 3.14 12.59
11/7/2021 5:30:00 AM 4.25 39.65 0.042 6.59 2.97 12.59
11/7/2021 5:45:00 AM 4.21 39.578 0.042 6.58 3.16 12.61
11/7/2021 6:00:00 AM 4.18 39.524 0.041 6.57 4.17 12.63
11/7/2021 6:15:00 AM 4.15 39.47 0.041 6.58 4.53 12.64
11/7/2021 6:30:00 AM 4.11 39.398 0.042 6.6 2.84 12.64
11/7/2021 6:45:00 AM 4.08 39.344 0.042 6.51 2.72 12.66
11/7/2021 7:00:00 AM 4.05 39.29 0.042 6.6 3.27 12.68
11/7/2021 7:15:00 AM 4.02 39.236 0.042 6.6 2.89 12.7
11/7/2021 7:30:00 AM 4 39.2 0.042 6.61 2.9 12.73
11/7/2021 7:45:00 AM 3.97 39.146 0.042 6.59 2.86 12.76
11/7/2021 8:00:00 AM 3.96 39.128 0.042 6.62 3 12.79
11/7/2021 8:15:00 AM 3.95 39.11 0.042 6.63 2.89 12.82
11/7/2021 8:30:00 AM 3.93 39.074 0.042 6.61 2.85 12.84
11/7/2021 8:45:00 AM 3.92 39.056 0.042 6.64 3.03 12.87
11/7/2021 9:00:00 AM 3.91 39.038 0.042 6.64 3.01 12.88
11/7/2021 9:15:00 AM 3.92 39.056 0.042 6.65 3.04 12.9
11/7/2021 9:30:00 AM 3.97 39.146 0.042 6.65 3.01 12.91
11/7/2021 9:45:00 AM 4.04 39.272 0.042 6.66 2.85 12.91
11/7/2021 10:00:00 AM 4.13 39.434 0.041 6.67 4.36 12.9
11/7/2021 10:15:00 AM 4.23 39.614 0.041 6.67 4.24 12.89
11/7/2021 10:30:00 AM 4.34 39.812 0.041 6.68 2.88 12.86
11/7/2021 10:45:00 AM 4.45 40.01 0.041 6.69 2.63 12.85
11/7/2021 11:00:00 AM 4.57 40.226 0.041 6.71 2.78 12.81
11/7/2021 11:15:00 AM 4.69 40.442 0.04 6.69 4.12 12.78
11/7/2021 11:30:00 AM 4.84 40.712 0.041 6.72 2.74 12.74
11/7/2021 11:45:00 AM 5 41 0.041 6.72 2.77 12.7
11/7/2021 12:00:00 PM 5.16 41.288 0.041 6.73 2.9 12.66
11/7/2021 12:15:00 PM 5.33 41.594 0.041 6.72 2.66 12.6
11/7/2021 12:30:00 PM 5.51 41.918 0.041 6.71 2.78 12.56
11/7/2021 12:45:00 PM 5.69 42.242 0.041 6.73 2.7 12.5
11/7/2021 1:00:00 PM 5.85 42.53 0.041 6.73 2.87 12.45
11/7/2021 1:15:00 PM 5.99 42.782 0.041 6.73 2.69 12.4
11/7/2021 1:30:00 PM 6.12 43.016 0.041 6.73 3.09 12.36
11/7/2021 1:45:00 PM 6.22 43.196 0.041 6.68 5.03 12.29
11/7/2021 2:00:00 PM 6.32 43.376 0.041 6.72 3.53 12.29
11/7/2021 2:15:00 PM 6.4 43.52 0.041 6.72 3.24 12.25
11/7/2021 2:30:00 PM 6.47 43.646 0.041 6.71 2.99 12.22
11/7/2021 2:45:00 PM 6.53 43.754 0.041 6.59 3.03 12.18
11/7/2021 3:00:00 PM 6.57 43.826 0.041 6.71 2.82 12.16
11/7/2021 3:15:00 PM 6.58 43.844 0.041 6.69 2.72 12.14
11/7/2021 3:30:00 PM 6.58 43.844 0.041 6.69 2.82 12.12
11/7/2021 3:45:00 PM 6.56 43.808 0.041 6.68 2.77 12.1
11/7/2021 4:00:00 PM 6.54 43.772 0.041 6.65 3.98 12.08
11/7/2021 4:15:00 PM 6.51 43.718 0.041 6.67 3.98 12.05
11/7/2021 4:30:00 PM 6.49 43.682 0.041 6.61 3.47 12.03
11/7/2021 4:45:00 PM 6.46 43.628 0.041 6.64 3.39 12.01
11/7/2021 5:00:00 PM 6.41 43.538 0.041 6.62 3.86 12
11/7/2021 5:15:00 PM 6.36 43.448 0.041 6.61 3.78 11.98
11/7/2021 5:30:00 PM 6.31 43.358 0.041 6.6 3.03 11.95
11/7/2021 5:45:00 PM 6.26 43.268 0.042 6.6 3.08 11.96
11/7/2021 6:00:00 PM 6.22 43.196 0.042 6.59 3.41 11.95
11/7/2021 6:15:00 PM 6.19 43.142 0.042 6.58 3.21 11.95
11/7/2021 6:30:00 PM 6.17 43.106 0.042 6.58 2.82 11.94
11/7/2021 6:45:00 PM 6.14 43.052 0.042 6.58 2.76 11.95
11/7/2021 7:00:00 PM 6.12 43.016 0.042 6.58 2.97 11.94
11/7/2021 7:15:00 PM 6.1 42.98 0.042 6.58 3.54 11.97
11/7/2021 7:30:00 PM 6.07 42.926 0.042 6.58 3.15 11.96
11/7/2021 7:45:00 PM 6.05 42.89 0.042 6.57 3.24 11.96
11/7/2021 8:00:00 PM 6.02 42.836 0.041 6.56 4.13 11.98
11/7/2021 8:15:00 PM 5.99 42.782 0.042 6.58 3.1 11.99
11/7/2021 8:30:00 PM 5.97 42.746 0.041 6.55 4.42 12
11/7/2021 8:45:00 PM 5.94 42.692 0.042 6.53 3.15 12
11/7/2021 9:00:00 PM 5.91 42.638 0.042 6.58 3.4 12.02
11/7/2021 9:15:00 PM 5.88 42.584 0.042 6.44 3 12.03
11/7/2021 9:30:00 PM 5.86 42.548 0.042 6.58 3.05 12.03
11/7/2021 9:45:00 PM 5.83 42.494 0.042 6.58 3.24 12.04
11/7/2021 10:00:00 PM 5.8 42.44 0.042 6.57 3.12 12.05
11/7/2021 10:15:00 PM 5.77 42.386 0.042 6.55 3.06 12.06
11/7/2021 10:30:00 PM 5.74 42.332 0.042 6.48 3.11 12.07
11/7/2021 10:45:00 PM 5.7 42.26 0.042 6.56 4.04 12.09
11/7/2021 11:00:00 PM 5.67 42.206 0.042 6.55 3.21 12.09
11/7/2021 11:15:00 PM 5.63 42.134 0.042 6.55 3.09 12.11
11/7/2021 11:30:00 PM 5.59 42.062 0.042 6.47 3.4 12.12
11/7/2021 11:45:00 PM 5.55 41.99 0.042 6.58 2.69 12.13
11/8/2021 12:00:00 AM 5.52 41.936 0.042 6.45 2.89 12.14
11/8/2021 12:15:00 AM 5.48 41.864 0.042 6.57 2.66 12.16
11/8/2021 12:30:00 AM 5.44 41.792 0.042 6.52 2.82 12.17
11/8/2021 12:45:00 AM 5.4 41.72 0.042 6.57 3.04 12.18
11/8/2021 1:00:00 AM 5.37 41.666 0.041 6.5 3.89 12.19
11/8/2021 1:15:00 AM 5.32 41.576 0.042 6.57 3.03 12.21
11/8/2021 1:30:00 AM 5.29 41.522 0.042 6.58 2.83 12.23
11/8/2021 1:45:00 AM 5.25 41.45 0.042 6.56 2.87 12.24
11/8/2021 2:00:00 AM 5.22 41.396 0.042 6.55 2.8 12.25
11/8/2021 2:15:00 AM 5.18 41.324 0.042 6.58 2.95 12.26
11/8/2021 2:30:00 AM 5.14 41.252 0.042 6.58 2.94 12.28
11/8/2021 2:45:00 AM 5.11 41.198 0.042 6.58 3.08 12.29
11/8/2021 3:00:00 AM 5.07 41.126 0.042 6.57 4.92 12.29
11/8/2021 3:15:00 AM 5.04 41.072 0.042 6.57 2.72 12.3
11/8/2021 3:30:00 AM 5 41 0.042 6.56 2.73 12.32
11/8/2021 3:45:00 AM 4.97 40.946 0.042 6.58 2.69 12.32
11/8/2021 4:00:00 AM 4.94 40.892 0.042 6.57 2.95 12.34
11/8/2021 4:15:00 AM 4.91 40.838 0.042 6.57 2.84 12.36
11/8/2021 4:30:00 AM 4.87 40.766 0.042 6.51 2.9 12.37
11/8/2021 4:45:00 AM 4.84 40.712 0.042 6.55 2.53 12.38
11/8/2021 5:00:00 AM 4.81 40.658 0.042 6.58 2.8 12.39
11/8/2021 5:15:00 AM 4.78 40.604 0.042 6.58 2.65 12.4
11/8/2021 5:30:00 AM 4.75 40.55 0.042 6.58 2.77 12.41
11/8/2021 5:45:00 AM 4.72 40.496 0.042 6.52 3.2 12.43
11/8/2021 6:00:00 AM 4.69 40.442 0.042 6.58 2.55 12.44
11/8/2021 6:15:00 AM 4.66 40.388 0.042 6.58 2.72 12.45
11/8/2021 6:30:00 AM 4.63 40.334 0.042 6.58 2.69 12.46
11/8/2021 6:45:00 AM 4.6 40.28 0.042 6.57 2.75 12.47
11/8/2021 7:00:00 AM 4.58 40.244 0.042 6.58 2.93 12.49
11/8/2021 7:15:00 AM 4.55 40.19 0.042 6.58 2.67 12.51
11/8/2021 7:30:00 AM 4.53 40.154 0.042 6.58 3.04 12.55
11/8/2021 7:45:00 AM 4.51 40.118 0.042 6.6 2.74 12.58
11/8/2021 8:00:00 AM 4.5 40.1 0.041 6.58 3.79 12.61
11/8/2021 8:15:00 AM 4.49 40.082 0.042 6.61 2.61 12.64
11/8/2021 8:30:00 AM 4.48 40.064 0.042 6.61 2.67 12.67
11/8/2021 8:45:00 AM 4.47 40.046 0.042 6.62 2.61 12.69
11/8/2021 9:00:00 AM 4.47 40.046 0.042 6.63 2.63 12.7
11/8/2021 9:15:00 AM 4.48 40.064 0.042 6.62 3.08 12.72
11/8/2021 9:30:00 AM 4.52 40.136 0.042 6.64 3.05 12.73
11/8/2021 9:45:00 AM 4.6 40.28 0.042 6.58 2.62 12.74
11/8/2021 10:00:00 AM 4.69 40.442 0.042 6.67 2.62 12.73
11/8/2021 10:15:00 AM 4.8 40.64 0.041 6.59 3.92 12.72
11/8/2021 10:30:00 AM 4.92 40.856 0.041 6.68 3.81 12.69
11/8/2021 10:45:00 AM 5.05 41.09 0.042 6.69 3.16 12.67
11/8/2021 11:00:00 AM 5.17 41.306 0.042 6.7 3.13 12.64
11/8/2021 11:15:00 AM 5.3 41.54 0.042 6.72 2.89 12.62
11/8/2021 11:30:00 AM 5.46 41.828 0.042 6.71 2.87 12.58
11/8/2021 11:45:00 AM 5.63 42.134 0.042 6.72 5.24 12.53
11/8/2021 12:00:00 PM 5.8 42.44 0.042 6.72 5.44 12.47
11/8/2021 12:15:00 PM 6 42.8 0.042 6.73 5.46 12.42
11/8/2021 12:30:00 PM 6.19 43.142 0.042 6.73 4.99 12.38
11/8/2021 12:45:00 PM 6.39 43.502 0.042 6.73 4.69 12.33
11/8/2021 1:00:00 PM 6.57 43.826 0.041 6.74 5.38 12.27
11/8/2021 1:15:00 PM 6.73 44.114 0.041 6.73 4.48 12.22
11/8/2021 1:30:00 PM 6.89 44.402 0.041 6.66 2.66 12.17
11/8/2021 1:45:00 PM 7.02 44.636 0.041 6.73 2.55 12.12
11/8/2021 2:00:00 PM 7.14 44.852 0.041 6.72 2.61 12.08
11/8/2021 2:15:00 PM 7.22 44.996 0.041 6.7 2.78 12.04
11/8/2021 2:30:00 PM 7.31 45.158 0.041 6.73 2.6 12.01
11/8/2021 2:45:00 PM 7.39 45.302 0.041 6.72 2.7 11.98
11/8/2021 3:00:00 PM 7.45 45.41 0.041 6.71 2.35 11.94
11/8/2021 3:15:00 PM 7.48 45.464 0.041 6.7 2.7 11.92
11/8/2021 3:30:00 PM 7.48 45.464 0.041 6.7 2.63 11.89
11/8/2021 3:45:00 PM 7.46 45.428 0.041 6.68 2.81 11.87
11/8/2021 4:00:00 PM 7.44 45.392 0.041 6.51 3.01 11.83
11/8/2021 4:15:00 PM 7.41 45.338 0.041 6.67 4.69 11.81
11/8/2021 4:30:00 PM 7.38 45.284 0.042 6.65 2.79 11.79
11/8/2021 4:45:00 PM 7.34 45.212 0.042 6.63 2.56 11.77
11/8/2021 5:00:00 PM 7.3 45.14 0.042 6.63 2.61 11.74
11/8/2021 5:15:00 PM 7.24 45.032 0.042 6.61 2.45 11.71
11/8/2021 5:30:00 PM 7.18 44.924 0.042 6.6 3.47 11.71
11/8/2021 5:45:00 PM 7.13 44.834 0.042 6.57 2.64 11.7
11/8/2021 6:00:00 PM 7.08 44.744 0.042 6.57 2.71 11.7
11/8/2021 6:15:00 PM 7.05 44.69 0.042 6.58 2.47 11.69
11/8/2021 6:30:00 PM 7.03 44.654 0.042 6.56 2.71 11.69
11/8/2021 6:45:00 PM 7 44.6 0.042 6.57 2.54 11.69
11/8/2021 7:00:00 PM 6.98 44.564 0.042 6.56 3.66 11.69
11/8/2021 7:15:00 PM 6.96 44.528 0.042 6.55 2.72 11.69
11/8/2021 7:30:00 PM 6.93 44.474 0.042 6.56 2.4 11.69
11/8/2021 7:45:00 PM 6.91 44.438 0.042 6.56 2.48 11.69
11/8/2021 8:00:00 PM 6.89 44.402 0.042 6.56 2.78 11.71
11/8/2021 8:15:00 PM 6.86 44.348 0.042 6.56 2.71 11.71
11/8/2021 8:30:00 PM 6.84 44.312 0.042 6.57 3.04 11.72
11/8/2021 8:45:00 PM 6.81 44.258 0.042 6.56 3.27 11.72
11/8/2021 9:00:00 PM 6.79 44.222 0.042 6.56 2.33 11.73
11/8/2021 9:15:00 PM 6.76 44.168 0.042 6.47 2.37 11.74
11/8/2021 9:30:00 PM 6.74 44.132 0.043 6.55 2.69 11.75
11/8/2021 9:45:00 PM 6.72 44.096 0.043 6.55 3.71 11.76
11/8/2021 10:00:00 PM 6.69 44.042 0.043 6.55 2.46 11.76
11/8/2021 10:15:00 PM 6.67 44.006 0.043 6.47 2.43 11.77
11/8/2021 10:30:00 PM 6.64 43.952 0.043 6.55 2.38 11.77
11/8/2021 10:45:00 PM 6.61 43.898 0.043 6.56 2.42 11.78
11/8/2021 11:00:00 PM 6.59 43.862 0.043 6.56 2.38 11.79
11/8/2021 11:15:00 PM 6.55 43.79 0.043 6.56 2.45 11.8
11/8/2021 11:30:00 PM 6.53 43.754 0.043 6.56 2.45 11.81
11/8/2021 11:45:00 PM 6.49 43.682 0.043 6.55 2.54 11.82
11/9/2021 12:00:00 AM 6.45 43.61 0.043 6.55 2.48 11.82
11/9/2021 12:15:00 AM 6.42 43.556 0.043 6.55 2.42 11.84
11/9/2021 12:30:00 AM 6.39 43.502 0.043 6.55 2.27 11.86
11/9/2021 12:45:00 AM 6.35 43.43 0.043 6.54 2.42 11.86
11/9/2021 1:00:00 AM 6.31 43.358 0.043 6.55 2.49 11.88
11/9/2021 1:15:00 AM 6.27 43.286 0.043 6.55 2.31 11.89
11/9/2021 1:30:00 AM 6.23 43.214 0.043 6.54 2.76 11.9
11/9/2021 1:45:00 AM 6.2 43.16 0.043 6.55 2.38 11.9
11/9/2021 2:00:00 AM 6.16 43.088 0.043 6.55 2.65 11.92
11/9/2021 2:15:00 AM 6.13 43.034 0.043 6.55 2.46 11.94
11/9/2021 2:30:00 AM 6.09 42.962 0.043 6.55 2.24 11.95
11/9/2021 2:45:00 AM 6.06 42.908 0.042 6.51 3.72 11.96
11/9/2021 3:00:00 AM 6.02 42.836 0.043 6.55 2.47 11.96
11/9/2021 3:15:00 AM 5.98 42.764 0.043 6.55 2.42 11.97
11/9/2021 3:30:00 AM 5.95 42.71 0.043 6.55 2.66 11.99
11/9/2021 3:45:00 AM 5.92 42.656 0.043 6.55 2.34 12
11/9/2021 4:00:00 AM 5.88 42.584 0.043 6.56 2.51 12.02
11/9/2021 4:15:00 AM 5.85 42.53 0.043 6.55 2.31 12.02
11/9/2021 4:30:00 AM 5.82 42.476 0.043 6.43 2.76 12.03
11/9/2021 4:45:00 AM 5.79 42.422 0.043 6.56 2.6 12.05
11/9/2021 5:00:00 AM 5.75 42.35 0.043 6.55 2.73 12.05
11/9/2021 5:15:00 AM 5.72 42.296 0.043 6.56 2.74 12.07
11/9/2021 5:30:00 AM 5.68 42.224 0.043 6.54 2.48 12.08
11/9/2021 5:45:00 AM 5.65 42.17 0.043 6.56 3.03 12.1
11/9/2021 6:00:00 AM 5.62 42.116 0.043 6.5 2.36 12.11
11/9/2021 6:15:00 AM 5.59 42.062 0.043 6.57 2.48 12.12
11/9/2021 6:30:00 AM 5.56 42.008 0.043 6.56 2.57 12.12
11/9/2021 6:45:00 AM 5.53 41.954 0.043 6.56 4.83 12.11
11/9/2021 7:00:00 AM 5.5 41.9 0.042 6.53 3.93 12.16
11/9/2021 7:15:00 AM 5.48 41.864 0.043 6.56 2.61 12.19
11/9/2021 7:30:00 AM 5.45 41.81 0.043 6.58 2.42 12.21
11/9/2021 7:45:00 AM 5.44 41.792 0.043 6.58 2.58 12.25
11/9/2021 8:00:00 AM 5.43 41.774 0.043 6.59 2.72 12.29
11/9/2021 8:15:00 AM 5.42 41.756 0.043 6.6 2.26 12.32
11/9/2021 8:30:00 AM 5.42 41.756 0.043 6.6 4.99 12.36
11/9/2021 8:45:00 AM 5.42 41.756 0.043 6.62 2.35 12.38
11/9/2021 9:00:00 AM 5.43 41.774 0.043 6.63 2.68 12.41
11/9/2021 9:15:00 AM 5.44 41.792 0.043 6.64 2.38 12.42
11/9/2021 9:30:00 AM 5.47 41.846 0.043 6.64 2.25 12.44
11/9/2021 9:45:00 AM 5.55 41.99 0.042 6.65 2.3 12.44
11/9/2021 10:00:00 AM 5.64 42.152 0.042 6.64 2.21 12.43
11/9/2021 10:15:00 AM 5.76 42.368 0.042 6.69 2.32 12.42
11/9/2021 10:30:00 AM 5.9 42.62 0.042 6.7 2.09 12.4
11/9/2021 10:45:00 AM 6.04 42.872 0.042 6.72 2.9 12.37
11/9/2021 11:00:00 AM 6.16 43.088 0.041 6.72 4.34 12.34
11/9/2021 11:15:00 AM 6.3 43.34 0.042 6.73 2.72 12.32
11/9/2021 11:30:00 AM 6.44 43.592 0.042 6.74 2.56 12.27
11/9/2021 11:45:00 AM 6.59 43.862 0.042 6.74 2.23 12.25
11/9/2021 12:00:00 PM 6.75 44.15 0.042 6.75 2.26 12.2
11/9/2021 12:15:00 PM 6.92 44.456 0.042 6.75 5.02 12.15
11/9/2021 12:30:00 PM 7.11 44.798 0.042 6.75 2.2 12.11
11/9/2021 12:45:00 PM 7.29 45.122 0.042 6.75 2.15 12.04
11/9/2021 1:00:00 PM 7.43 45.374 0.042 6.76 2.34 12.02
11/9/2021 1:15:00 PM 7.62 45.716 0.042 6.76 2.4 11.98
11/9/2021 1:30:00 PM 7.77 45.986 0.042 6.76 2.5 11.94
11/9/2021 1:45:00 PM 7.89 46.202 0.042 6.76 2.56 11.92
11/9/2021 2:00:00 PM 7.94 46.292 0.042 6.75 2.17 11.86
11/9/2021 2:15:00 PM 8.07 46.526 0.042 6.76 2.04 11.82
11/9/2021 2:30:00 PM 8.2 46.76 0.042 6.76 2.27 11.78
11/9/2021 2:45:00 PM 8.27 46.886 0.042 6.76 2.86 11.76
11/9/2021 3:00:00 PM 8.29 46.922 0.042 6.75 2.73 11.71
11/9/2021 3:15:00 PM 8.31 46.958 0.042 6.73 2.12 11.71
11/9/2021 3:30:00 PM 8.31 46.958 0.042 6.73 2.1 11.68
11/9/2021 3:45:00 PM 8.29 46.922 0.042 6.71 2.07 11.66
11/9/2021 4:00:00 PM 8.26 46.868 0.042 6.7 2.19 11.62
11/9/2021 4:15:00 PM 8.24 46.832 0.042 6.66 2.14 11.59
11/9/2021 4:30:00 PM 8.19 46.742 0.042 6.65 2.2 11.55
11/9/2021 4:45:00 PM 8.16 46.688 0.042 6.63 6.01 11.51
11/9/2021 5:00:00 PM 8.15 46.67 0.042 6.6 2.21 11.46
11/9/2021 5:15:00 PM 8.14 46.652 0.042 6.6 2.39 11.42
11/9/2021 5:30:00 PM 8.14 46.652 0.042 6.58 2.33 11.39
11/9/2021 5:45:00 PM 8.13 46.634 0.042 6.56 2.47 11.37
11/9/2021 6:00:00 PM 8.13 46.634 0.042 6.56 2.24 11.36
11/9/2021 6:15:00 PM 8.12 46.616 0.042 6.56 2.45 11.33
11/9/2021 6:30:00 PM 8.12 46.616 0.043 6.56 6.76 11.33
11/9/2021 6:45:00 PM 8.13 46.634 0.043 6.55 2.36 11.32
11/9/2021 7:00:00 PM 8.14 46.652 0.043 6.55 2.37 11.32
11/9/2021 7:15:00 PM 8.14 46.652 0.043 6.55 2.35 11.31
11/9/2021 7:30:00 PM 8.15 46.67 0.043 6.55 2.41 11.3
11/9/2021 7:45:00 PM 8.16 46.688 0.043 6.54 2.37 11.3
11/9/2021 8:00:00 PM 8.17 46.706 0.043 6.53 2.42 11.29
11/9/2021 8:15:00 PM 8.17 46.706 0.043 6.53 2.28 11.25
11/9/2021 8:30:00 PM 8.17 46.706 0.043 6.53 2.31 11.29
11/9/2021 8:45:00 PM 8.17 46.706 0.043 6.52 2.33 11.28
11/9/2021 9:00:00 PM 8.16 46.688 0.043 6.52 2.34 11.28
11/9/2021 9:15:00 PM 8.16 46.688 0.043 6.52 2.49 11.29
11/9/2021 9:30:00 PM 8.15 46.67 0.043 6.51 2.28 11.27
11/9/2021 9:45:00 PM 8.15 46.67 0.043 6.5 2.28 11.28
11/9/2021 10:00:00 PM 8.13 46.634 0.043 6.52 2.37 11.28
11/9/2021 10:15:00 PM 8.12 46.616 0.043 6.51 2.59 11.28
11/9/2021 10:30:00 PM 8.09 46.562 0.043 6.51 2.43 11.28
11/9/2021 10:45:00 PM 8.07 46.526 0.043 6.51 2.58 11.29
11/9/2021 11:00:00 PM 8.04 46.472 0.043 6.44 4 11.29
11/9/2021 11:15:00 PM 8.02 46.436 0.043 6.52 2.39 11.28
11/9/2021 11:30:00 PM 8 46.4 0.043 6.52 2.42 11.3
11/9/2021 11:45:00 PM 7.97 46.346 0.043 6.47 2.45 11.3
11/10/2021 12:00:00 AM 7.95 46.31 0.043 6.52 2.74 11.32
11/10/2021 12:15:00 AM 7.94 46.292 0.043 6.52 2.36 11.33
11/10/2021 12:30:00 AM 7.92 46.256 0.043 6.53 3.02 11.32
11/10/2021 12:45:00 AM 7.9 46.22 0.043 6.52 2.94 11.33
11/10/2021 1:00:00 AM 7.88 46.184 0.043 6.53 2.53 11.33
11/10/2021 1:15:00 AM 7.86 46.148 0.043 6.53 2.77 11.35
11/10/2021 1:30:00 AM 7.83 46.094 0.043 6.52 2.68 11.35
11/10/2021 1:45:00 AM 7.81 46.058 0.043 6.52 2.9 11.35
11/10/2021 2:00:00 AM 7.78 46.004 0.043 6.53 5.03 11.36
11/10/2021 2:15:00 AM 7.76 45.968 0.043 6.53 2.58 11.36
11/10/2021 2:30:00 AM 7.75 45.95 0.043 6.52 2.5 11.38
11/10/2021 2:45:00 AM 7.74 45.932 0.043 6.53 2.42 11.39
11/10/2021 3:00:00 AM 7.73 45.914 0.043 6.53 2.58 11.39
11/10/2021 3:15:00 AM 7.73 45.914 0.043 6.53 4.53 11.38
11/10/2021 3:30:00 AM 7.73 45.914 0.043 6.54 2.37 11.39
11/10/2021 3:45:00 AM 7.73 45.914 0.043 6.5 2.89 11.41
11/10/2021 4:00:00 AM 7.73 45.914 0.043 6.54 2.38 11.4
11/10/2021 4:15:00 AM 7.73 45.914 0.043 6.55 2.52 11.4
11/10/2021 4:30:00 AM 7.73 45.914 0.043 6.55 2.5 11.41
11/10/2021 4:45:00 AM 7.73 45.914 0.043 6.55 2.59 11.41
11/10/2021 5:00:00 AM 7.73 45.914 0.043 6.55 3.03 11.41
11/10/2021 5:15:00 AM 7.73 45.914 0.043 6.55 2.63 11.42
11/10/2021 5:30:00 AM 7.73 45.914 0.043 6.53 3.65 11.42
11/10/2021 5:45:00 AM 7.74 45.932 0.043 6.55 4.29 11.42
11/10/2021 6:00:00 AM 7.74 45.932 0.043 6.55 3.86 11.42
11/10/2021 6:15:00 AM 7.74 45.932 0.044 6.54 3.09 11.42
11/10/2021 6:30:00 AM 7.74 45.932 0.044 6.55 3.26 11.43
11/10/2021 6:45:00 AM 7.74 45.932 0.044 6.56 3.24 11.43
11/10/2021 7:00:00 AM 7.74 45.932 0.044 6.57 3.23 11.44
11/10/2021 7:15:00 AM 7.75 45.95 0.043 6.58 3.09 11.45
11/10/2021 7:30:00 AM 7.75 45.95 0.043 6.59 3.43 11.48
11/10/2021 7:45:00 AM 7.75 45.95 0.043 6.61 6.04 11.54
11/10/2021 8:00:00 AM 7.73 45.914 0.043 6.61 5.18 11.56
11/10/2021 8:15:00 AM 7.72 45.896 0.043 6.62 8.22 11.59
11/10/2021 8:30:00 AM 7.72 45.896 0.043 6.63 3.45 11.61
11/10/2021 8:45:00 AM 7.71 45.878 0.043 6.62 3.68 11.64
11/10/2021 9:00:00 AM 7.69 45.842 0.043 6.65 2.42 11.67
11/10/2021 9:15:00 AM 7.68 45.824 0.043 6.66 2.85 11.68
11/10/2021 9:30:00 AM 7.68 45.824 0.043 6.66 3.72 11.71
11/10/2021 9:45:00 AM 7.73 45.914 0.043 6.68 3.01 11.73
11/10/2021 10:00:00 AM 7.78 46.004 0.043 6.68 3.57 11.73
11/10/2021 10:15:00 AM 7.84 46.112 0.043 6.7 3.44 11.73
11/10/2021 10:30:00 AM 7.92 46.256 0.043 6.71 3.07 11.73
11/10/2021 10:45:00 AM 8.01 46.418 0.043 6.73 3.13 11.71
11/10/2021 11:00:00 AM 8.09 46.562 0.043 6.74 2.22 11.72
11/10/2021 11:15:00 AM 8.17 46.706 0.043 6.73 2.55 11.71
11/10/2021 11:30:00 AM 8.24 46.832 0.043 6.73 2.59 11.7
11/10/2021 11:45:00 AM 8.33 46.994 0.042 6.74 2.61 11.69
11/10/2021 12:00:00 PM 8.43 47.174 0.042 6.74 2.93 11.67
11/10/2021 12:15:00 PM 8.54 47.372 0.042 6.75 2.35 11.65
11/10/2021 12:30:00 PM 8.68 47.624 0.042 6.74 3.49 11.6
11/10/2021 12:45:00 PM 8.8 47.84 0.042 6.76 2.94 11.59
11/10/2021 1:00:00 PM 8.92 48.056 0.042 6.77 2.73 11.55
11/10/2021 1:15:00 PM 9.02 48.236 0.042 6.77 2.63 11.53
11/10/2021 1:30:00 PM 9.1 48.38 0.042 6.76 2.23 11.51
11/10/2021 1:45:00 PM 9.18 48.524 0.042 6.76 2.45 11.49
11/10/2021 2:00:00 PM 9.21 48.578 0.042 6.75 2.37 11.48
11/10/2021 2:15:00 PM 9.24 48.632 0.042 6.74 2.36 11.46
11/10/2021 2:30:00 PM 9.24 48.632 0.042 6.73 2.56 11.44
11/10/2021 2:45:00 PM 9.23 48.614 0.042 6.73 2.39 11.44
11/10/2021 3:00:00 PM 9.22 48.596 0.042 6.72 2.45 11.42
11/10/2021 3:15:00 PM 9.2 48.56 0.042 6.71 2.49 11.42
11/10/2021 3:30:00 PM 9.14 48.452 0.042 6.7 4.78 11.4
11/10/2021 3:45:00 PM 9.07 48.326 0.042 6.69 2.63 11.39
11/10/2021 4:00:00 PM 8.98 48.164 0.042 6.68 2.39 11.37
11/10/2021 4:15:00 PM 8.89 48.002 0.042 6.65 2.39 11.35
11/10/2021 4:30:00 PM 8.81 47.858 0.042 6.64 3.4 11.35
11/10/2021 4:45:00 PM 8.73 47.714 0.042 6.63 2.36 11.35
11/10/2021 5:00:00 PM 8.64 47.552 0.043 6.61 2.38 11.32
11/10/2021 5:15:00 PM 8.54 47.372 0.043 6.6 5.24 11.32
11/10/2021 5:30:00 PM 8.43 47.174 0.043 6.59 2.66 11.31
11/10/2021 5:45:00 PM 8.32 46.976 0.043 6.57 7.48 11.31
11/10/2021 6:00:00 PM 8.23 46.814 0.043 6.56 3.19 11.33
11/10/2021 6:15:00 PM 8.13 46.634 0.043 6.56 2.67 11.33
11/10/2021 6:30:00 PM 8.04 46.472 0.043 6.56 2.47 11.35
11/10/2021 6:45:00 PM 7.97 46.346 0.043 6.55 2.49 11.38
11/10/2021 7:00:00 PM 7.9 46.22 0.043 6.55 2.77 11.39
11/10/2021 7:15:00 PM 7.84 46.112 0.043 6.55 2.75 11.41
11/10/2021 7:30:00 PM 7.78 46.004 0.043 6.55 2.26 11.42
11/10/2021 7:45:00 PM 7.72 45.896 0.043 6.55 3.46 11.44
11/10/2021 8:00:00 PM 7.66 45.788 0.043 6.55 3.03 11.46
11/10/2021 8:15:00 PM 7.6 45.68 0.043 6.55 3.08 11.48
11/10/2021 8:30:00 PM 7.54 45.572 0.043 6.55 2.4 11.5
11/10/2021 8:45:00 PM 7.48 45.464 0.044 6.55 2.64 11.51
11/10/2021 9:00:00 PM 7.41 45.338 0.044 6.56 3.2 11.54
11/10/2021 9:15:00 PM 7.35 45.23 0.044 6.56 2.79 11.56
11/10/2021 9:30:00 PM 7.3 45.14 0.044 6.56 2.51 11.56
11/10/2021 9:45:00 PM 7.24 45.032 0.044 6.56 2.53 11.59
11/10/2021 10:00:00 PM 7.19 44.942 0.043 6.54 4.1 11.6
11/10/2021 10:15:00 PM 7.14 44.852 0.044 6.56 2.48 11.62
11/10/2021 10:30:00 PM 7.08 44.744 0.044 6.57 2.6 11.64
11/10/2021 10:45:00 PM 7.03 44.654 0.044 6.57 3.01 11.65
11/10/2021 11:00:00 PM 6.98 44.564 0.044 6.57 2.64 11.68
11/10/2021 11:15:00 PM 6.92 44.456 0.044 6.56 2.44 11.69
11/10/2021 11:30:00 PM 6.87 44.366 0.044 6.56 2.35 11.71
11/10/2021 11:45:00 PM 6.82 44.276 0.044 6.56 2.41 11.73
11/11/2021 12:00:00 AM 6.76 44.168 0.044 6.57 2.54 11.75
11/11/2021 12:15:00 AM 6.7 44.06 0.044 6.57 2.8 11.76
11/11/2021 12:30:00 AM 6.65 43.97 0.044 6.56 2.8 11.78
11/11/2021 12:45:00 AM 6.6 43.88 0.044 6.57 2.41 11.79
11/11/2021 1:00:00 AM 6.54 43.772 0.044 6.57 2.34 11.8
11/11/2021 1:15:00 AM 6.49 43.682 0.044 6.59 2.33 11.83
11/11/2021 1:30:00 AM 6.44 43.592 0.044 6.58 2.75 11.84
11/11/2021 1:45:00 AM 6.38 43.484 0.044 6.58 2.62 11.85
11/11/2021 2:00:00 AM 6.33 43.394 0.044 6.57 2.42 11.88
11/11/2021 2:15:00 AM 6.29 43.322 0.044 6.59 2.37 11.89
11/11/2021 2:30:00 AM 6.27 43.286 0.044 6.59 2.58 11.91
11/11/2021 2:45:00 AM 6.24 43.232 0.044 6.6 2.26 11.92
11/11/2021 3:00:00 AM 6.2 43.16 0.044 6.6 2.24 11.93
11/11/2021 3:15:00 AM 6.18 43.124 0.044 6.6 2.22 11.94
11/11/2021 3:30:00 AM 6.16 43.088 0.044 6.61 2.25 11.96
11/11/2021 3:45:00 AM 6.14 43.052 0.044 6.6 2.19 11.95
11/11/2021 4:00:00 AM 6.11 42.998 0.044 6.61 2.15 11.96
11/11/2021 4:15:00 AM 6.08 42.944 0.044 6.61 2.28 11.97
11/11/2021 4:30:00 AM 6.05 42.89 0.044 6.61 2.26 11.98
11/11/2021 4:45:00 AM 6.01 42.818 0.044 6.61 2.5 11.99
11/11/2021 5:00:00 AM 5.99 42.782 0.044 6.61 2.52 12
11/11/2021 5:15:00 AM 5.95 42.71 0.044 6.61 2.25 12.01
11/11/2021 5:30:00 AM 5.91 42.638 0.044 6.61 2.17 12.03
11/11/2021 5:45:00 AM 5.88 42.584 0.044 6.61 2.2 12.02
11/11/2021 6:00:00 AM 5.84 42.512 0.044 6.6 2.27 12.05
11/11/2021 6:15:00 AM 5.81 42.458 0.044 6.61 2.72 12.05
11/11/2021 6:30:00 AM 5.78 42.404 0.044 6.61 2.84 12.07
11/11/2021 6:45:00 AM 5.75 42.35 0.044 6.6 2.7 12.07
11/11/2021 7:00:00 AM 5.71 42.278 0.044 6.62 2.8 12.09
11/11/2021 7:15:00 AM 5.68 42.224 0.044 6.61 2.69 12.12
11/11/2021 7:30:00 AM 5.65 42.17 0.044 6.62 2.58 12.15
11/11/2021 7:45:00 AM 5.63 42.134 0.044 6.62 2.51 12.19
11/11/2021 8:00:00 AM 5.62 42.116 0.044 6.64 2.79 12.24
11/11/2021 8:15:00 AM 5.61 42.098 0.044 6.66 2.27 12.3
11/11/2021 8:30:00 AM 5.62 42.116 0.044 6.67 2.29 12.34
11/11/2021 8:45:00 AM 5.64 42.152 0.044 6.7 2.41 12.39
11/11/2021 9:00:00 AM 5.68 42.224 0.043 6.7 2.41 12.42
11/11/2021 9:15:00 AM 5.74 42.332 0.043 6.72 2.3 12.45
11/11/2021 9:30:00 AM 5.81 42.458 0.043 6.75 2.21 12.46
11/11/2021 9:45:00 AM 5.89 42.602 0.043 6.76 2.16 12.46
11/11/2021 10:00:00 AM 5.98 42.764 0.043 6.72 2.27 12.44
11/11/2021 10:15:00 AM 6.07 42.926 0.043 6.78 2.17 12.42
11/11/2021 10:30:00 AM 6.16 43.088 0.043 6.77 2.26 12.42
11/11/2021 10:45:00 AM 6.25 43.25 0.043 6.71 2.24 12.4
11/11/2021 11:00:00 AM 6.34 43.412 0.043 6.8 2.16 12.38
11/11/2021 11:15:00 AM 6.44 43.592 0.043 6.8 2.23 12.36
11/11/2021 11:30:00 AM 6.52 43.736 0.043 6.8 2.16 12.33
11/11/2021 11:45:00 AM 6.61 43.898 0.043 6.81 2.13 12.31
11/11/2021 12:00:00 PM 6.71 44.078 0.043 6.82 2.1 12.29
11/11/2021 12:15:00 PM 6.85 44.33 0.043 6.81 2.06 12.26
11/11/2021 12:30:00 PM 6.93 44.474 0.043 6.82 2.13 12.21
11/11/2021 12:45:00 PM 7.06 44.708 0.043 6.81 2.03 12.18
11/11/2021 1:00:00 PM 7.21 44.978 0.042 6.82 2.03 12.12
11/11/2021 1:15:00 PM 7.35 45.23 0.042 6.83 2.07 12.06
11/11/2021 1:30:00 PM 7.44 45.392 0.042 6.82 2.06 12.04
11/11/2021 1:45:00 PM 7.48 45.464 0.042 6.81 2.11 12.03
11/11/2021 2:00:00 PM 7.52 45.536 0.042 6.81 2.1 12.02
11/11/2021 2:15:00 PM 7.6 45.68 0.042 6.82 2.05 11.99
11/11/2021 2:30:00 PM 7.66 45.788 0.042 6.81 1.98 11.95
11/11/2021 2:45:00 PM 7.74 45.932 0.042 6.8 1.95 11.92
11/11/2021 3:00:00 PM 7.81 46.058 0.042 6.8 1.98 11.88
11/11/2021 3:15:00 PM 7.86 46.148 0.042 6.8 2.04 11.83
11/11/2021 3:30:00 PM 7.9 46.22 0.042 6.78 1.99 11.81
11/11/2021 3:45:00 PM 7.92 46.256 0.042 6.78 2.2 11.79
11/11/2021 4:00:00 PM 7.93 46.274 0.042 6.77 2.03 11.76
11/11/2021 4:15:00 PM 7.93 46.274 0.042 6.75 2.15 11.71
11/11/2021 4:30:00 PM 7.94 46.292 0.042 6.74 1.92 11.65
11/11/2021 4:45:00 PM 7.94 46.292 0.043 6.72 2.06 11.6
11/11/2021 5:00:00 PM 7.92 46.256 0.043 6.67 2.02 11.52
11/11/2021 5:15:00 PM 7.91 46.238 0.043 6.67 1.98 11.48
11/11/2021 5:30:00 PM 7.9 46.22 0.043 6.67 2.42 11.46
11/11/2021 5:45:00 PM 7.9 46.22 0.043 6.65 2.22 11.43
11/11/2021 6:00:00 PM 7.89 46.202 0.043 6.64 2.14 11.41
11/11/2021 6:15:00 PM 7.89 46.202 0.043 6.63 2.27 11.4
11/11/2021 6:30:00 PM 7.89 46.202 0.043 6.63 2.15 11.38
11/11/2021 6:45:00 PM 7.91 46.238 0.043 6.62 2.18 11.37
11/11/2021 7:00:00 PM 7.93 46.274 0.044 6.62 2.15 11.36
11/11/2021 7:15:00 PM 7.95 46.31 0.044 6.62 2.42 11.34
11/11/2021 7:30:00 PM 7.97 46.346 0.044 6.61 2.13 11.33
11/11/2021 7:45:00 PM 7.99 46.382 0.044 6.61 2.15 11.33
11/11/2021 8:00:00 PM 8.02 46.436 0.044 6.61 2.33 11.31
11/11/2021 8:15:00 PM 8.05 46.49 0.044 6.62 2.19 11.31
11/11/2021 8:30:00 PM 8.07 46.526 0.044 6.62 2.11 11.28
11/11/2021 8:45:00 PM 8.1 46.58 0.044 6.6 2.05 11.27
11/11/2021 9:00:00 PM 8.14 46.652 0.044 6.63 2.13 11.26
11/11/2021 9:15:00 PM 8.17 46.706 0.044 6.62 2.17 11.25
11/11/2021 9:30:00 PM 8.21 46.778 0.044 6.63 2.12 11.24
11/11/2021 9:45:00 PM 8.24 46.832 0.044 6.62 2.14 11.23
11/11/2021 10:00:00 PM 8.26 46.868 0.044 6.62 2.15 11.22
11/11/2021 10:15:00 PM 8.28 46.904 0.044 6.61 2.23 11.21
11/11/2021 10:30:00 PM 8.31 46.958 0.044 6.61 2.19 11.2
11/11/2021 10:45:00 PM 8.34 47.012 0.044 6.61 2.23 11.19
11/11/2021 11:00:00 PM 8.37 47.066 0.044 6.61 2.37 11.18
11/11/2021 11:15:00 PM 8.4 47.12 0.044 6.61 2.32 11.16
11/11/2021 11:30:00 PM 8.44 47.192 0.044 6.61 2.38 11.15
11/11/2021 11:45:00 PM 8.48 47.264 0.044 6.6 2.35 11.13
11/12/2021 12:00:00 AM 8.51 47.318 0.044 6.59 2.39 11.13
11/12/2021 12:15:00 AM 8.54 47.372 0.044 6.59 2.41 11.11
11/12/2021 12:30:00 AM 8.56 47.408 0.044 6.59 2.46 11.09
11/12/2021 12:45:00 AM 8.6 47.48 0.044 6.59 2.54 11.09
11/12/2021 1:00:00 AM 8.63 47.534 0.044 6.59 2.42 11.07
11/12/2021 1:15:00 AM 8.66 47.588 0.044 6.59 2.44 11.06
11/12/2021 1:30:00 AM 8.7 47.66 0.044 6.59 2.49 11.04
11/12/2021 1:45:00 AM 8.75 47.75 0.044 6.59 2.52 11.01
11/12/2021 2:00:00 AM 8.78 47.804 0.044 6.6 2.4 11
11/12/2021 2:15:00 AM 8.82 47.876 0.044 6.59 2.62 10.99
11/12/2021 2:30:00 AM 8.85 47.93 0.044 6.59 2.53 10.99
11/12/2021 2:45:00 AM 8.89 48.002 0.044 6.59 2.42 10.97
11/12/2021 3:00:00 AM 8.93 48.074 0.044 6.58 2.4 10.96
11/12/2021 3:15:00 AM 8.99 48.182 0.044 6.59 2.64 10.94
11/12/2021 3:30:00 AM 9.04 48.272 0.044 6.6 2.76 10.94
11/12/2021 3:45:00 AM 9.08 48.344 0.044 6.59 2.74 10.92
11/12/2021 4:00:00 AM 9.09 48.362 0.043 6.58 2.72 10.92
11/12/2021 4:15:00 AM 9.13 48.434 0.043 6.59 2.85 10.9
11/12/2021 4:30:00 AM 9.15 48.47 0.043 6.57 2.95 10.9
11/12/2021 4:45:00 AM 9.16 48.488 0.043 6.57 2.93 10.89
11/12/2021 5:00:00 AM 9.16 48.488 0.043 6.56 3.09 10.89
11/12/2021 5:15:00 AM 9.17 48.506 0.043 6.56 2.92 10.88
11/12/2021 5:30:00 AM 9.18 48.524 0.043 6.55 3.03 10.88
11/12/2021 5:45:00 AM 9.18 48.524 0.044 6.55 3.39 10.89
11/12/2021 6:00:00 AM 9.18 48.524 0.044 6.54 3.43 10.89
11/12/2021 6:15:00 AM 9.18 48.524 0.044 6.54 3.66 10.89
11/12/2021 6:30:00 AM 9.18 48.524 0.043 6.54 3.86 10.89
11/12/2021 6:45:00 AM 9.18 48.524 0.044 6.54 3.46 10.9
11/12/2021 7:00:00 AM 9.16 48.488 0.044 6.55 3.65 10.91
11/12/2021 7:15:00 AM 9.14 48.452 0.044 6.55 4.27 10.92
11/12/2021 7:30:00 AM 9.11 48.398 0.044 6.56 4.49 10.94
11/12/2021 7:45:00 AM 9.08 48.344 0.044 6.57 4.6 10.97
11/12/2021 8:00:00 AM 9.05 48.29 0.044 6.58 4.8 11
11/12/2021 8:15:00 AM 9.02 48.236 0.045 6.58 4.24 11.04
11/12/2021 8:30:00 AM 8.98 48.164 0.045 6.6 4.45 11.08
11/12/2021 8:45:00 AM 8.94 48.092 0.045 6.61 4.4 11.11
11/12/2021 9:00:00 AM 8.9 48.02 0.045 6.61 4.17 11.13
11/12/2021 9:15:00 AM 8.86 47.948 0.044 6.62 4.04 11.18
11/12/2021 9:30:00 AM 8.85 47.93 0.044 6.63 3.92 11.21
11/12/2021 9:45:00 AM 8.83 47.894 0.044 6.64 4.07 11.27
11/12/2021 10:00:00 AM 8.81 47.858 0.044 6.65 3.93 11.26
11/12/2021 10:15:00 AM 8.81 47.858 0.044 6.67 3.85 11.29
11/12/2021 10:30:00 AM 8.87 47.966 0.044 6.68 3.55 11.32
11/12/2021 10:45:00 AM 8.93 48.074 0.044 6.7 3.65 11.33
11/12/2021 11:00:00 AM 8.97 48.146 0.044 6.71 3.44 11.33
11/12/2021 11:15:00 AM 9.01 48.218 0.044 6.72 3.2 11.34
11/12/2021 11:30:00 AM 9.05 48.29 0.044 6.73 3.34 11.34
11/12/2021 11:45:00 AM 9.09 48.362 0.044 6.73 3.23 11.34
11/12/2021 12:00:00 PM 9.14 48.452 0.044 6.74 4.08 11.34
11/12/2021 12:15:00 PM 9.22 48.596 0.044 6.75 3.28 11.33
11/12/2021 12:30:00 PM 9.3 48.74 0.044 6.75 2.93 11.33
11/12/2021 12:45:00 PM 9.4 48.92 0.044 6.77 3.08 11.34
11/12/2021 1:00:00 PM 9.48 49.064 0.044 6.78 2.86 11.35
11/12/2021 1:15:00 PM 9.53 49.154 0.044 6.78 4.15 11.33
11/12/2021 1:30:00 PM 9.56 49.208 0.044 6.77 5.35 11.3
11/12/2021 1:45:00 PM 9.6 49.28 0.044 6.78 3.05 11.28
11/12/2021 2:00:00 PM 9.56 49.208 0.044 6.77 2.98 11.25
11/12/2021 2:15:00 PM 9.5 49.1 0.044 6.75 3.01 11.24
11/12/2021 2:30:00 PM 9.46 49.028 0.044 6.74 3.12 11.25
11/12/2021 2:45:00 PM 9.37 48.866 0.044 6.73 3.39 11.28
11/12/2021 3:00:00 PM 9.28 48.704 0.044 6.73 2.86 11.29
11/12/2021 3:15:00 PM 9.18 48.524 0.044 6.73 2.93 11.3
11/12/2021 3:30:00 PM 9.1 48.38 0.044 6.71 2.87 11.3
11/12/2021 3:45:00 PM 9 48.2 0.044 6.7 2.95 11.29
11/12/2021 4:00:00 PM 8.92 48.056 0.044 6.69 2.96 11.28
11/12/2021 4:15:00 PM 8.83 47.894 0.044 6.68 2.79 11.26
11/12/2021 4:30:00 PM 8.76 47.768 0.044 6.66 3 11.26
11/12/2021 4:45:00 PM 8.7 47.66 0.044 6.65 2.97 11.22
11/12/2021 5:00:00 PM 8.64 47.552 0.044 6.63 2.78 11.19
11/12/2021 5:15:00 PM 8.57 47.426 0.044 6.63 2.9 11.2
11/12/2021 5:30:00 PM 8.49 47.282 0.044 6.62 2.88 11.17
11/12/2021 5:45:00 PM 8.41 47.138 0.044 6.6 2.84 11.18
11/12/2021 6:00:00 PM 8.33 46.994 0.044 6.6 2.94 11.18
11/12/2021 6:15:00 PM 8.26 46.868 0.044 6.59 2.9 11.19
11/12/2021 6:30:00 PM 8.19 46.742 0.045 6.59 2.92 11.2
11/12/2021 6:45:00 PM 8.12 46.616 0.045 6.59 2.97 11.22
11/12/2021 7:00:00 PM 8.05 46.49 0.045 6.59 2.89 11.23
11/12/2021 7:15:00 PM 7.99 46.382 0.045 6.59 2.8 11.25
11/12/2021 7:30:00 PM 7.93 46.274 0.045 6.59 3.01 11.26
11/12/2021 7:45:00 PM 7.87 46.166 0.045 6.59 2.93 11.28
11/12/2021 8:00:00 PM 7.81 46.058 0.045 6.59 3.01 11.29
11/12/2021 8:15:00 PM 7.76 45.968 0.045 6.59 2.88 11.31
11/12/2021 8:30:00 PM 7.71 45.878 0.045 6.59 2.94 11.32
11/12/2021 8:45:00 PM 7.67 45.806 0.045 6.59 2.93 11.34
11/12/2021 9:00:00 PM 7.64 45.752 0.045 6.6 2.93 11.35
11/12/2021 9:15:00 PM 7.6 45.68 0.045 6.59 2.88 11.37
11/12/2021 9:30:00 PM 7.56 45.608 0.045 6.6 2.82 11.37
11/12/2021 9:45:00 PM 7.51 45.518 0.045 6.59 2.77 11.38
11/12/2021 10:00:00 PM 7.46 45.428 0.045 6.6 2.86 11.4
11/12/2021 10:15:00 PM 7.4 45.32 0.045 6.6 2.8 11.41
11/12/2021 10:30:00 PM 7.35 45.23 0.045 6.6 2.8 11.43
11/12/2021 10:45:00 PM 7.3 45.14 0.045 6.6 2.78 11.44
11/12/2021 11:00:00 PM 7.25 45.05 0.045 6.61 2.8 11.46
11/12/2021 11:15:00 PM 7.2 44.96 0.045 6.61 2.77 11.47
11/12/2021 11:30:00 PM 7.16 44.888 0.045 6.6 2.8 11.48
11/12/2021 11:45:00 PM 7.11 44.798 0.045 6.6 2.73 11.49
11/13/2021 12:00:00 AM 7.06 44.708 0.045 6.6 2.77 11.51
11/13/2021 12:15:00 AM 7.01 44.618 0.045 6.6 2.86 11.52
11/13/2021 12:30:00 AM 6.97 44.546 0.045 6.6 2.75 11.53
11/13/2021 12:45:00 AM 6.92 44.456 0.045 6.6 2.88 11.55
11/13/2021 1:00:00 AM 6.89 44.402 0.045 6.6 2.8 11.56
11/13/2021 1:15:00 AM 6.86 44.348 0.045 6.6 2.85 11.57
11/13/2021 1:30:00 AM 6.82 44.276 0.045 6.61 2.85 11.58
11/13/2021 1:45:00 AM 6.8 44.24 0.045 6.61 2.72 11.59
11/13/2021 2:00:00 AM 6.78 44.204 0.045 6.61 2.73 11.59
11/13/2021 2:15:00 AM 6.75 44.15 0.043 6.6 4.2 11.6
11/13/2021 2:30:00 AM 6.74 44.132 0.045 6.61 2.75 11.61
11/13/2021 2:45:00 AM 6.73 44.114 0.045 6.63 2.8 11.61
11/13/2021 3:00:00 AM 6.71 44.078 0.045 6.62 2.82 11.61
11/13/2021 3:15:00 AM 6.7 44.06 0.045 6.62 2.81 11.62
11/13/2021 3:30:00 AM 6.68 44.024 0.045 6.62 2.86 11.63
11/13/2021 3:45:00 AM 6.67 44.006 0.045 6.63 2.73 11.63
11/13/2021 4:00:00 AM 6.66 43.988 0.045 6.62 3 11.63
11/13/2021 4:15:00 AM 6.64 43.952 0.044 6.6 4.05 11.63
11/13/2021 4:30:00 AM 6.62 43.916 0.045 6.63 2.72 11.64
11/13/2021 4:45:00 AM 6.6 43.88 0.045 6.62 2.74 11.64
11/13/2021 5:00:00 AM 6.58 43.844 0.044 6.61 4.05 11.65
11/13/2021 5:15:00 AM 6.57 43.826 0.045 6.62 2.76 11.65
11/13/2021 5:30:00 AM 6.56 43.808 0.045 6.62 2.74 11.67
11/13/2021 5:45:00 AM 6.56 43.808 0.045 6.63 2.7 11.67
11/13/2021 6:00:00 AM 6.56 43.808 0.045 6.63 2.88 11.66
11/13/2021 6:15:00 AM 6.56 43.808 0.045 6.62 2.67 11.66
11/13/2021 6:30:00 AM 6.55 43.79 0.045 6.62 2.73 11.67
11/13/2021 6:45:00 AM 6.55 43.79 0.044 6.58 4 11.67
11/13/2021 7:00:00 AM 6.55 43.79 0.045 6.63 2.5 11.67
11/13/2021 7:15:00 AM 6.55 43.79 0.045 6.63 2.73 11.67
11/13/2021 7:30:00 AM 6.55 43.79 0.045 6.63 2.67 11.68
11/13/2021 7:45:00 AM 6.56 43.808 0.045 6.63 2.65 11.69
11/13/2021 8:00:00 AM 6.57 43.826 0.044 6.63 3.85 11.7
11/13/2021 8:15:00 AM 6.58 43.844 0.045 6.66 2.54 11.72
11/13/2021 8:30:00 AM 6.6 43.88 0.045 6.66 2.49 11.75
11/13/2021 8:45:00 AM 6.61 43.898 0.045 6.66 2.56 11.76
11/13/2021 9:00:00 AM 6.62 43.916 0.045 6.68 2.61 11.79
11/13/2021 9:15:00 AM 6.64 43.952 0.045 6.69 2.45 11.81
11/13/2021 9:30:00 AM 6.65 43.97 0.045 6.69 2.8 11.83
11/13/2021 9:45:00 AM 6.66 43.988 0.043 6.67 3.97 11.86
11/13/2021 10:00:00 AM 6.67 44.006 0.044 6.71 2.55 11.86
11/13/2021 10:15:00 AM 6.66 43.988 0.044 6.72 2.54 11.89
11/13/2021 10:30:00 AM 6.65 43.97 0.044 6.72 2.65 11.91
11/13/2021 10:45:00 AM 6.67 44.006 0.042 6.71 3.99 11.95
11/13/2021 11:00:00 AM 6.69 44.042 0.044 6.75 2.56 11.99
11/13/2021 11:15:00 AM 6.73 44.114 0.044 6.76 2.49 12.02
11/13/2021 11:30:00 AM 6.74 44.132 0.044 6.77 2.55 12.02
11/13/2021 11:45:00 AM 6.76 44.168 0.044 6.77 2.49 12.01
11/13/2021 12:00:00 PM 6.76 44.168 0.044 6.78 2.54 12.02
11/13/2021 12:15:00 PM 6.8 44.24 0.044 6.79 2.47 12.03
11/13/2021 12:30:00 PM 6.81 44.258 0.044 6.8 2.61 12.04
11/13/2021 12:45:00 PM 6.83 44.294 0.044 6.8 2.52 12.02
11/13/2021 1:00:00 PM 6.84 44.312 0.044 6.79 2.97 12.01
11/13/2021 1:15:00 PM 6.87 44.366 0.044 6.75 2.53 12
11/13/2021 1:30:00 PM 6.91 44.438 0.042 6.73 3.98 11.98
11/13/2021 1:45:00 PM 6.87 44.366 0.043 6.79 4.1 11.98
11/13/2021 2:00:00 PM 6.84 44.312 0.043 6.78 3.06 11.97
11/13/2021 2:15:00 PM 6.79 44.222 0.043 6.77 2.92 11.96
11/13/2021 2:30:00 PM 6.76 44.168 0.042 6.74 4.52 11.94
11/13/2021 2:45:00 PM 6.74 44.132 0.043 6.75 3.08 11.94
11/13/2021 3:00:00 PM 6.72 44.096 0.041 6.72 5.45 11.92
11/13/2021 3:15:00 PM 6.69 44.042 0.043 6.73 3.97 11.9
11/13/2021 3:30:00 PM 6.66 43.988 0.043 6.71 5.54 11.89
11/13/2021 3:45:00 PM 6.63 43.934 0.044 6.72 3.99 11.87
11/13/2021 4:00:00 PM 6.61 43.898 0.042 6.66 7.17 11.85
11/13/2021 4:15:00 PM 6.59 43.862 0.044 6.71 5.32 11.83
11/13/2021 4:30:00 PM 6.56 43.808 0.044 6.68 3.78 11.81
11/13/2021 4:45:00 PM 6.53 43.754 0.044 6.67 5.39 11.78
11/13/2021 5:00:00 PM 6.51 43.718 0.044 6.67 6.9 11.77
11/13/2021 5:15:00 PM 6.47 43.646 0.044 6.64 2.62 11.76
11/13/2021 5:30:00 PM 6.44 43.592 0.044 6.62 2.71 11.76
11/13/2021 5:45:00 PM 6.41 43.538 0.044 6.66 2.75 11.75
11/13/2021 6:00:00 PM 6.39 43.502 0.044 6.66 3.06 11.74
11/13/2021 6:15:00 PM 6.38 43.484 0.044 6.66 2.62 11.75
11/13/2021 6:30:00 PM 6.36 43.448 0.044 6.51 6.28 11.76
11/13/2021 6:45:00 PM 6.34 43.412 0.044 6.65 2.59 11.76
11/13/2021 7:00:00 PM 6.33 43.394 0.044 6.65 2.6 11.76
11/13/2021 7:15:00 PM 6.32 43.376 0.044 6.5 2.84 11.77
11/13/2021 7:30:00 PM 6.31 43.358 0.044 6.65 3.03 11.77
11/13/2021 7:45:00 PM 6.29 43.322 0.044 6.65 2.82 11.77
11/13/2021 8:00:00 PM 6.27 43.286 0.044 6.65 3.12 11.78
11/13/2021 8:15:00 PM 6.26 43.268 0.044 6.64 2.65 11.79
11/13/2021 8:30:00 PM 6.24 43.232 0.044 6.65 3 11.79
11/13/2021 8:45:00 PM 6.23 43.214 0.044 6.64 2.66 11.79
11/13/2021 9:00:00 PM 6.22 43.196 0.044 6.64 2.62 11.79
11/13/2021 9:15:00 PM 6.2 43.16 0.044 6.56 2.62 11.8
11/13/2021 9:30:00 PM 6.19 43.142 0.044 6.65 2.68 11.81
11/13/2021 9:45:00 PM 6.18 43.124 0.044 6.64 2.74 11.81
11/13/2021 10:00:00 PM 6.17 43.106 0.044 6.64 2.68 11.81
11/13/2021 10:15:00 PM 6.15 43.07 0.044 6.63 2.76 11.83
11/13/2021 10:30:00 PM 6.14 43.052 0.044 6.63 2.76 11.83
11/13/2021 10:45:00 PM 6.13 43.034 0.044 6.64 2.63 11.83
11/13/2021 11:00:00 PM 6.12 43.016 0.044 6.64 2.92 11.83
11/13/2021 11:15:00 PM 6.11 42.998 0.044 6.51 2.95 11.83
11/13/2021 11:30:00 PM 6.1 42.98 0.044 6.65 2.8 11.84
11/13/2021 11:45:00 PM 6.09 42.962 0.044 6.64 3.25 11.85
11/14/2021 12:00:00 AM 6.09 42.962 0.044 6.64 3.1 11.85
11/14/2021 12:15:00 AM 6.08 42.944 0.044 6.64 2.91 11.85
11/14/2021 12:30:00 AM 6.07 42.926 0.044 6.65 2.83 11.86
11/14/2021 12:45:00 AM 6.07 42.926 0.044 6.65 2.76 11.86
11/14/2021 1:00:00 AM 6.06 42.908 0.043 6.63 3.9 11.86
11/14/2021 1:15:00 AM 6.05 42.89 0.044 6.65 3.16 11.87
11/14/2021 1:30:00 AM 6.05 42.89 0.044 6.64 4.38 11.87
11/14/2021 1:45:00 AM 6.04 42.872 0.044 6.64 3.36 11.86
11/14/2021 2:00:00 AM 6.02 42.836 0.044 6.65 2.77 11.88
11/14/2021 2:15:00 AM 6.01 42.818 0.044 6.65 2.59 11.88
11/14/2021 2:30:00 AM 6 42.8 0.044 6.64 2.72 11.88
11/14/2021 2:45:00 AM 5.99 42.782 0.044 6.64 2.69 11.89
11/14/2021 3:00:00 AM 5.98 42.764 0.044 6.65 2.7 11.88
11/14/2021 3:15:00 AM 5.97 42.746 0.044 6.65 2.63 11.9
11/14/2021 3:30:00 AM 5.95 42.71 0.044 6.65 2.66 11.9
11/14/2021 3:45:00 AM 5.93 42.674 0.044 6.65 2.76 11.91
11/14/2021 4:00:00 AM 5.92 42.656 0.044 6.65 2.53 11.91
11/14/2021 4:15:00 AM 5.91 42.638 0.044 6.64 2.49 11.91
11/14/2021 4:30:00 AM 5.9 42.62 0.044 6.65 2.5 11.92
11/14/2021 4:45:00 AM 5.88 42.584 0.044 6.65 2.55 11.92
11/14/2021 5:00:00 AM 5.88 42.584 0.044 6.64 2.82 11.93
11/14/2021 5:15:00 AM 5.86 42.548 0.044 6.64 2.89 11.93
11/14/2021 5:30:00 AM 5.85 42.53 0.044 6.64 2.56 11.94
11/14/2021 5:45:00 AM 5.84 42.512 0.044 6.64 2.72 11.94
11/14/2021 6:00:00 AM 5.83 42.494 0.044 6.64 2.54 11.95
11/14/2021 6:15:00 AM 5.82 42.476 0.044 6.64 2.63 11.95
11/14/2021 6:30:00 AM 5.82 42.476 0.044 6.52 2.66 11.95
11/14/2021 6:45:00 AM 5.81 42.458 0.044 6.65 3.45 11.96
11/14/2021 7:00:00 AM 5.8 42.44 0.044 6.63 2.98 11.97
11/14/2021 7:15:00 AM 5.8 42.44 0.044 6.65 3.04 11.97
11/14/2021 7:30:00 AM 5.79 42.422 0.044 6.65 3.64 11.99
11/14/2021 7:45:00 AM 5.79 42.422 0.044 6.66 2.97 12.02
11/14/2021 8:00:00 AM 5.78 42.404 0.044 6.67 4.32 12.05
11/14/2021 8:15:00 AM 5.78 42.404 0.044 6.67 4.83 12.08
11/14/2021 8:30:00 AM 5.78 42.404 0.044 6.68 4.29 12.12
11/14/2021 8:45:00 AM 5.78 42.404 0.044 6.69 4.34 12.14
11/14/2021 9:00:00 AM 5.78 42.404 0.044 6.67 4.47 12.18
11/14/2021 9:15:00 AM 5.79 42.422 0.044 6.71 3.77 12.19
11/14/2021 9:30:00 AM 5.8 42.44 0.044 6.71 3.76 12.22
11/14/2021 9:45:00 AM 5.82 42.476 0.044 6.72 4.09 12.25
11/14/2021 10:00:00 AM 5.87 42.566 0.044 6.74 3.47 12.27
11/14/2021 10:15:00 AM 5.92 42.656 0.043 6.75 3.35 12.29
11/14/2021 10:30:00 AM 5.96 42.728 0.042 6.75 7.64 12.31
11/14/2021 10:45:00 AM 6.02 42.836 0.043 6.77 7.43 12.3
11/14/2021 11:00:00 AM 6.09 42.962 0.043 6.79 6.99 12.3
11/14/2021 11:15:00 AM 6.15 43.07 0.043 6.78 5.35 12.3
11/14/2021 11:30:00 AM 6.19 43.142 0.043 6.8 4.57 12.27
11/14/2021 11:45:00 AM 6.23 43.214 0.043 6.81 4.58 12.26
11/14/2021 12:00:00 PM 6.27 43.286 0.043 6.8 4.24 12.24
11/14/2021 12:15:00 PM 6.29 43.322 0.043 6.8 4.14 12.22
11/14/2021 12:30:00 PM 6.29 43.322 0.043 6.8 4.22 12.21
11/14/2021 12:45:00 PM 6.3 43.34 0.043 6.79 4.02 12.21
11/14/2021 1:00:00 PM 6.31 43.358 0.043 6.8 4.38 12.19
11/14/2021 1:15:00 PM 6.31 43.358 0.043 6.64 5.4 12.18
11/14/2021 1:30:00 PM 6.32 43.376 0.043 6.79 5.15 12.16
11/14/2021 1:45:00 PM 6.3 43.34 0.043 6.78 5.34 12.13
11/14/2021 2:00:00 PM 6.3 43.34 0.043 6.77 6.06 12.13
11/14/2021 2:15:00 PM 6.28 43.304 0.043 6.76 5.97 12.11
11/14/2021 2:30:00 PM 6.27 43.286 0.043 6.76 5.89 12.08
11/14/2021 2:45:00 PM 6.24 43.232 0.043 6.74 5.97 12.06
11/14/2021 3:00:00 PM 6.22 43.196 0.043 6.73 5.63 12.02
11/14/2021 3:15:00 PM 6.18 43.124 0.043 6.73 5.15 12
11/14/2021 3:30:00 PM 6.14 43.052 0.042 6.69 5.48 11.98
11/14/2021 3:45:00 PM 6.11 42.998 0.043 6.72 2.83 11.98
11/14/2021 4:00:00 PM 6.05 42.89 0.043 6.7 4.19 11.96
11/14/2021 4:15:00 PM 5.97 42.746 0.043 6.69 3.83 11.94
11/14/2021 4:30:00 PM 5.9 42.62 0.043 6.68 4.86 11.94
11/14/2021 4:45:00 PM 5.85 42.53 0.043 6.67 2.14 11.93
11/14/2021 5:00:00 PM 5.78 42.404 0.043 6.67 2.04 11.93
11/14/2021 5:15:00 PM 5.71 42.278 0.043 6.65 2.03 11.93
11/14/2021 5:30:00 PM 5.64 42.152 0.043 6.65 2.1 11.94
11/14/2021 5:45:00 PM 5.57 42.026 0.043 6.65 2.03 11.95
11/14/2021 6:00:00 PM 5.52 41.936 0.043 6.64 2.1 11.95
11/14/2021 6:15:00 PM 5.48 41.864 0.043 6.64 2.18 11.97
11/14/2021 6:30:00 PM 5.44 41.792 0.043 6.64 2.18 11.98
11/14/2021 6:45:00 PM 5.42 41.756 0.043 6.64 2.39 12
11/14/2021 7:00:00 PM 5.41 41.738 0.043 6.63 2.16 12
11/14/2021 7:15:00 PM 5.41 41.738 0.042 6.62 4.09 12.01
11/14/2021 7:30:00 PM 5.4 41.72 0.043 6.64 2.21 12.02
11/14/2021 7:45:00 PM 5.39 41.702 0.043 6.64 2.49 12.02
11/14/2021 8:00:00 PM 5.39 41.702 0.043 6.65 2.32 12.02
11/14/2021 8:15:00 PM 5.39 41.702 0.043 6.63 2.18 12.02
11/14/2021 8:30:00 PM 5.39 41.702 0.043 6.65 2.7 12.02
11/14/2021 8:45:00 PM 5.4 41.72 0.043 6.65 2.7 12.02
11/14/2021 9:00:00 PM 5.4 41.72 0.042 6.63 4.26 12.02
11/14/2021 9:15:00 PM 5.4 41.72 0.043 6.65 2.67 12.02
11/14/2021 9:30:00 PM 5.4 41.72 0.043 6.64 2.56 12.02
11/14/2021 9:45:00 PM 5.4 41.72 0.044 6.65 2.93 12.02
11/14/2021 10:00:00 PM 5.4 41.72 0.044 6.64 2.58 12.02
11/14/2021 10:15:00 PM 5.37 41.666 0.044 6.65 2.45 12.02
11/14/2021 10:30:00 PM 5.37 41.666 0.043 6.64 2.68 12.03
11/14/2021 10:45:00 PM 5.36 41.648 0.043 6.63 28.04 12.03
11/14/2021 11:00:00 PM 5.35 41.63 0.043 6.64 2.49 12.03
11/14/2021 11:15:00 PM 5.35 41.63 0.043 6.63 2.52 12.03
11/14/2021 11:30:00 PM 5.34 41.612 0.042 6.62 3.89 12.04
11/14/2021 11:45:00 PM 5.34 41.612 0.043 6.64 2.41 12.04
11/15/2021 12:00:00 AM 5.33 41.594 0.043 6.64 2.69 12.04
11/15/2021 12:15:00 AM 5.32 41.576 0.043 6.63 2.57 12.04
11/15/2021 12:30:00 AM 5.32 41.576 0.043 6.64 2.5 12.04
11/15/2021 12:45:00 AM 5.31 41.558 0.043 6.64 2.49 12.05
11/15/2021 1:00:00 AM 5.3 41.54 0.043 6.63 2.52 12.05
11/15/2021 1:15:00 AM 5.3 41.54 0.043 6.64 2.41 12.05
11/15/2021 1:30:00 AM 5.29 41.522 0.043 6.63 2.67 12.05
11/15/2021 1:45:00 AM 5.28 41.504 0.043 6.64 2.85 12.06
11/15/2021 2:00:00 AM 5.28 41.504 0.043 6.64 2.72 12.06
11/15/2021 2:15:00 AM 5.28 41.504 0.043 6.64 2.71 12.06
11/15/2021 2:30:00 AM 5.28 41.504 0.043 6.64 2.66 12.06
11/15/2021 2:45:00 AM 5.27 41.486 0.043 6.64 2.74 12.06
11/15/2021 3:00:00 AM 5.27 41.486 0.043 6.62 2.69 12.06
11/15/2021 3:15:00 AM 5.27 41.486 0.044 6.64 2.85 12.06
11/15/2021 3:30:00 AM 5.26 41.468 0.043 6.64 2.62 12.06
11/15/2021 3:45:00 AM 5.26 41.468 0.044 6.64 2.75 12.07
11/15/2021 4:00:00 AM 5.26 41.468 0.044 6.64 2.65 12.06
11/15/2021 4:15:00 AM 5.26 41.468 0.044 6.64 2.66 12.06
11/15/2021 4:30:00 AM 5.25 41.45 0.044 6.65 2.65 12.07
11/15/2021 4:45:00 AM 5.25 41.45 0.044 6.65 2.71 12.07
11/15/2021 5:00:00 AM 5.25 41.45 0.044 6.64 2.67 12.07
11/15/2021 5:15:00 AM 5.25 41.45 0.044 6.64 2.64 12.08
11/15/2021 5:30:00 AM 5.24 41.432 0.044 6.65 2.68 12.07
11/15/2021 5:45:00 AM 5.25 41.45 0.044 6.58 2.68 12.08
11/15/2021 6:00:00 AM 5.25 41.45 0.044 6.64 2.68 12.07
11/15/2021 6:15:00 AM 5.25 41.45 0.044 6.64 2.62 12.08
11/15/2021 6:30:00 AM 5.25 41.45 0.044 6.64 2.58 12.08
11/15/2021 6:45:00 AM 5.25 41.45 0.044 6.64 3.02 12.08
11/15/2021 7:00:00 AM 5.25 41.45 0.044 6.64 2.73 12.08
11/15/2021 7:15:00 AM 5.25 41.45 0.044 6.64 2.81 12.09
11/15/2021 7:30:00 AM 5.25 41.45 0.044 6.65 2.69 12.11
11/15/2021 7:45:00 AM 5.26 41.468 0.044 6.65 2.66 12.14
11/15/2021 8:00:00 AM 5.27 41.486 0.044 6.66 2.6 12.18
11/15/2021 8:15:00 AM 5.28 41.504 0.043 6.68 2.58 12.22
11/15/2021 8:30:00 AM 5.31 41.558 0.043 6.68 2.6 12.26
11/15/2021 8:45:00 AM 5.34 41.612 0.043 6.7 7.5 12.3
11/15/2021 9:00:00 AM 5.37 41.666 0.041 6.68 4.87 12.31
11/15/2021 9:15:00 AM 5.4 41.72 0.041 6.7 4.12 12.34
11/15/2021 9:30:00 AM